<?xml version="1.0" encoding="UTF-8" standalone="no" ?>
<gpx xmlns="http://www.topografix.com/GPX/1/1" xmlns:xsi="http://www.w3.org/2001/XMLSchema-instance" xsi:schemaLocation="http://www.topografix.com/GPX/1/1 http://www.topografix.com/GPX/1/1/gpx.xsd" version="1.1" creator="VisuGPX - https://www.visugpx.com">
  <metadata>
    <name>83-M-Aups</name>
    <desc><![CDATA[83-M-Aups : le pic de l\'Aigle
mercredi 30 mai 2012]]></desc>
  </metadata>
  <trk>
    <name><![CDATA[2012-05-30-aups]]></name>
    <trkseg>
      <trkpt lat="43.66214" lon="6.22634">
        <ele>763.156921</ele>
        <time>2012-05-30T12:07:44Z</time>
      </trkpt>
      <trkpt lat="43.66205" lon="6.22629">
        <ele>766.364746</ele>
        <time>2012-05-30T12:09:36Z</time>
      </trkpt>
      <trkpt lat="43.66205" lon="6.22629">
        <ele>766.432189</ele>
        <time>2012-05-30T12:09:37Z</time>
      </trkpt>
      <trkpt lat="43.66204" lon="6.22616">
        <ele>767</ele>
        <time>2012-05-30T12:12:14Z</time>
      </trkpt>
      <trkpt lat="43.66211" lon="6.22596">
        <ele>769.8</ele>
        <time>2012-05-30T12:12:37Z</time>
      </trkpt>
      <trkpt lat="43.66215" lon="6.22586">
        <ele>771.2</ele>
        <time>2012-05-30T12:12:48Z</time>
      </trkpt>
      <trkpt lat="43.66219" lon="6.22576">
        <ele>772.4</ele>
        <time>2012-05-30T12:12:58Z</time>
      </trkpt>
      <trkpt lat="43.66221" lon="6.22564">
        <ele>773.2</ele>
        <time>2012-05-30T12:13:08Z</time>
      </trkpt>
      <trkpt lat="43.66224" lon="6.22553">
        <ele>774</ele>
        <time>2012-05-30T12:13:18Z</time>
      </trkpt>
      <trkpt lat="43.66224" lon="6.22552">
        <ele>773.6</ele>
        <time>2012-05-30T12:13:19Z</time>
      </trkpt>
      <trkpt lat="43.66224" lon="6.22529">
        <ele>775.5</ele>
        <time>2012-05-30T12:13:39Z</time>
      </trkpt>
      <trkpt lat="43.66218" lon="6.22521">
        <ele>776.8</ele>
        <time>2012-05-30T12:13:48Z</time>
      </trkpt>
      <trkpt lat="43.66211" lon="6.22513">
        <ele>778</ele>
        <time>2012-05-30T12:13:57Z</time>
      </trkpt>
      <trkpt lat="43.66205" lon="6.22507">
        <ele>779.1</ele>
        <time>2012-05-30T12:14:06Z</time>
      </trkpt>
      <trkpt lat="43.66201" lon="6.22496">
        <ele>779.7</ele>
        <time>2012-05-30T12:14:15Z</time>
      </trkpt>
      <trkpt lat="43.66198" lon="6.22484">
        <ele>780.7</ele>
        <time>2012-05-30T12:14:25Z</time>
      </trkpt>
      <trkpt lat="43.66198" lon="6.22483">
        <ele>780.7</ele>
        <time>2012-05-30T12:14:26Z</time>
      </trkpt>
      <trkpt lat="43.66191" lon="6.22462">
        <ele>783.2</ele>
        <time>2012-05-30T12:14:46Z</time>
      </trkpt>
      <trkpt lat="43.66188" lon="6.22452">
        <ele>784.4</ele>
        <time>2012-05-30T12:14:56Z</time>
      </trkpt>
      <trkpt lat="43.66185" lon="6.2244">
        <ele>785</ele>
        <time>2012-05-30T12:15:06Z</time>
      </trkpt>
      <trkpt lat="43.66185" lon="6.22429">
        <ele>785.1</ele>
        <time>2012-05-30T12:15:12Z</time>
      </trkpt>
      <trkpt lat="43.66183" lon="6.22418">
        <ele>785.6</ele>
        <time>2012-05-30T12:15:18Z</time>
      </trkpt>
      <trkpt lat="43.66182" lon="6.22407">
        <ele>786.3</ele>
        <time>2012-05-30T12:15:24Z</time>
      </trkpt>
      <trkpt lat="43.66181" lon="6.22396">
        <ele>786</ele>
        <time>2012-05-30T12:15:31Z</time>
      </trkpt>
      <trkpt lat="43.6618" lon="6.22394">
        <ele>786.2</ele>
        <time>2012-05-30T12:15:32Z</time>
      </trkpt>
      <trkpt lat="43.66181" lon="6.22372">
        <ele>787.9</ele>
        <time>2012-05-30T12:15:45Z</time>
      </trkpt>
      <trkpt lat="43.66182" lon="6.22361">
        <ele>788.3</ele>
        <time>2012-05-30T12:15:52Z</time>
      </trkpt>
      <trkpt lat="43.66185" lon="6.22349">
        <ele>788.2</ele>
        <time>2012-05-30T12:16:00Z</time>
      </trkpt>
      <trkpt lat="43.66188" lon="6.22338">
        <ele>789.6</ele>
        <time>2012-05-30T12:16:08Z</time>
      </trkpt>
      <trkpt lat="43.66189" lon="6.22326">
        <ele>790.5</ele>
        <time>2012-05-30T12:16:16Z</time>
      </trkpt>
      <trkpt lat="43.6619" lon="6.22315">
        <ele>791</ele>
        <time>2012-05-30T12:16:24Z</time>
      </trkpt>
      <trkpt lat="43.6619" lon="6.22303">
        <ele>791.4</ele>
        <time>2012-05-30T12:16:32Z</time>
      </trkpt>
      <trkpt lat="43.6619" lon="6.22302">
        <ele>791.6</ele>
        <time>2012-05-30T12:16:33Z</time>
      </trkpt>
      <trkpt lat="43.66193" lon="6.22282">
        <ele>792.2</ele>
        <time>2012-05-30T12:16:45Z</time>
      </trkpt>
      <trkpt lat="43.66195" lon="6.22271">
        <ele>792.3</ele>
        <time>2012-05-30T12:16:52Z</time>
      </trkpt>
      <trkpt lat="43.66198" lon="6.2226">
        <ele>793.5</ele>
        <time>2012-05-30T12:17:00Z</time>
      </trkpt>
      <trkpt lat="43.66199" lon="6.22247">
        <ele>795.6</ele>
        <time>2012-05-30T12:17:08Z</time>
      </trkpt>
      <trkpt lat="43.662" lon="6.22235">
        <ele>795.3</ele>
        <time>2012-05-30T12:17:15Z</time>
      </trkpt>
      <trkpt lat="43.66202" lon="6.22224">
        <ele>795.5</ele>
        <time>2012-05-30T12:17:22Z</time>
      </trkpt>
      <trkpt lat="43.66203" lon="6.22213">
        <ele>795.7</ele>
        <time>2012-05-30T12:17:29Z</time>
      </trkpt>
      <trkpt lat="43.66205" lon="6.22202">
        <ele>796</ele>
        <time>2012-05-30T12:17:36Z</time>
      </trkpt>
      <trkpt lat="43.66205" lon="6.222">
        <ele>796</ele>
        <time>2012-05-30T12:17:37Z</time>
      </trkpt>
      <trkpt lat="43.6621" lon="6.22179">
        <ele>796.6</ele>
        <time>2012-05-30T12:17:51Z</time>
      </trkpt>
      <trkpt lat="43.66213" lon="6.22169">
        <ele>797.6</ele>
        <time>2012-05-30T12:17:57Z</time>
      </trkpt>
      <trkpt lat="43.66215" lon="6.22158">
        <ele>798.2</ele>
        <time>2012-05-30T12:18:04Z</time>
      </trkpt>
      <trkpt lat="43.66218" lon="6.22147">
        <ele>798.4</ele>
        <time>2012-05-30T12:18:11Z</time>
      </trkpt>
      <trkpt lat="43.66221" lon="6.22135">
        <ele>798.1</ele>
        <time>2012-05-30T12:18:18Z</time>
      </trkpt>
      <trkpt lat="43.66225" lon="6.22124">
        <ele>798.4</ele>
        <time>2012-05-30T12:18:26Z</time>
      </trkpt>
      <trkpt lat="43.66229" lon="6.22113">
        <ele>798.2</ele>
        <time>2012-05-30T12:18:33Z</time>
      </trkpt>
      <trkpt lat="43.66232" lon="6.22102">
        <ele>798.3</ele>
        <time>2012-05-30T12:18:40Z</time>
      </trkpt>
      <trkpt lat="43.66232" lon="6.22101">
        <ele>798.2</ele>
        <time>2012-05-30T12:18:41Z</time>
      </trkpt>
      <trkpt lat="43.66241" lon="6.22083">
        <ele>799.8</ele>
        <time>2012-05-30T12:18:54Z</time>
      </trkpt>
      <trkpt lat="43.66246" lon="6.22073">
        <ele>801</ele>
        <time>2012-05-30T12:19:02Z</time>
      </trkpt>
      <trkpt lat="43.66252" lon="6.22064">
        <ele>802</ele>
        <time>2012-05-30T12:19:10Z</time>
      </trkpt>
      <trkpt lat="43.66259" lon="6.22057">
        <ele>803.2</ele>
        <time>2012-05-30T12:19:18Z</time>
      </trkpt>
      <trkpt lat="43.66266" lon="6.2205">
        <ele>804.1</ele>
        <time>2012-05-30T12:19:26Z</time>
      </trkpt>
      <trkpt lat="43.66272" lon="6.22043">
        <ele>805.1</ele>
        <time>2012-05-30T12:19:33Z</time>
      </trkpt>
      <trkpt lat="43.66278" lon="6.22036">
        <ele>806.3</ele>
        <time>2012-05-30T12:19:40Z</time>
      </trkpt>
      <trkpt lat="43.66284" lon="6.22026">
        <ele>806.9</ele>
        <time>2012-05-30T12:19:48Z</time>
      </trkpt>
      <trkpt lat="43.66284" lon="6.22024">
        <ele>806.9</ele>
        <time>2012-05-30T12:19:49Z</time>
      </trkpt>
      <trkpt lat="43.6629" lon="6.22005">
        <ele>808.7</ele>
        <time>2012-05-30T12:20:02Z</time>
      </trkpt>
      <trkpt lat="43.66292" lon="6.21994">
        <ele>808.8</ele>
        <time>2012-05-30T12:20:09Z</time>
      </trkpt>
      <trkpt lat="43.66295" lon="6.21983">
        <ele>808.9</ele>
        <time>2012-05-30T12:20:16Z</time>
      </trkpt>
      <trkpt lat="43.66298" lon="6.21973">
        <ele>808.8</ele>
        <time>2012-05-30T12:20:23Z</time>
      </trkpt>
      <trkpt lat="43.663" lon="6.21961">
        <ele>809</ele>
        <time>2012-05-30T12:20:30Z</time>
      </trkpt>
      <trkpt lat="43.66302" lon="6.2195">
        <ele>809.3</ele>
        <time>2012-05-30T12:20:37Z</time>
      </trkpt>
      <trkpt lat="43.66304" lon="6.21938">
        <ele>809</ele>
        <time>2012-05-30T12:20:44Z</time>
      </trkpt>
      <trkpt lat="43.66307" lon="6.21928">
        <ele>808.8</ele>
        <time>2012-05-30T12:20:50Z</time>
      </trkpt>
      <trkpt lat="43.66307" lon="6.21926">
        <ele>809.1</ele>
        <time>2012-05-30T12:20:51Z</time>
      </trkpt>
      <trkpt lat="43.66313" lon="6.21905">
        <ele>808.7</ele>
        <time>2012-05-30T12:21:04Z</time>
      </trkpt>
      <trkpt lat="43.66318" lon="6.21896">
        <ele>808.6</ele>
        <time>2012-05-30T12:21:10Z</time>
      </trkpt>
      <trkpt lat="43.66323" lon="6.21889">
        <ele>808.7</ele>
        <time>2012-05-30T12:21:15Z</time>
      </trkpt>
      <trkpt lat="43.66328" lon="6.2188">
        <ele>808.6</ele>
        <time>2012-05-30T12:21:21Z</time>
      </trkpt>
      <trkpt lat="43.66334" lon="6.21872">
        <ele>808.8</ele>
        <time>2012-05-30T12:21:27Z</time>
      </trkpt>
      <trkpt lat="43.6634" lon="6.21863">
        <ele>808.9</ele>
        <time>2012-05-30T12:21:34Z</time>
      </trkpt>
      <trkpt lat="43.66345" lon="6.21854">
        <ele>808.1</ele>
        <time>2012-05-30T12:21:41Z</time>
      </trkpt>
      <trkpt lat="43.6635" lon="6.21845">
        <ele>807.3</ele>
        <time>2012-05-30T12:21:48Z</time>
      </trkpt>
      <trkpt lat="43.66355" lon="6.21835">
        <ele>807.7</ele>
        <time>2012-05-30T12:21:55Z</time>
      </trkpt>
      <trkpt lat="43.66356" lon="6.21833">
        <ele>807.7</ele>
        <time>2012-05-30T12:21:56Z</time>
      </trkpt>
      <trkpt lat="43.66364" lon="6.21815">
        <ele>806.8</ele>
        <time>2012-05-30T12:22:08Z</time>
      </trkpt>
      <trkpt lat="43.66368" lon="6.21806">
        <ele>806.3</ele>
        <time>2012-05-30T12:22:14Z</time>
      </trkpt>
      <trkpt lat="43.66372" lon="6.21797">
        <ele>806.1</ele>
        <time>2012-05-30T12:22:20Z</time>
      </trkpt>
      <trkpt lat="43.66377" lon="6.21787">
        <ele>806.5</ele>
        <time>2012-05-30T12:22:27Z</time>
      </trkpt>
      <trkpt lat="43.66382" lon="6.21777">
        <ele>806.4</ele>
        <time>2012-05-30T12:22:34Z</time>
      </trkpt>
      <trkpt lat="43.66386" lon="6.21767">
        <ele>806.1</ele>
        <time>2012-05-30T12:22:40Z</time>
      </trkpt>
      <trkpt lat="43.66391" lon="6.21758">
        <ele>806.4</ele>
        <time>2012-05-30T12:22:46Z</time>
      </trkpt>
      <trkpt lat="43.66394" lon="6.21748">
        <ele>806</ele>
        <time>2012-05-30T12:22:52Z</time>
      </trkpt>
      <trkpt lat="43.66397" lon="6.21737">
        <ele>805</ele>
        <time>2012-05-30T12:22:59Z</time>
      </trkpt>
      <trkpt lat="43.66397" lon="6.21735">
        <ele>805.1</ele>
        <time>2012-05-30T12:23:00Z</time>
      </trkpt>
      <trkpt lat="43.66406" lon="6.21718">
        <ele>804.5</ele>
        <time>2012-05-30T12:23:11Z</time>
      </trkpt>
      <trkpt lat="43.66412" lon="6.21709">
        <ele>804.3</ele>
        <time>2012-05-30T12:23:17Z</time>
      </trkpt>
      <trkpt lat="43.66418" lon="6.21702">
        <ele>804.4</ele>
        <time>2012-05-30T12:23:23Z</time>
      </trkpt>
      <trkpt lat="43.66424" lon="6.21693">
        <ele>804</ele>
        <time>2012-05-30T12:23:30Z</time>
      </trkpt>
      <trkpt lat="43.6643" lon="6.21686">
        <ele>802.8</ele>
        <time>2012-05-30T12:23:36Z</time>
      </trkpt>
      <trkpt lat="43.66436" lon="6.21677">
        <ele>802.5</ele>
        <time>2012-05-30T12:23:43Z</time>
      </trkpt>
      <trkpt lat="43.66441" lon="6.21667">
        <ele>803.3</ele>
        <time>2012-05-30T12:23:51Z</time>
      </trkpt>
      <trkpt lat="43.66445" lon="6.21657">
        <ele>803.3</ele>
        <time>2012-05-30T12:23:59Z</time>
      </trkpt>
      <trkpt lat="43.66446" lon="6.21646">
        <ele>803.5</ele>
        <time>2012-05-30T12:24:06Z</time>
      </trkpt>
      <trkpt lat="43.66446" lon="6.21644">
        <ele>803.5</ele>
        <time>2012-05-30T12:24:07Z</time>
      </trkpt>
      <trkpt lat="43.66448" lon="6.21624">
        <ele>803.7</ele>
        <time>2012-05-30T12:24:20Z</time>
      </trkpt>
      <trkpt lat="43.6645" lon="6.21612">
        <ele>802.9</ele>
        <time>2012-05-30T12:24:27Z</time>
      </trkpt>
      <trkpt lat="43.66454" lon="6.21602">
        <ele>803.2</ele>
        <time>2012-05-30T12:24:33Z</time>
      </trkpt>
      <trkpt lat="43.66456" lon="6.21591">
        <ele>803.7</ele>
        <time>2012-05-30T12:24:40Z</time>
      </trkpt>
      <trkpt lat="43.6646" lon="6.2158">
        <ele>804.1</ele>
        <time>2012-05-30T12:24:48Z</time>
      </trkpt>
      <trkpt lat="43.66462" lon="6.21568">
        <ele>804.3</ele>
        <time>2012-05-30T12:24:56Z</time>
      </trkpt>
      <trkpt lat="43.66465" lon="6.21557">
        <ele>805.7</ele>
        <time>2012-05-30T12:25:03Z</time>
      </trkpt>
      <trkpt lat="43.66466" lon="6.21546">
        <ele>806.2</ele>
        <time>2012-05-30T12:25:11Z</time>
      </trkpt>
      <trkpt lat="43.66467" lon="6.21545">
        <ele>806.5</ele>
        <time>2012-05-30T12:25:12Z</time>
      </trkpt>
      <trkpt lat="43.66471" lon="6.21524">
        <ele>809</ele>
        <time>2012-05-30T12:25:27Z</time>
      </trkpt>
      <trkpt lat="43.66473" lon="6.21513">
        <ele>810.2</ele>
        <time>2012-05-30T12:25:35Z</time>
      </trkpt>
      <trkpt lat="43.66475" lon="6.21501">
        <ele>812.1</ele>
        <time>2012-05-30T12:25:45Z</time>
      </trkpt>
      <trkpt lat="43.66477" lon="6.21489">
        <ele>813.3</ele>
        <time>2012-05-30T12:25:54Z</time>
      </trkpt>
      <trkpt lat="43.66479" lon="6.21478">
        <ele>814.6</ele>
        <time>2012-05-30T12:26:02Z</time>
      </trkpt>
      <trkpt lat="43.66483" lon="6.21468">
        <ele>816.4</ele>
        <time>2012-05-30T12:26:10Z</time>
      </trkpt>
      <trkpt lat="43.66489" lon="6.21459">
        <ele>818</ele>
        <time>2012-05-30T12:26:17Z</time>
      </trkpt>
      <trkpt lat="43.66489" lon="6.21458">
        <ele>818.2</ele>
        <time>2012-05-30T12:26:18Z</time>
      </trkpt>
      <trkpt lat="43.665" lon="6.21442">
        <ele>819.7</ele>
        <time>2012-05-30T12:26:33Z</time>
      </trkpt>
      <trkpt lat="43.66507" lon="6.21435">
        <ele>821</ele>
        <time>2012-05-30T12:26:42Z</time>
      </trkpt>
      <trkpt lat="43.66515" lon="6.21429">
        <ele>822.9</ele>
        <time>2012-05-30T12:26:51Z</time>
      </trkpt>
      <trkpt lat="43.66523" lon="6.21427">
        <ele>824.2</ele>
        <time>2012-05-30T12:27:00Z</time>
      </trkpt>
      <trkpt lat="43.66531" lon="6.21424">
        <ele>825.6</ele>
        <time>2012-05-30T12:27:09Z</time>
      </trkpt>
      <trkpt lat="43.66539" lon="6.21421">
        <ele>826.4</ele>
        <time>2012-05-30T12:27:17Z</time>
      </trkpt>
      <trkpt lat="43.66546" lon="6.21414">
        <ele>827.4</ele>
        <time>2012-05-30T12:27:24Z</time>
      </trkpt>
      <trkpt lat="43.66547" lon="6.21413">
        <ele>827.3</ele>
        <time>2012-05-30T12:27:25Z</time>
      </trkpt>
      <trkpt lat="43.66559" lon="6.21398">
        <ele>828.7</ele>
        <time>2012-05-30T12:27:39Z</time>
      </trkpt>
      <trkpt lat="43.66565" lon="6.21391">
        <ele>827.4</ele>
        <time>2012-05-30T12:27:47Z</time>
      </trkpt>
      <trkpt lat="43.6657" lon="6.21382">
        <ele>828</ele>
        <time>2012-05-30T12:27:55Z</time>
      </trkpt>
      <trkpt lat="43.66573" lon="6.21371">
        <ele>827.8</ele>
        <time>2012-05-30T12:28:04Z</time>
      </trkpt>
      <trkpt lat="43.66579" lon="6.21362">
        <ele>828.1</ele>
        <time>2012-05-30T12:28:10Z</time>
      </trkpt>
      <trkpt lat="43.66584" lon="6.21354">
        <ele>828.8</ele>
        <time>2012-05-30T12:28:16Z</time>
      </trkpt>
      <trkpt lat="43.66589" lon="6.21345">
        <ele>829.4</ele>
        <time>2012-05-30T12:28:23Z</time>
      </trkpt>
      <trkpt lat="43.66595" lon="6.21336">
        <ele>830</ele>
        <time>2012-05-30T12:28:31Z</time>
      </trkpt>
      <trkpt lat="43.66596" lon="6.21336">
        <ele>829.8</ele>
        <time>2012-05-30T12:28:32Z</time>
      </trkpt>
      <trkpt lat="43.6661" lon="6.21327">
        <ele>831.9</ele>
        <time>2012-05-30T12:28:46Z</time>
      </trkpt>
      <trkpt lat="43.66619" lon="6.21323">
        <ele>833.1</ele>
        <time>2012-05-30T12:28:54Z</time>
      </trkpt>
      <trkpt lat="43.66627" lon="6.21319">
        <ele>833.5</ele>
        <time>2012-05-30T12:29:02Z</time>
      </trkpt>
      <trkpt lat="43.66634" lon="6.21315">
        <ele>833.2</ele>
        <time>2012-05-30T12:29:10Z</time>
      </trkpt>
      <trkpt lat="43.66642" lon="6.2131">
        <ele>834.4</ele>
        <time>2012-05-30T12:29:18Z</time>
      </trkpt>
      <trkpt lat="43.66649" lon="6.21302">
        <ele>835.6</ele>
        <time>2012-05-30T12:29:26Z</time>
      </trkpt>
      <trkpt lat="43.66656" lon="6.21297">
        <ele>836.1</ele>
        <time>2012-05-30T12:29:34Z</time>
      </trkpt>
      <trkpt lat="43.66656" lon="6.21296">
        <ele>836.2</ele>
        <time>2012-05-30T12:29:35Z</time>
      </trkpt>
      <trkpt lat="43.66669" lon="6.21283">
        <ele>838.1</ele>
        <time>2012-05-30T12:29:52Z</time>
      </trkpt>
      <trkpt lat="43.66676" lon="6.21276">
        <ele>839.9</ele>
        <time>2012-05-30T12:30:01Z</time>
      </trkpt>
      <trkpt lat="43.66681" lon="6.21268">
        <ele>840.9</ele>
        <time>2012-05-30T12:30:09Z</time>
      </trkpt>
      <trkpt lat="43.66688" lon="6.21262">
        <ele>842.4</ele>
        <time>2012-05-30T12:30:17Z</time>
      </trkpt>
      <trkpt lat="43.66696" lon="6.21255">
        <ele>844.2</ele>
        <time>2012-05-30T12:30:27Z</time>
      </trkpt>
      <trkpt lat="43.66701" lon="6.21246">
        <ele>846.2</ele>
        <time>2012-05-30T12:30:37Z</time>
      </trkpt>
      <trkpt lat="43.66701" lon="6.21245">
        <ele>846.5</ele>
        <time>2012-05-30T12:30:38Z</time>
      </trkpt>
      <trkpt lat="43.66713" lon="6.21228">
        <ele>849.9</ele>
        <time>2012-05-30T12:30:58Z</time>
      </trkpt>
      <trkpt lat="43.6672" lon="6.2122">
        <ele>852.8</ele>
        <time>2012-05-30T12:31:09Z</time>
      </trkpt>
      <trkpt lat="43.66725" lon="6.21211">
        <ele>855</ele>
        <time>2012-05-30T12:31:21Z</time>
      </trkpt>
      <trkpt lat="43.66731" lon="6.21203">
        <ele>856.6</ele>
        <time>2012-05-30T12:31:32Z</time>
      </trkpt>
      <trkpt lat="43.66739" lon="6.21196">
        <ele>858.7</ele>
        <time>2012-05-30T12:31:43Z</time>
      </trkpt>
      <trkpt lat="43.6674" lon="6.21196">
        <ele>858.7</ele>
        <time>2012-05-30T12:31:44Z</time>
      </trkpt>
      <trkpt lat="43.66752" lon="6.2118">
        <ele>862.8</ele>
        <time>2012-05-30T12:32:07Z</time>
      </trkpt>
      <trkpt lat="43.66758" lon="6.21173">
        <ele>864.2</ele>
        <time>2012-05-30T12:32:16Z</time>
      </trkpt>
      <trkpt lat="43.66765" lon="6.21166">
        <ele>865.3</ele>
        <time>2012-05-30T12:32:26Z</time>
      </trkpt>
      <trkpt lat="43.66771" lon="6.21158">
        <ele>865.8</ele>
        <time>2012-05-30T12:32:37Z</time>
      </trkpt>
      <trkpt lat="43.66776" lon="6.21149">
        <ele>867.4</ele>
        <time>2012-05-30T12:32:51Z</time>
      </trkpt>
      <trkpt lat="43.66776" lon="6.21148">
        <ele>867.7</ele>
        <time>2012-05-30T12:32:52Z</time>
      </trkpt>
      <trkpt lat="43.66787" lon="6.21132">
        <ele>870.7</ele>
        <time>2012-05-30T12:33:20Z</time>
      </trkpt>
      <trkpt lat="43.66795" lon="6.21126">
        <ele>871.3</ele>
        <time>2012-05-30T12:33:28Z</time>
      </trkpt>
      <trkpt lat="43.66801" lon="6.21119">
        <ele>871.6</ele>
        <time>2012-05-30T12:33:36Z</time>
      </trkpt>
      <trkpt lat="43.66808" lon="6.21112">
        <ele>872.6</ele>
        <time>2012-05-30T12:33:45Z</time>
      </trkpt>
      <trkpt lat="43.66815" lon="6.21105">
        <ele>875.7</ele>
        <time>2012-05-30T12:33:58Z</time>
      </trkpt>
      <trkpt lat="43.66816" lon="6.21104">
        <ele>875.8</ele>
        <time>2012-05-30T12:33:59Z</time>
      </trkpt>
      <trkpt lat="43.66828" lon="6.21092">
        <ele>878.7</ele>
        <time>2012-05-30T12:34:16Z</time>
      </trkpt>
      <trkpt lat="43.66836" lon="6.21088">
        <ele>880.5</ele>
        <time>2012-05-30T12:34:27Z</time>
      </trkpt>
      <trkpt lat="43.66843" lon="6.21083">
        <ele>882</ele>
        <time>2012-05-30T12:34:38Z</time>
      </trkpt>
      <trkpt lat="43.66851" lon="6.21079">
        <ele>884.3</ele>
        <time>2012-05-30T12:34:48Z</time>
      </trkpt>
      <trkpt lat="43.66858" lon="6.21073">
        <ele>887</ele>
        <time>2012-05-30T12:35:00Z</time>
      </trkpt>
      <trkpt lat="43.66859" lon="6.21072">
        <ele>887.2</ele>
        <time>2012-05-30T12:35:01Z</time>
      </trkpt>
      <trkpt lat="43.66873" lon="6.21062">
        <ele>889.3</ele>
        <time>2012-05-30T12:35:19Z</time>
      </trkpt>
      <trkpt lat="43.6688" lon="6.21057">
        <ele>890.2</ele>
        <time>2012-05-30T12:35:26Z</time>
      </trkpt>
      <trkpt lat="43.66887" lon="6.21052">
        <ele>890.6</ele>
        <time>2012-05-30T12:35:33Z</time>
      </trkpt>
      <trkpt lat="43.66893" lon="6.21043">
        <ele>890.8</ele>
        <time>2012-05-30T12:35:41Z</time>
      </trkpt>
      <trkpt lat="43.66897" lon="6.21033">
        <ele>892.2</ele>
        <time>2012-05-30T12:35:51Z</time>
      </trkpt>
      <trkpt lat="43.66902" lon="6.21023">
        <ele>892.8</ele>
        <time>2012-05-30T12:35:59Z</time>
      </trkpt>
      <trkpt lat="43.66906" lon="6.21013">
        <ele>893.6</ele>
        <time>2012-05-30T12:36:06Z</time>
      </trkpt>
      <trkpt lat="43.66907" lon="6.21012">
        <ele>893.8</ele>
        <time>2012-05-30T12:36:07Z</time>
      </trkpt>
      <trkpt lat="43.66916" lon="6.20994">
        <ele>895.5</ele>
        <time>2012-05-30T12:36:21Z</time>
      </trkpt>
      <trkpt lat="43.66921" lon="6.20985">
        <ele>895.9</ele>
        <time>2012-05-30T12:36:28Z</time>
      </trkpt>
      <trkpt lat="43.66926" lon="6.20975">
        <ele>897.4</ele>
        <time>2012-05-30T12:36:35Z</time>
      </trkpt>
      <trkpt lat="43.6693" lon="6.20965">
        <ele>897.7</ele>
        <time>2012-05-30T12:36:42Z</time>
      </trkpt>
      <trkpt lat="43.66934" lon="6.20956">
        <ele>898.7</ele>
        <time>2012-05-30T12:36:50Z</time>
      </trkpt>
      <trkpt lat="43.66938" lon="6.20945">
        <ele>900.2</ele>
        <time>2012-05-30T12:36:58Z</time>
      </trkpt>
      <trkpt lat="43.66942" lon="6.20935">
        <ele>901.8</ele>
        <time>2012-05-30T12:37:07Z</time>
      </trkpt>
      <trkpt lat="43.66943" lon="6.20933">
        <ele>901.9</ele>
        <time>2012-05-30T12:37:08Z</time>
      </trkpt>
      <trkpt lat="43.6695" lon="6.20913">
        <ele>905.8</ele>
        <time>2012-05-30T12:37:26Z</time>
      </trkpt>
      <trkpt lat="43.66954" lon="6.20903">
        <ele>907.8</ele>
        <time>2012-05-30T12:37:37Z</time>
      </trkpt>
      <trkpt lat="43.66957" lon="6.20892">
        <ele>909.1</ele>
        <time>2012-05-30T12:37:48Z</time>
      </trkpt>
      <trkpt lat="43.66962" lon="6.20883">
        <ele>911</ele>
        <time>2012-05-30T12:37:57Z</time>
      </trkpt>
      <trkpt lat="43.66968" lon="6.20874">
        <ele>911.6</ele>
        <time>2012-05-30T12:38:06Z</time>
      </trkpt>
      <trkpt lat="43.66974" lon="6.20865">
        <ele>913.6</ele>
        <time>2012-05-30T12:38:15Z</time>
      </trkpt>
      <trkpt lat="43.66975" lon="6.20864">
        <ele>913.8</ele>
        <time>2012-05-30T12:38:16Z</time>
      </trkpt>
      <trkpt lat="43.66987" lon="6.2085">
        <ele>916.6</ele>
        <time>2012-05-30T12:38:34Z</time>
      </trkpt>
      <trkpt lat="43.66994" lon="6.20842">
        <ele>918.5</ele>
        <time>2012-05-30T12:38:43Z</time>
      </trkpt>
      <trkpt lat="43.67" lon="6.20834">
        <ele>918.5</ele>
        <time>2012-05-30T12:38:53Z</time>
      </trkpt>
      <trkpt lat="43.67008" lon="6.20828">
        <ele>920.9</ele>
        <time>2012-05-30T12:39:02Z</time>
      </trkpt>
      <trkpt lat="43.67015" lon="6.20821">
        <ele>921.8</ele>
        <time>2012-05-30T12:39:10Z</time>
      </trkpt>
      <trkpt lat="43.67022" lon="6.20815">
        <ele>922.4</ele>
        <time>2012-05-30T12:39:17Z</time>
      </trkpt>
      <trkpt lat="43.67023" lon="6.20814">
        <ele>922.8</ele>
        <time>2012-05-30T12:39:18Z</time>
      </trkpt>
      <trkpt lat="43.67036" lon="6.20802">
        <ele>924.1</ele>
        <time>2012-05-30T12:39:33Z</time>
      </trkpt>
      <trkpt lat="43.67043" lon="6.20793">
        <ele>926</ele>
        <time>2012-05-30T12:39:42Z</time>
      </trkpt>
      <trkpt lat="43.67048" lon="6.20784">
        <ele>926.3</ele>
        <time>2012-05-30T12:39:54Z</time>
      </trkpt>
      <trkpt lat="43.67056" lon="6.20779">
        <ele>927.5</ele>
        <time>2012-05-30T12:41:18Z</time>
      </trkpt>
      <trkpt lat="43.67057" lon="6.20779">
        <ele>927.5</ele>
        <time>2012-05-30T12:41:19Z</time>
      </trkpt>
      <trkpt lat="43.67063" lon="6.20772">
        <ele>929.9</ele>
        <time>2012-05-30T12:43:21Z</time>
      </trkpt>
      <trkpt lat="43.67073" lon="6.20755">
        <ele>930</ele>
        <time>2012-05-30T12:43:37Z</time>
      </trkpt>
      <trkpt lat="43.6708" lon="6.20747">
        <ele>929.5</ele>
        <time>2012-05-30T12:43:58Z</time>
      </trkpt>
      <trkpt lat="43.67086" lon="6.2074">
        <ele>929.6</ele>
        <time>2012-05-30T12:44:07Z</time>
      </trkpt>
      <trkpt lat="43.67092" lon="6.20732">
        <ele>931</ele>
        <time>2012-05-30T12:44:15Z</time>
      </trkpt>
      <trkpt lat="43.67099" lon="6.20724">
        <ele>931.9</ele>
        <time>2012-05-30T12:44:24Z</time>
      </trkpt>
      <trkpt lat="43.67099" lon="6.20723">
        <ele>931.9</ele>
        <time>2012-05-30T12:44:25Z</time>
      </trkpt>
      <trkpt lat="43.67112" lon="6.20708">
        <ele>936.3</ele>
        <time>2012-05-30T12:44:45Z</time>
      </trkpt>
      <trkpt lat="43.67118" lon="6.20699">
        <ele>938.1</ele>
        <time>2012-05-30T12:44:59Z</time>
      </trkpt>
      <trkpt lat="43.67126" lon="6.20694">
        <ele>939.5</ele>
        <time>2012-05-30T12:45:08Z</time>
      </trkpt>
      <trkpt lat="43.67134" lon="6.20689">
        <ele>939.9</ele>
        <time>2012-05-30T12:45:18Z</time>
      </trkpt>
      <trkpt lat="43.67142" lon="6.20685">
        <ele>940.6</ele>
        <time>2012-05-30T12:45:29Z</time>
      </trkpt>
      <trkpt lat="43.67142" lon="6.20684">
        <ele>940.9</ele>
        <time>2012-05-30T12:45:30Z</time>
      </trkpt>
      <trkpt lat="43.67158" lon="6.20677">
        <ele>941.6</ele>
        <time>2012-05-30T12:45:50Z</time>
      </trkpt>
      <trkpt lat="43.67165" lon="6.20671">
        <ele>943.3</ele>
        <time>2012-05-30T12:46:01Z</time>
      </trkpt>
      <trkpt lat="43.67171" lon="6.20662">
        <ele>946.1</ele>
        <time>2012-05-30T12:46:15Z</time>
      </trkpt>
      <trkpt lat="43.67178" lon="6.20657">
        <ele>947.1</ele>
        <time>2012-05-30T12:46:25Z</time>
      </trkpt>
      <trkpt lat="43.67186" lon="6.20654">
        <ele>948.6</ele>
        <time>2012-05-30T12:46:35Z</time>
      </trkpt>
      <trkpt lat="43.67187" lon="6.20653">
        <ele>948.8</ele>
        <time>2012-05-30T12:46:36Z</time>
      </trkpt>
      <trkpt lat="43.67198" lon="6.20639">
        <ele>952.3</ele>
        <time>2012-05-30T12:46:57Z</time>
      </trkpt>
      <trkpt lat="43.67202" lon="6.20629">
        <ele>954.2</ele>
        <time>2012-05-30T12:47:15Z</time>
      </trkpt>
      <trkpt lat="43.67209" lon="6.20622">
        <ele>955.2</ele>
        <time>2012-05-30T12:47:24Z</time>
      </trkpt>
      <trkpt lat="43.67216" lon="6.20616">
        <ele>954.1</ele>
        <time>2012-05-30T12:47:34Z</time>
      </trkpt>
      <trkpt lat="43.67223" lon="6.20608">
        <ele>952.4</ele>
        <time>2012-05-30T12:47:44Z</time>
      </trkpt>
      <trkpt lat="43.67223" lon="6.20607">
        <ele>952.2</ele>
        <time>2012-05-30T12:47:45Z</time>
      </trkpt>
      <trkpt lat="43.67239" lon="6.20602">
        <ele>951.3</ele>
        <time>2012-05-30T12:48:01Z</time>
      </trkpt>
      <trkpt lat="43.67247" lon="6.20597">
        <ele>948.3</ele>
        <time>2012-05-30T12:48:16Z</time>
      </trkpt>
      <trkpt lat="43.67255" lon="6.20591">
        <ele>946.6</ele>
        <time>2012-05-30T12:48:27Z</time>
      </trkpt>
      <trkpt lat="43.67263" lon="6.20587">
        <ele>946.5</ele>
        <time>2012-05-30T12:48:38Z</time>
      </trkpt>
      <trkpt lat="43.67271" lon="6.20583">
        <ele>945.3</ele>
        <time>2012-05-30T12:48:47Z</time>
      </trkpt>
      <trkpt lat="43.67272" lon="6.20583">
        <ele>945.5</ele>
        <time>2012-05-30T12:48:48Z</time>
      </trkpt>
      <trkpt lat="43.67288" lon="6.20576">
        <ele>943.8</ele>
        <time>2012-05-30T12:49:04Z</time>
      </trkpt>
      <trkpt lat="43.67296" lon="6.20575">
        <ele>943.4</ele>
        <time>2012-05-30T12:49:11Z</time>
      </trkpt>
      <trkpt lat="43.67305" lon="6.20575">
        <ele>944.3</ele>
        <time>2012-05-30T12:49:20Z</time>
      </trkpt>
      <trkpt lat="43.67314" lon="6.20573">
        <ele>945.3</ele>
        <time>2012-05-30T12:49:28Z</time>
      </trkpt>
      <trkpt lat="43.67319" lon="6.20564">
        <ele>945.4</ele>
        <time>2012-05-30T12:49:38Z</time>
      </trkpt>
      <trkpt lat="43.67327" lon="6.20558">
        <ele>945.6</ele>
        <time>2012-05-30T12:49:46Z</time>
      </trkpt>
      <trkpt lat="43.67331" lon="6.20547">
        <ele>945.7</ele>
        <time>2012-05-30T12:49:57Z</time>
      </trkpt>
      <trkpt lat="43.67332" lon="6.20546">
        <ele>945.7</ele>
        <time>2012-05-30T12:49:58Z</time>
      </trkpt>
      <trkpt lat="43.67341" lon="6.20527">
        <ele>945.7</ele>
        <time>2012-05-30T12:50:12Z</time>
      </trkpt>
      <trkpt lat="43.67345" lon="6.20517">
        <ele>946.8</ele>
        <time>2012-05-30T12:50:20Z</time>
      </trkpt>
      <trkpt lat="43.67351" lon="6.20508">
        <ele>948.3</ele>
        <time>2012-05-30T12:50:28Z</time>
      </trkpt>
      <trkpt lat="43.67358" lon="6.20501">
        <ele>948.8</ele>
        <time>2012-05-30T12:50:36Z</time>
      </trkpt>
      <trkpt lat="43.67363" lon="6.20491">
        <ele>949.8</ele>
        <time>2012-05-30T12:50:45Z</time>
      </trkpt>
      <trkpt lat="43.67365" lon="6.20479">
        <ele>950.9</ele>
        <time>2012-05-30T12:51:01Z</time>
      </trkpt>
      <trkpt lat="43.67365" lon="6.20478">
        <ele>950.9</ele>
        <time>2012-05-30T12:51:02Z</time>
      </trkpt>
      <trkpt lat="43.67371" lon="6.20458">
        <ele>951.9</ele>
        <time>2012-05-30T12:51:20Z</time>
      </trkpt>
      <trkpt lat="43.67375" lon="6.20448">
        <ele>952.6</ele>
        <time>2012-05-30T12:51:29Z</time>
      </trkpt>
      <trkpt lat="43.6738" lon="6.20438">
        <ele>953.5</ele>
        <time>2012-05-30T12:51:38Z</time>
      </trkpt>
      <trkpt lat="43.67386" lon="6.20428">
        <ele>954.1</ele>
        <time>2012-05-30T12:51:47Z</time>
      </trkpt>
      <trkpt lat="43.6739" lon="6.20418">
        <ele>955.6</ele>
        <time>2012-05-30T12:51:58Z</time>
      </trkpt>
      <trkpt lat="43.67395" lon="6.20408">
        <ele>957.1</ele>
        <time>2012-05-30T12:52:08Z</time>
      </trkpt>
      <trkpt lat="43.67396" lon="6.20407">
        <ele>956.6</ele>
        <time>2012-05-30T12:52:09Z</time>
      </trkpt>
      <trkpt lat="43.67406" lon="6.20389">
        <ele>959.4</ele>
        <time>2012-05-30T12:52:25Z</time>
      </trkpt>
      <trkpt lat="43.67412" lon="6.20382">
        <ele>959.1</ele>
        <time>2012-05-30T12:52:33Z</time>
      </trkpt>
      <trkpt lat="43.6742" lon="6.20377">
        <ele>959.5</ele>
        <time>2012-05-30T12:52:40Z</time>
      </trkpt>
      <trkpt lat="43.67426" lon="6.20369">
        <ele>958.5</ele>
        <time>2012-05-30T12:52:48Z</time>
      </trkpt>
      <trkpt lat="43.67432" lon="6.20361">
        <ele>958</ele>
        <time>2012-05-30T12:52:57Z</time>
      </trkpt>
      <trkpt lat="43.67437" lon="6.20352">
        <ele>957.2</ele>
        <time>2012-05-30T12:53:05Z</time>
      </trkpt>
      <trkpt lat="43.67442" lon="6.20344">
        <ele>957.9</ele>
        <time>2012-05-30T12:53:12Z</time>
      </trkpt>
      <trkpt lat="43.67443" lon="6.20343">
        <ele>957.9</ele>
        <time>2012-05-30T12:53:13Z</time>
      </trkpt>
      <trkpt lat="43.67455" lon="6.2033">
        <ele>958.5</ele>
        <time>2012-05-30T12:53:27Z</time>
      </trkpt>
      <trkpt lat="43.67463" lon="6.20324">
        <ele>958.3</ele>
        <time>2012-05-30T12:53:40Z</time>
      </trkpt>
      <trkpt lat="43.6747" lon="6.2032">
        <ele>958</ele>
        <time>2012-05-30T12:54:04Z</time>
      </trkpt>
      <trkpt lat="43.67478" lon="6.20314">
        <ele>959.3</ele>
        <time>2012-05-30T12:54:14Z</time>
      </trkpt>
      <trkpt lat="43.67478" lon="6.20313">
        <ele>959.6</ele>
        <time>2012-05-30T12:54:15Z</time>
      </trkpt>
      <trkpt lat="43.67491" lon="6.20299">
        <ele>961.7</ele>
        <time>2012-05-30T12:54:42Z</time>
      </trkpt>
      <trkpt lat="43.67499" lon="6.20293">
        <ele>962.1</ele>
        <time>2012-05-30T12:54:50Z</time>
      </trkpt>
      <trkpt lat="43.67505" lon="6.20286">
        <ele>962.8</ele>
        <time>2012-05-30T12:54:58Z</time>
      </trkpt>
      <trkpt lat="43.67513" lon="6.20281">
        <ele>962.2</ele>
        <time>2012-05-30T12:55:06Z</time>
      </trkpt>
      <trkpt lat="43.6752" lon="6.20275">
        <ele>962.9</ele>
        <time>2012-05-30T12:55:14Z</time>
      </trkpt>
      <trkpt lat="43.67529" lon="6.20271">
        <ele>962.9</ele>
        <time>2012-05-30T12:55:22Z</time>
      </trkpt>
      <trkpt lat="43.6753" lon="6.20271">
        <ele>963.1</ele>
        <time>2012-05-30T12:55:23Z</time>
      </trkpt>
      <trkpt lat="43.67545" lon="6.20267">
        <ele>963.5</ele>
        <time>2012-05-30T12:55:37Z</time>
      </trkpt>
      <trkpt lat="43.67553" lon="6.20264">
        <ele>964.5</ele>
        <time>2012-05-30T12:55:47Z</time>
      </trkpt>
      <trkpt lat="43.67562" lon="6.2026">
        <ele>964.7</ele>
        <time>2012-05-30T12:55:56Z</time>
      </trkpt>
      <trkpt lat="43.6757" lon="6.20261">
        <ele>964.8</ele>
        <time>2012-05-30T12:56:04Z</time>
      </trkpt>
      <trkpt lat="43.67578" lon="6.20258">
        <ele>965.8</ele>
        <time>2012-05-30T12:56:12Z</time>
      </trkpt>
      <trkpt lat="43.67586" lon="6.20256">
        <ele>965.9</ele>
        <time>2012-05-30T12:56:20Z</time>
      </trkpt>
      <trkpt lat="43.67595" lon="6.20254">
        <ele>965.8</ele>
        <time>2012-05-30T12:56:28Z</time>
      </trkpt>
      <trkpt lat="43.67596" lon="6.20254">
        <ele>966.2</ele>
        <time>2012-05-30T12:56:29Z</time>
      </trkpt>
      <trkpt lat="43.6761" lon="6.20244">
        <ele>965.7</ele>
        <time>2012-05-30T12:57:10Z</time>
      </trkpt>
      <trkpt lat="43.67618" lon="6.20237">
        <ele>964.5</ele>
        <time>2012-05-30T12:57:20Z</time>
      </trkpt>
      <trkpt lat="43.67622" lon="6.20227">
        <ele>963.1</ele>
        <time>2012-05-30T12:57:30Z</time>
      </trkpt>
      <trkpt lat="43.67623" lon="6.20226">
        <ele>963.3</ele>
        <time>2012-05-30T12:57:31Z</time>
      </trkpt>
      <trkpt lat="43.67637" lon="6.20214">
        <ele>963</ele>
        <time>2012-05-30T12:57:47Z</time>
      </trkpt>
      <trkpt lat="43.67645" lon="6.20212">
        <ele>963.4</ele>
        <time>2012-05-30T12:57:55Z</time>
      </trkpt>
      <trkpt lat="43.67653" lon="6.20206">
        <ele>963.5</ele>
        <time>2012-05-30T12:58:03Z</time>
      </trkpt>
      <trkpt lat="43.6766" lon="6.20201">
        <ele>964.9</ele>
        <time>2012-05-30T12:58:12Z</time>
      </trkpt>
      <trkpt lat="43.67664" lon="6.2019">
        <ele>965.1</ele>
        <time>2012-05-30T12:58:22Z</time>
      </trkpt>
      <trkpt lat="43.67665" lon="6.20178">
        <ele>965.4</ele>
        <time>2012-05-30T12:58:31Z</time>
      </trkpt>
      <trkpt lat="43.67665" lon="6.20176">
        <ele>965</ele>
        <time>2012-05-30T12:58:32Z</time>
      </trkpt>
      <trkpt lat="43.67668" lon="6.20156">
        <ele>964.4</ele>
        <time>2012-05-30T12:58:48Z</time>
      </trkpt>
      <trkpt lat="43.67669" lon="6.20144">
        <ele>963.9</ele>
        <time>2012-05-30T12:58:56Z</time>
      </trkpt>
      <trkpt lat="43.6767" lon="6.20133">
        <ele>963.5</ele>
        <time>2012-05-30T12:59:03Z</time>
      </trkpt>
      <trkpt lat="43.67672" lon="6.20122">
        <ele>963.2</ele>
        <time>2012-05-30T12:59:10Z</time>
      </trkpt>
      <trkpt lat="43.67675" lon="6.20111">
        <ele>963</ele>
        <time>2012-05-30T12:59:18Z</time>
      </trkpt>
      <trkpt lat="43.67677" lon="6.20099">
        <ele>962.8</ele>
        <time>2012-05-30T12:59:27Z</time>
      </trkpt>
      <trkpt lat="43.67677" lon="6.20087">
        <ele>964.1</ele>
        <time>2012-05-30T12:59:34Z</time>
      </trkpt>
      <trkpt lat="43.67677" lon="6.20086">
        <ele>964.2</ele>
        <time>2012-05-30T12:59:35Z</time>
      </trkpt>
      <trkpt lat="43.67684" lon="6.20066">
        <ele>964.8</ele>
        <time>2012-05-30T13:00:00Z</time>
      </trkpt>
      <trkpt lat="43.67684" lon="6.20054">
        <ele>966.7</ele>
        <time>2012-05-30T13:00:16Z</time>
      </trkpt>
      <trkpt lat="43.67683" lon="6.20042">
        <ele>969.2</ele>
        <time>2012-05-30T13:00:32Z</time>
      </trkpt>
      <trkpt lat="43.6768" lon="6.2003">
        <ele>971.6</ele>
        <time>2012-05-30T13:00:46Z</time>
      </trkpt>
      <trkpt lat="43.6768" lon="6.20029">
        <ele>971.7</ele>
        <time>2012-05-30T13:00:47Z</time>
      </trkpt>
      <trkpt lat="43.67678" lon="6.20007">
        <ele>982.1</ele>
        <time>2012-05-30T13:01:56Z</time>
      </trkpt>
      <trkpt lat="43.67678" lon="6.20006">
        <ele>982.3</ele>
        <time>2012-05-30T13:01:57Z</time>
      </trkpt>
      <trkpt lat="43.6768" lon="6.19983">
        <ele>989.6</ele>
        <time>2012-05-30T13:02:32Z</time>
      </trkpt>
      <trkpt lat="43.67683" lon="6.19972">
        <ele>993.5</ele>
        <time>2012-05-30T13:02:53Z</time>
      </trkpt>
      <trkpt lat="43.67683" lon="6.1996">
        <ele>994.5</ele>
        <time>2012-05-30T13:05:17Z</time>
      </trkpt>
      <trkpt lat="43.67683" lon="6.19959">
        <ele>994.5</ele>
        <time>2012-05-30T13:05:18Z</time>
      </trkpt>
      <trkpt lat="43.67692" lon="6.19955">
        <ele>991.8</ele>
        <time>2012-05-30T13:11:18Z</time>
      </trkpt>
      <trkpt lat="43.67706" lon="6.19941">
        <ele>984</ele>
        <time>2012-05-30T13:12:32Z</time>
      </trkpt>
      <trkpt lat="43.67707" lon="6.19941">
        <ele>984.2</ele>
        <time>2012-05-30T13:12:33Z</time>
      </trkpt>
      <trkpt lat="43.67715" lon="6.19922">
        <ele>983.2</ele>
        <time>2012-05-30T13:12:52Z</time>
      </trkpt>
      <trkpt lat="43.6772" lon="6.19913">
        <ele>982.5</ele>
        <time>2012-05-30T13:13:00Z</time>
      </trkpt>
      <trkpt lat="43.67727" lon="6.19905">
        <ele>980.8</ele>
        <time>2012-05-30T13:13:11Z</time>
      </trkpt>
      <trkpt lat="43.67735" lon="6.199">
        <ele>978.2</ele>
        <time>2012-05-30T13:13:22Z</time>
      </trkpt>
      <trkpt lat="43.67742" lon="6.19893">
        <ele>977.4</ele>
        <time>2012-05-30T13:13:33Z</time>
      </trkpt>
      <trkpt lat="43.67742" lon="6.19892">
        <ele>977.7</ele>
        <time>2012-05-30T13:13:34Z</time>
      </trkpt>
      <trkpt lat="43.67754" lon="6.19875">
        <ele>976.6</ele>
        <time>2012-05-30T13:13:52Z</time>
      </trkpt>
      <trkpt lat="43.67762" lon="6.19871">
        <ele>975.7</ele>
        <time>2012-05-30T13:14:02Z</time>
      </trkpt>
      <trkpt lat="43.6777" lon="6.19868">
        <ele>974.5</ele>
        <time>2012-05-30T13:14:13Z</time>
      </trkpt>
      <trkpt lat="43.67777" lon="6.1986">
        <ele>972.2</ele>
        <time>2012-05-30T13:14:24Z</time>
      </trkpt>
      <trkpt lat="43.67783" lon="6.19853">
        <ele>972.2</ele>
        <time>2012-05-30T13:14:33Z</time>
      </trkpt>
      <trkpt lat="43.67789" lon="6.19845">
        <ele>972.5</ele>
        <time>2012-05-30T13:14:42Z</time>
      </trkpt>
      <trkpt lat="43.6779" lon="6.19844">
        <ele>972.2</ele>
        <time>2012-05-30T13:14:43Z</time>
      </trkpt>
      <trkpt lat="43.67803" lon="6.1983">
        <ele>970.2</ele>
        <time>2012-05-30T13:15:00Z</time>
      </trkpt>
      <trkpt lat="43.6781" lon="6.19823">
        <ele>967.6</ele>
        <time>2012-05-30T13:15:14Z</time>
      </trkpt>
      <trkpt lat="43.67818" lon="6.19821">
        <ele>966.2</ele>
        <time>2012-05-30T13:15:25Z</time>
      </trkpt>
      <trkpt lat="43.67824" lon="6.19811">
        <ele>965.1</ele>
        <time>2012-05-30T13:15:35Z</time>
      </trkpt>
      <trkpt lat="43.67833" lon="6.1981">
        <ele>963.5</ele>
        <time>2012-05-30T13:15:46Z</time>
      </trkpt>
      <trkpt lat="43.67834" lon="6.19809">
        <ele>963.5</ele>
        <time>2012-05-30T13:15:47Z</time>
      </trkpt>
      <trkpt lat="43.67849" lon="6.198">
        <ele>962.5</ele>
        <time>2012-05-30T13:16:26Z</time>
      </trkpt>
      <trkpt lat="43.67856" lon="6.19793">
        <ele>961.4</ele>
        <time>2012-05-30T13:16:41Z</time>
      </trkpt>
      <trkpt lat="43.67861" lon="6.19783">
        <ele>960.9</ele>
        <time>2012-05-30T13:16:52Z</time>
      </trkpt>
      <trkpt lat="43.67862" lon="6.19782">
        <ele>961</ele>
        <time>2012-05-30T13:16:53Z</time>
      </trkpt>
      <trkpt lat="43.67873" lon="6.19765">
        <ele>961.7</ele>
        <time>2012-05-30T13:17:10Z</time>
      </trkpt>
      <trkpt lat="43.67877" lon="6.19755">
        <ele>961.6</ele>
        <time>2012-05-30T13:17:19Z</time>
      </trkpt>
      <trkpt lat="43.67885" lon="6.19748">
        <ele>961.5</ele>
        <time>2012-05-30T13:17:30Z</time>
      </trkpt>
      <trkpt lat="43.67888" lon="6.19737">
        <ele>961.4</ele>
        <time>2012-05-30T13:17:44Z</time>
      </trkpt>
      <trkpt lat="43.67894" lon="6.1973">
        <ele>961.4</ele>
        <time>2012-05-30T13:17:52Z</time>
      </trkpt>
      <trkpt lat="43.67901" lon="6.19722">
        <ele>962.1</ele>
        <time>2012-05-30T13:18:00Z</time>
      </trkpt>
      <trkpt lat="43.67902" lon="6.19722">
        <ele>962.2</ele>
        <time>2012-05-30T13:18:01Z</time>
      </trkpt>
      <trkpt lat="43.67914" lon="6.19707">
        <ele>962</ele>
        <time>2012-05-30T13:18:16Z</time>
      </trkpt>
      <trkpt lat="43.6792" lon="6.19699">
        <ele>962.8</ele>
        <time>2012-05-30T13:18:29Z</time>
      </trkpt>
      <trkpt lat="43.67927" lon="6.19691">
        <ele>962.4</ele>
        <time>2012-05-30T13:18:39Z</time>
      </trkpt>
      <trkpt lat="43.67933" lon="6.19684">
        <ele>963.5</ele>
        <time>2012-05-30T13:18:47Z</time>
      </trkpt>
      <trkpt lat="43.67942" lon="6.19679">
        <ele>963.7</ele>
        <time>2012-05-30T13:18:55Z</time>
      </trkpt>
      <trkpt lat="43.67948" lon="6.19672">
        <ele>964.8</ele>
        <time>2012-05-30T13:19:03Z</time>
      </trkpt>
      <trkpt lat="43.67949" lon="6.19671">
        <ele>964.8</ele>
        <time>2012-05-30T13:19:04Z</time>
      </trkpt>
      <trkpt lat="43.67961" lon="6.19655">
        <ele>966.7</ele>
        <time>2012-05-30T13:19:23Z</time>
      </trkpt>
      <trkpt lat="43.67969" lon="6.19651">
        <ele>967</ele>
        <time>2012-05-30T13:19:31Z</time>
      </trkpt>
      <trkpt lat="43.67977" lon="6.19652">
        <ele>967.6</ele>
        <time>2012-05-30T13:19:38Z</time>
      </trkpt>
      <trkpt lat="43.67984" lon="6.19652">
        <ele>967.6</ele>
        <time>2012-05-30T13:19:45Z</time>
      </trkpt>
      <trkpt lat="43.67993" lon="6.1965">
        <ele>967.4</ele>
        <time>2012-05-30T13:19:54Z</time>
      </trkpt>
      <trkpt lat="43.68001" lon="6.19645">
        <ele>968</ele>
        <time>2012-05-30T13:20:05Z</time>
      </trkpt>
      <trkpt lat="43.68002" lon="6.19644">
        <ele>967.7</ele>
        <time>2012-05-30T13:20:06Z</time>
      </trkpt>
      <trkpt lat="43.68018" lon="6.1964">
        <ele>965.5</ele>
        <time>2012-05-30T13:20:23Z</time>
      </trkpt>
      <trkpt lat="43.68027" lon="6.19639">
        <ele>963.6</ele>
        <time>2012-05-30T13:20:33Z</time>
      </trkpt>
      <trkpt lat="43.68035" lon="6.19635">
        <ele>962.5</ele>
        <time>2012-05-30T13:20:43Z</time>
      </trkpt>
      <trkpt lat="43.68042" lon="6.19627">
        <ele>961.9</ele>
        <time>2012-05-30T13:20:53Z</time>
      </trkpt>
      <trkpt lat="43.68049" lon="6.19622">
        <ele>961.4</ele>
        <time>2012-05-30T13:21:01Z</time>
      </trkpt>
      <trkpt lat="43.68057" lon="6.19616">
        <ele>960.3</ele>
        <time>2012-05-30T13:21:11Z</time>
      </trkpt>
      <trkpt lat="43.68058" lon="6.19616">
        <ele>960.5</ele>
        <time>2012-05-30T13:21:11Z</time>
      </trkpt>
      <trkpt lat="43.68073" lon="6.19608">
        <ele>959.7</ele>
        <time>2012-05-30T13:21:27Z</time>
      </trkpt>
      <trkpt lat="43.68081" lon="6.19608">
        <ele>959.2</ele>
        <time>2012-05-30T13:21:36Z</time>
      </trkpt>
      <trkpt lat="43.68088" lon="6.19601">
        <ele>959.2</ele>
        <time>2012-05-30T13:21:46Z</time>
      </trkpt>
      <trkpt lat="43.68095" lon="6.19595">
        <ele>959.2</ele>
        <time>2012-05-30T13:21:55Z</time>
      </trkpt>
      <trkpt lat="43.68103" lon="6.1959">
        <ele>958.1</ele>
        <time>2012-05-30T13:22:03Z</time>
      </trkpt>
      <trkpt lat="43.68111" lon="6.19584">
        <ele>957</ele>
        <time>2012-05-30T13:22:12Z</time>
      </trkpt>
      <trkpt lat="43.68112" lon="6.19584">
        <ele>957.3</ele>
        <time>2012-05-30T13:22:13Z</time>
      </trkpt>
      <trkpt lat="43.68128" lon="6.19581">
        <ele>956.4</ele>
        <time>2012-05-30T13:22:28Z</time>
      </trkpt>
      <trkpt lat="43.68136" lon="6.19578">
        <ele>956.5</ele>
        <time>2012-05-30T13:22:36Z</time>
      </trkpt>
      <trkpt lat="43.68144" lon="6.19572">
        <ele>957.7</ele>
        <time>2012-05-30T13:22:44Z</time>
      </trkpt>
      <trkpt lat="43.68152" lon="6.1957">
        <ele>957.7</ele>
        <time>2012-05-30T13:22:52Z</time>
      </trkpt>
      <trkpt lat="43.68161" lon="6.19569">
        <ele>958.4</ele>
        <time>2012-05-30T13:23:01Z</time>
      </trkpt>
      <trkpt lat="43.68169" lon="6.1957">
        <ele>957.9</ele>
        <time>2012-05-30T13:23:09Z</time>
      </trkpt>
      <trkpt lat="43.68178" lon="6.1957">
        <ele>957.7</ele>
        <time>2012-05-30T13:23:37Z</time>
      </trkpt>
      <trkpt lat="43.68178" lon="6.1957">
        <ele>957.4</ele>
        <time>2012-05-30T13:23:38Z</time>
      </trkpt>
      <trkpt lat="43.68187" lon="6.19567">
        <ele>958.4</ele>
        <time>2012-05-30T13:24:43Z</time>
      </trkpt>
      <trkpt lat="43.68202" lon="6.19558">
        <ele>960.5</ele>
        <time>2012-05-30T13:25:05Z</time>
      </trkpt>
      <trkpt lat="43.6821" lon="6.19552">
        <ele>960.4</ele>
        <time>2012-05-30T13:25:14Z</time>
      </trkpt>
      <trkpt lat="43.68218" lon="6.19547">
        <ele>961</ele>
        <time>2012-05-30T13:25:23Z</time>
      </trkpt>
      <trkpt lat="43.68225" lon="6.19541">
        <ele>961.9</ele>
        <time>2012-05-30T13:25:32Z</time>
      </trkpt>
      <trkpt lat="43.68233" lon="6.19535">
        <ele>962.8</ele>
        <time>2012-05-30T13:25:41Z</time>
      </trkpt>
      <trkpt lat="43.68241" lon="6.19532">
        <ele>963.3</ele>
        <time>2012-05-30T13:25:52Z</time>
      </trkpt>
      <trkpt lat="43.68241" lon="6.19531">
        <ele>962.6</ele>
        <time>2012-05-30T13:25:53Z</time>
      </trkpt>
      <trkpt lat="43.68256" lon="6.19522">
        <ele>961.9</ele>
        <time>2012-05-30T13:26:07Z</time>
      </trkpt>
      <trkpt lat="43.68263" lon="6.19515">
        <ele>961.3</ele>
        <time>2012-05-30T13:26:16Z</time>
      </trkpt>
      <trkpt lat="43.68272" lon="6.19512">
        <ele>961</ele>
        <time>2012-05-30T13:26:24Z</time>
      </trkpt>
      <trkpt lat="43.68277" lon="6.19502">
        <ele>961.3</ele>
        <time>2012-05-30T13:26:33Z</time>
      </trkpt>
      <trkpt lat="43.6828" lon="6.19493">
        <ele>960.3</ele>
        <time>2012-05-30T13:26:41Z</time>
      </trkpt>
      <trkpt lat="43.68286" lon="6.19484">
        <ele>959.9</ele>
        <time>2012-05-30T13:26:48Z</time>
      </trkpt>
      <trkpt lat="43.68294" lon="6.1948">
        <ele>959.6</ele>
        <time>2012-05-30T13:26:57Z</time>
      </trkpt>
      <trkpt lat="43.68295" lon="6.19479">
        <ele>958.8</ele>
        <time>2012-05-30T13:26:58Z</time>
      </trkpt>
      <trkpt lat="43.68303" lon="6.1946">
        <ele>957.3</ele>
        <time>2012-05-30T13:27:14Z</time>
      </trkpt>
      <trkpt lat="43.68308" lon="6.19451">
        <ele>956.8</ele>
        <time>2012-05-30T13:27:21Z</time>
      </trkpt>
      <trkpt lat="43.68313" lon="6.19442">
        <ele>955.9</ele>
        <time>2012-05-30T13:27:29Z</time>
      </trkpt>
      <trkpt lat="43.68319" lon="6.19433">
        <ele>956.2</ele>
        <time>2012-05-30T13:27:37Z</time>
      </trkpt>
      <trkpt lat="43.68325" lon="6.19426">
        <ele>955.7</ele>
        <time>2012-05-30T13:27:43Z</time>
      </trkpt>
      <trkpt lat="43.68332" lon="6.1942">
        <ele>955.2</ele>
        <time>2012-05-30T13:27:51Z</time>
      </trkpt>
      <trkpt lat="43.68338" lon="6.19413">
        <ele>954.7</ele>
        <time>2012-05-30T13:27:58Z</time>
      </trkpt>
      <trkpt lat="43.68339" lon="6.19412">
        <ele>954.7</ele>
        <time>2012-05-30T13:27:59Z</time>
      </trkpt>
      <trkpt lat="43.68352" lon="6.19399">
        <ele>954.3</ele>
        <time>2012-05-30T13:28:11Z</time>
      </trkpt>
      <trkpt lat="43.68358" lon="6.19391">
        <ele>952.8</ele>
        <time>2012-05-30T13:28:20Z</time>
      </trkpt>
      <trkpt lat="43.68365" lon="6.19385">
        <ele>951.2</ele>
        <time>2012-05-30T13:28:29Z</time>
      </trkpt>
      <trkpt lat="43.68373" lon="6.19379">
        <ele>951.2</ele>
        <time>2012-05-30T13:28:37Z</time>
      </trkpt>
      <trkpt lat="43.68379" lon="6.19373">
        <ele>950.4</ele>
        <time>2012-05-30T13:28:44Z</time>
      </trkpt>
      <trkpt lat="43.68388" lon="6.1937">
        <ele>949.8</ele>
        <time>2012-05-30T13:28:56Z</time>
      </trkpt>
      <trkpt lat="43.68396" lon="6.19367">
        <ele>948.1</ele>
        <time>2012-05-30T13:29:04Z</time>
      </trkpt>
      <trkpt lat="43.68397" lon="6.19366">
        <ele>947.6</ele>
        <time>2012-05-30T13:29:05Z</time>
      </trkpt>
      <trkpt lat="43.68412" lon="6.19359">
        <ele>946.3</ele>
        <time>2012-05-30T13:29:24Z</time>
      </trkpt>
      <trkpt lat="43.68419" lon="6.19353">
        <ele>944.9</ele>
        <time>2012-05-30T13:29:33Z</time>
      </trkpt>
      <trkpt lat="43.68424" lon="6.19345">
        <ele>945.6</ele>
        <time>2012-05-30T13:29:41Z</time>
      </trkpt>
      <trkpt lat="43.68431" lon="6.19337">
        <ele>944.5</ele>
        <time>2012-05-30T13:29:48Z</time>
      </trkpt>
      <trkpt lat="43.68438" lon="6.19332">
        <ele>943.6</ele>
        <time>2012-05-30T13:29:55Z</time>
      </trkpt>
      <trkpt lat="43.68445" lon="6.19324">
        <ele>943.3</ele>
        <time>2012-05-30T13:30:04Z</time>
      </trkpt>
      <trkpt lat="43.68453" lon="6.19321">
        <ele>942.9</ele>
        <time>2012-05-30T13:30:13Z</time>
      </trkpt>
      <trkpt lat="43.68454" lon="6.19321">
        <ele>942.7</ele>
        <time>2012-05-30T13:30:14Z</time>
      </trkpt>
      <trkpt lat="43.68469" lon="6.19314">
        <ele>938.6</ele>
        <time>2012-05-30T13:30:31Z</time>
      </trkpt>
      <trkpt lat="43.68478" lon="6.19313">
        <ele>939.2</ele>
        <time>2012-05-30T13:30:38Z</time>
      </trkpt>
      <trkpt lat="43.68487" lon="6.1931">
        <ele>938.6</ele>
        <time>2012-05-30T13:30:44Z</time>
      </trkpt>
      <trkpt lat="43.68495" lon="6.19307">
        <ele>937.3</ele>
        <time>2012-05-30T13:30:50Z</time>
      </trkpt>
      <trkpt lat="43.68502" lon="6.19304">
        <ele>937.6</ele>
        <time>2012-05-30T13:30:57Z</time>
      </trkpt>
      <trkpt lat="43.68509" lon="6.19297">
        <ele>937.9</ele>
        <time>2012-05-30T13:31:06Z</time>
      </trkpt>
      <trkpt lat="43.68516" lon="6.19292">
        <ele>937.2</ele>
        <time>2012-05-30T13:31:14Z</time>
      </trkpt>
      <trkpt lat="43.68517" lon="6.19291">
        <ele>937.6</ele>
        <time>2012-05-30T13:31:15Z</time>
      </trkpt>
      <trkpt lat="43.6853" lon="6.19281">
        <ele>937</ele>
        <time>2012-05-30T13:31:26Z</time>
      </trkpt>
      <trkpt lat="43.68536" lon="6.19272">
        <ele>936.9</ele>
        <time>2012-05-30T13:31:34Z</time>
      </trkpt>
      <trkpt lat="43.68542" lon="6.19265">
        <ele>937</ele>
        <time>2012-05-30T13:31:41Z</time>
      </trkpt>
      <trkpt lat="43.68547" lon="6.19255">
        <ele>937.8</ele>
        <time>2012-05-30T13:31:48Z</time>
      </trkpt>
      <trkpt lat="43.68552" lon="6.19246">
        <ele>937.3</ele>
        <time>2012-05-30T13:31:55Z</time>
      </trkpt>
      <trkpt lat="43.68559" lon="6.19239">
        <ele>937.1</ele>
        <time>2012-05-30T13:32:02Z</time>
      </trkpt>
      <trkpt lat="43.68565" lon="6.1923">
        <ele>937.1</ele>
        <time>2012-05-30T13:32:10Z</time>
      </trkpt>
      <trkpt lat="43.68572" lon="6.19224">
        <ele>936.5</ele>
        <time>2012-05-30T13:32:20Z</time>
      </trkpt>
      <trkpt lat="43.68572" lon="6.19223">
        <ele>936.4</ele>
        <time>2012-05-30T13:32:21Z</time>
      </trkpt>
      <trkpt lat="43.68586" lon="6.19213">
        <ele>935.6</ele>
        <time>2012-05-30T13:32:35Z</time>
      </trkpt>
      <trkpt lat="43.68594" lon="6.19207">
        <ele>934.6</ele>
        <time>2012-05-30T13:32:46Z</time>
      </trkpt>
      <trkpt lat="43.686" lon="6.19199">
        <ele>933.9</ele>
        <time>2012-05-30T13:32:54Z</time>
      </trkpt>
      <trkpt lat="43.68606" lon="6.19192">
        <ele>934.4</ele>
        <time>2012-05-30T13:33:01Z</time>
      </trkpt>
      <trkpt lat="43.68609" lon="6.19181">
        <ele>933.5</ele>
        <time>2012-05-30T13:33:11Z</time>
      </trkpt>
      <trkpt lat="43.68614" lon="6.19171">
        <ele>933.3</ele>
        <time>2012-05-30T13:33:21Z</time>
      </trkpt>
      <trkpt lat="43.68614" lon="6.1917">
        <ele>933.5</ele>
        <time>2012-05-30T13:33:22Z</time>
      </trkpt>
      <trkpt lat="43.68614" lon="6.19147">
        <ele>932.9</ele>
        <time>2012-05-30T13:33:38Z</time>
      </trkpt>
      <trkpt lat="43.68619" lon="6.19137">
        <ele>933.2</ele>
        <time>2012-05-30T13:33:45Z</time>
      </trkpt>
      <trkpt lat="43.68622" lon="6.19126">
        <ele>932.6</ele>
        <time>2012-05-30T13:33:52Z</time>
      </trkpt>
      <trkpt lat="43.68628" lon="6.19118">
        <ele>931.7</ele>
        <time>2012-05-30T13:33:59Z</time>
      </trkpt>
      <trkpt lat="43.68633" lon="6.19108">
        <ele>931.9</ele>
        <time>2012-05-30T13:34:05Z</time>
      </trkpt>
      <trkpt lat="43.6864" lon="6.19102">
        <ele>930.9</ele>
        <time>2012-05-30T13:34:13Z</time>
      </trkpt>
      <trkpt lat="43.68646" lon="6.19094">
        <ele>930.7</ele>
        <time>2012-05-30T13:34:22Z</time>
      </trkpt>
      <trkpt lat="43.68647" lon="6.19093">
        <ele>930.8</ele>
        <time>2012-05-30T13:34:23Z</time>
      </trkpt>
      <trkpt lat="43.68659" lon="6.19079">
        <ele>930.1</ele>
        <time>2012-05-30T13:34:40Z</time>
      </trkpt>
      <trkpt lat="43.68663" lon="6.19068">
        <ele>930.1</ele>
        <time>2012-05-30T13:34:50Z</time>
      </trkpt>
      <trkpt lat="43.68669" lon="6.1906">
        <ele>930.1</ele>
        <time>2012-05-30T13:34:58Z</time>
      </trkpt>
      <trkpt lat="43.68676" lon="6.19055">
        <ele>930</ele>
        <time>2012-05-30T13:35:06Z</time>
      </trkpt>
      <trkpt lat="43.68683" lon="6.19049">
        <ele>930.9</ele>
        <time>2012-05-30T13:35:12Z</time>
      </trkpt>
      <trkpt lat="43.6869" lon="6.19042">
        <ele>930.6</ele>
        <time>2012-05-30T13:35:22Z</time>
      </trkpt>
      <trkpt lat="43.68699" lon="6.19037">
        <ele>931.1</ele>
        <time>2012-05-30T13:36:46Z</time>
      </trkpt>
      <trkpt lat="43.68699" lon="6.19037">
        <ele>930.9</ele>
        <time>2012-05-30T13:36:47Z</time>
      </trkpt>
      <trkpt lat="43.68685" lon="6.1905">
        <ele>929.8</ele>
        <time>2012-05-30T13:37:18Z</time>
      </trkpt>
      <trkpt lat="43.68677" lon="6.19057">
        <ele>930.8</ele>
        <time>2012-05-30T13:37:30Z</time>
      </trkpt>
      <trkpt lat="43.6867" lon="6.19062">
        <ele>930.8</ele>
        <time>2012-05-30T13:38:02Z</time>
      </trkpt>
      <trkpt lat="43.68669" lon="6.19062">
        <ele>930.8</ele>
        <time>2012-05-30T13:38:03Z</time>
      </trkpt>
      <trkpt lat="43.68654" lon="6.19057">
        <ele>930.7</ele>
        <time>2012-05-30T13:38:26Z</time>
      </trkpt>
      <trkpt lat="43.68647" lon="6.1905">
        <ele>929.9</ele>
        <time>2012-05-30T13:38:38Z</time>
      </trkpt>
      <trkpt lat="43.68641" lon="6.19042">
        <ele>929.1</ele>
        <time>2012-05-30T13:38:50Z</time>
      </trkpt>
      <trkpt lat="43.68637" lon="6.19032">
        <ele>928.7</ele>
        <time>2012-05-30T13:39:01Z</time>
      </trkpt>
      <trkpt lat="43.68634" lon="6.19021">
        <ele>927</ele>
        <time>2012-05-30T13:39:08Z</time>
      </trkpt>
      <trkpt lat="43.68633" lon="6.19019">
        <ele>927.1</ele>
        <time>2012-05-30T13:39:09Z</time>
      </trkpt>
      <trkpt lat="43.68635" lon="6.18998">
        <ele>926.4</ele>
        <time>2012-05-30T13:39:25Z</time>
      </trkpt>
      <trkpt lat="43.68633" lon="6.18987">
        <ele>924.8</ele>
        <time>2012-05-30T13:39:40Z</time>
      </trkpt>
      <trkpt lat="43.68628" lon="6.18976">
        <ele>921.8</ele>
        <time>2012-05-30T13:39:52Z</time>
      </trkpt>
      <trkpt lat="43.68629" lon="6.18965">
        <ele>920.9</ele>
        <time>2012-05-30T13:40:02Z</time>
      </trkpt>
      <trkpt lat="43.68629" lon="6.18952">
        <ele>918.3</ele>
        <time>2012-05-30T13:40:18Z</time>
      </trkpt>
      <trkpt lat="43.68629" lon="6.18952">
        <ele>918</ele>
        <time>2012-05-30T13:40:19Z</time>
      </trkpt>
      <trkpt lat="43.68626" lon="6.1893">
        <ele>913.4</ele>
        <time>2012-05-30T13:40:43Z</time>
      </trkpt>
      <trkpt lat="43.68627" lon="6.18918">
        <ele>911.1</ele>
        <time>2012-05-30T13:40:53Z</time>
      </trkpt>
      <trkpt lat="43.6863" lon="6.18907">
        <ele>907.9</ele>
        <time>2012-05-30T13:41:05Z</time>
      </trkpt>
      <trkpt lat="43.68633" lon="6.18896">
        <ele>905.2</ele>
        <time>2012-05-30T13:41:20Z</time>
      </trkpt>
      <trkpt lat="43.68633" lon="6.18895">
        <ele>904.8</ele>
        <time>2012-05-30T13:41:21Z</time>
      </trkpt>
      <trkpt lat="43.68634" lon="6.18873">
        <ele>901.2</ele>
        <time>2012-05-30T13:41:50Z</time>
      </trkpt>
      <trkpt lat="43.68637" lon="6.18861">
        <ele>898.8</ele>
        <time>2012-05-30T13:42:04Z</time>
      </trkpt>
      <trkpt lat="43.68637" lon="6.18849">
        <ele>895.9</ele>
        <time>2012-05-30T13:42:20Z</time>
      </trkpt>
      <trkpt lat="43.68635" lon="6.18837">
        <ele>891.4</ele>
        <time>2012-05-30T13:42:41Z</time>
      </trkpt>
      <trkpt lat="43.68635" lon="6.18836">
        <ele>891.3</ele>
        <time>2012-05-30T13:42:42Z</time>
      </trkpt>
      <trkpt lat="43.68637" lon="6.18813">
        <ele>885.7</ele>
        <time>2012-05-30T13:43:18Z</time>
      </trkpt>
      <trkpt lat="43.68638" lon="6.18802">
        <ele>882.7</ele>
        <time>2012-05-30T13:43:35Z</time>
      </trkpt>
      <trkpt lat="43.68639" lon="6.1879">
        <ele>880.4</ele>
        <time>2012-05-30T13:43:47Z</time>
      </trkpt>
      <trkpt lat="43.6864" lon="6.18788">
        <ele>879.9</ele>
        <time>2012-05-30T13:43:48Z</time>
      </trkpt>
      <trkpt lat="43.68639" lon="6.18767">
        <ele>873</ele>
        <time>2012-05-30T13:44:23Z</time>
      </trkpt>
      <trkpt lat="43.68634" lon="6.18756">
        <ele>869.4</ele>
        <time>2012-05-30T13:44:36Z</time>
      </trkpt>
      <trkpt lat="43.68633" lon="6.18745">
        <ele>866.8</ele>
        <time>2012-05-30T13:44:48Z</time>
      </trkpt>
      <trkpt lat="43.68633" lon="6.18744">
        <ele>866.3</ele>
        <time>2012-05-30T13:44:49Z</time>
      </trkpt>
      <trkpt lat="43.68628" lon="6.18722">
        <ele>862.3</ele>
        <time>2012-05-30T13:45:17Z</time>
      </trkpt>
      <trkpt lat="43.68625" lon="6.1871">
        <ele>859.6</ele>
        <time>2012-05-30T13:45:33Z</time>
      </trkpt>
      <trkpt lat="43.68626" lon="6.18698">
        <ele>855.5</ele>
        <time>2012-05-30T13:45:48Z</time>
      </trkpt>
      <trkpt lat="43.68623" lon="6.18687">
        <ele>852.4</ele>
        <time>2012-05-30T13:45:58Z</time>
      </trkpt>
      <trkpt lat="43.68623" lon="6.18686">
        <ele>852.2</ele>
        <time>2012-05-30T13:45:59Z</time>
      </trkpt>
      <trkpt lat="43.68619" lon="6.18664">
        <ele>847.6</ele>
        <time>2012-05-30T13:46:20Z</time>
      </trkpt>
      <trkpt lat="43.68617" lon="6.18653">
        <ele>845</ele>
        <time>2012-05-30T13:46:28Z</time>
      </trkpt>
      <trkpt lat="43.68613" lon="6.18642">
        <ele>843.9</ele>
        <time>2012-05-30T13:46:38Z</time>
      </trkpt>
      <trkpt lat="43.68606" lon="6.18635">
        <ele>843.5</ele>
        <time>2012-05-30T13:46:48Z</time>
      </trkpt>
      <trkpt lat="43.68598" lon="6.1863">
        <ele>842.9</ele>
        <time>2012-05-30T13:46:56Z</time>
      </trkpt>
      <trkpt lat="43.68591" lon="6.18623">
        <ele>843.2</ele>
        <time>2012-05-30T13:47:08Z</time>
      </trkpt>
      <trkpt lat="43.6859" lon="6.18623">
        <ele>843.3</ele>
        <time>2012-05-30T13:47:09Z</time>
      </trkpt>
      <trkpt lat="43.68575" lon="6.18615">
        <ele>842.8</ele>
        <time>2012-05-30T13:47:33Z</time>
      </trkpt>
      <trkpt lat="43.68569" lon="6.18607">
        <ele>841.2</ele>
        <time>2012-05-30T13:48:54Z</time>
      </trkpt>
      <trkpt lat="43.68568" lon="6.18606">
        <ele>841.1</ele>
        <time>2012-05-30T13:48:55Z</time>
      </trkpt>
      <trkpt lat="43.6857" lon="6.18594">
        <ele>842.2</ele>
        <time>2012-05-30T13:53:36Z</time>
      </trkpt>
      <trkpt lat="43.68568" lon="6.18582">
        <ele>842.7</ele>
        <time>2012-05-30T13:54:44Z</time>
      </trkpt>
      <trkpt lat="43.68576" lon="6.18579">
        <ele>841.7</ele>
        <time>2012-05-30T13:58:03Z</time>
      </trkpt>
      <trkpt lat="43.68591" lon="6.18568">
        <ele>838.1</ele>
        <time>2012-05-30T13:58:25Z</time>
      </trkpt>
      <trkpt lat="43.68592" lon="6.18556">
        <ele>833.4</ele>
        <time>2012-05-30T13:58:43Z</time>
      </trkpt>
      <trkpt lat="43.68586" lon="6.18548">
        <ele>830.2</ele>
        <time>2012-05-30T13:58:58Z</time>
      </trkpt>
      <trkpt lat="43.6858" lon="6.18539">
        <ele>827.8</ele>
        <time>2012-05-30T13:59:09Z</time>
      </trkpt>
      <trkpt lat="43.68579" lon="6.18538">
        <ele>827.5</ele>
        <time>2012-05-30T13:59:10Z</time>
      </trkpt>
      <trkpt lat="43.68568" lon="6.18524">
        <ele>824.5</ele>
        <time>2012-05-30T13:59:25Z</time>
      </trkpt>
      <trkpt lat="43.68562" lon="6.18516">
        <ele>822.4</ele>
        <time>2012-05-30T13:59:33Z</time>
      </trkpt>
      <trkpt lat="43.68555" lon="6.18509">
        <ele>819.6</ele>
        <time>2012-05-30T13:59:42Z</time>
      </trkpt>
      <trkpt lat="43.68548" lon="6.18505">
        <ele>817.7</ele>
        <time>2012-05-30T13:59:50Z</time>
      </trkpt>
      <trkpt lat="43.68543" lon="6.18494">
        <ele>816</ele>
        <time>2012-05-30T13:59:58Z</time>
      </trkpt>
      <trkpt lat="43.68541" lon="6.18483">
        <ele>813.8</ele>
        <time>2012-05-30T14:00:07Z</time>
      </trkpt>
      <trkpt lat="43.68535" lon="6.18474">
        <ele>811.5</ele>
        <time>2012-05-30T14:00:15Z</time>
      </trkpt>
      <trkpt lat="43.68534" lon="6.18473">
        <ele>811.2</ele>
        <time>2012-05-30T14:00:16Z</time>
      </trkpt>
      <trkpt lat="43.68525" lon="6.18454">
        <ele>808.1</ele>
        <time>2012-05-30T14:00:34Z</time>
      </trkpt>
      <trkpt lat="43.68521" lon="6.18444">
        <ele>805.2</ele>
        <time>2012-05-30T14:00:42Z</time>
      </trkpt>
      <trkpt lat="43.68517" lon="6.18434">
        <ele>804</ele>
        <time>2012-05-30T14:00:51Z</time>
      </trkpt>
      <trkpt lat="43.68511" lon="6.18425">
        <ele>802.4</ele>
        <time>2012-05-30T14:01:01Z</time>
      </trkpt>
      <trkpt lat="43.68505" lon="6.18416">
        <ele>800</ele>
        <time>2012-05-30T14:01:12Z</time>
      </trkpt>
      <trkpt lat="43.685" lon="6.18408">
        <ele>797.5</ele>
        <time>2012-05-30T14:01:23Z</time>
      </trkpt>
      <trkpt lat="43.68499" lon="6.18407">
        <ele>797.3</ele>
        <time>2012-05-30T14:01:24Z</time>
      </trkpt>
      <trkpt lat="43.68492" lon="6.18387">
        <ele>795.2</ele>
        <time>2012-05-30T14:01:40Z</time>
      </trkpt>
      <trkpt lat="43.68488" lon="6.18377">
        <ele>793.4</ele>
        <time>2012-05-30T14:01:48Z</time>
      </trkpt>
      <trkpt lat="43.68483" lon="6.18369">
        <ele>791.8</ele>
        <time>2012-05-30T14:01:58Z</time>
      </trkpt>
      <trkpt lat="43.68478" lon="6.18359">
        <ele>790.1</ele>
        <time>2012-05-30T14:02:09Z</time>
      </trkpt>
      <trkpt lat="43.68472" lon="6.1835">
        <ele>788.4</ele>
        <time>2012-05-30T14:02:19Z</time>
      </trkpt>
      <trkpt lat="43.68466" lon="6.18342">
        <ele>787.2</ele>
        <time>2012-05-30T14:02:28Z</time>
      </trkpt>
      <trkpt lat="43.68465" lon="6.18341">
        <ele>787.3</ele>
        <time>2012-05-30T14:02:29Z</time>
      </trkpt>
      <trkpt lat="43.68451" lon="6.18332">
        <ele>785.7</ele>
        <time>2012-05-30T14:02:42Z</time>
      </trkpt>
      <trkpt lat="43.68444" lon="6.18328">
        <ele>784.6</ele>
        <time>2012-05-30T14:02:50Z</time>
      </trkpt>
      <trkpt lat="43.68436" lon="6.18321">
        <ele>782.4</ele>
        <time>2012-05-30T14:02:59Z</time>
      </trkpt>
      <trkpt lat="43.68432" lon="6.18311">
        <ele>780.3</ele>
        <time>2012-05-30T14:03:09Z</time>
      </trkpt>
      <trkpt lat="43.68425" lon="6.18303">
        <ele>778.7</ele>
        <time>2012-05-30T14:03:18Z</time>
      </trkpt>
      <trkpt lat="43.68419" lon="6.18295">
        <ele>777.5</ele>
        <time>2012-05-30T14:03:27Z</time>
      </trkpt>
      <trkpt lat="43.68412" lon="6.18288">
        <ele>776.2</ele>
        <time>2012-05-30T14:03:38Z</time>
      </trkpt>
      <trkpt lat="43.68411" lon="6.18287">
        <ele>776.3</ele>
        <time>2012-05-30T14:03:39Z</time>
      </trkpt>
      <trkpt lat="43.68406" lon="6.18268">
        <ele>772.6</ele>
        <time>2012-05-30T14:03:58Z</time>
      </trkpt>
      <trkpt lat="43.68407" lon="6.18257">
        <ele>771.9</ele>
        <time>2012-05-30T14:04:04Z</time>
      </trkpt>
      <trkpt lat="43.68407" lon="6.18245">
        <ele>770</ele>
        <time>2012-05-30T14:04:11Z</time>
      </trkpt>
      <trkpt lat="43.68407" lon="6.18233">
        <ele>769.5</ele>
        <time>2012-05-30T14:04:19Z</time>
      </trkpt>
      <trkpt lat="43.68411" lon="6.18222">
        <ele>768.6</ele>
        <time>2012-05-30T14:04:27Z</time>
      </trkpt>
      <trkpt lat="43.68406" lon="6.18212">
        <ele>764.9</ele>
        <time>2012-05-30T14:04:44Z</time>
      </trkpt>
      <trkpt lat="43.68406" lon="6.18211">
        <ele>765</ele>
        <time>2012-05-30T14:04:45Z</time>
      </trkpt>
      <trkpt lat="43.684" lon="6.18189">
        <ele>762.4</ele>
        <time>2012-05-30T14:05:03Z</time>
      </trkpt>
      <trkpt lat="43.684" lon="6.18178">
        <ele>761.7</ele>
        <time>2012-05-30T14:05:12Z</time>
      </trkpt>
      <trkpt lat="43.68399" lon="6.18166">
        <ele>760.8</ele>
        <time>2012-05-30T14:05:18Z</time>
      </trkpt>
      <trkpt lat="43.68399" lon="6.18155">
        <ele>760.9</ele>
        <time>2012-05-30T14:05:22Z</time>
      </trkpt>
      <trkpt lat="43.68399" lon="6.18143">
        <ele>759.6</ele>
        <time>2012-05-30T14:05:29Z</time>
      </trkpt>
      <trkpt lat="43.68395" lon="6.18133">
        <ele>758.2</ele>
        <time>2012-05-30T14:05:38Z</time>
      </trkpt>
      <trkpt lat="43.68394" lon="6.18121">
        <ele>756.3</ele>
        <time>2012-05-30T14:05:47Z</time>
      </trkpt>
      <trkpt lat="43.68394" lon="6.1812">
        <ele>756.1</ele>
        <time>2012-05-30T14:05:48Z</time>
      </trkpt>
      <trkpt lat="43.68388" lon="6.18101">
        <ele>752.7</ele>
        <time>2012-05-30T14:06:11Z</time>
      </trkpt>
      <trkpt lat="43.68383" lon="6.18092">
        <ele>752.6</ele>
        <time>2012-05-30T14:06:20Z</time>
      </trkpt>
      <trkpt lat="43.68379" lon="6.18081">
        <ele>752.1</ele>
        <time>2012-05-30T14:06:27Z</time>
      </trkpt>
      <trkpt lat="43.68374" lon="6.18072">
        <ele>751.5</ele>
        <time>2012-05-30T14:06:34Z</time>
      </trkpt>
      <trkpt lat="43.6837" lon="6.18061">
        <ele>751.4</ele>
        <time>2012-05-30T14:06:42Z</time>
      </trkpt>
      <trkpt lat="43.68366" lon="6.1805">
        <ele>750.3</ele>
        <time>2012-05-30T14:06:49Z</time>
      </trkpt>
      <trkpt lat="43.68365" lon="6.1805">
        <ele>750.2</ele>
        <time>2012-05-30T14:06:50Z</time>
      </trkpt>
      <trkpt lat="43.68355" lon="6.18031">
        <ele>747.6</ele>
        <time>2012-05-30T14:07:07Z</time>
      </trkpt>
      <trkpt lat="43.6835" lon="6.18021">
        <ele>746.6</ele>
        <time>2012-05-30T14:07:15Z</time>
      </trkpt>
      <trkpt lat="43.68345" lon="6.18013">
        <ele>746.3</ele>
        <time>2012-05-30T14:07:24Z</time>
      </trkpt>
      <trkpt lat="43.68341" lon="6.18003">
        <ele>745.7</ele>
        <time>2012-05-30T14:07:32Z</time>
      </trkpt>
      <trkpt lat="43.68337" lon="6.17992">
        <ele>745.1</ele>
        <time>2012-05-30T14:07:41Z</time>
      </trkpt>
      <trkpt lat="43.68332" lon="6.17982">
        <ele>743.7</ele>
        <time>2012-05-30T14:07:48Z</time>
      </trkpt>
      <trkpt lat="43.68327" lon="6.17972">
        <ele>741.4</ele>
        <time>2012-05-30T14:07:58Z</time>
      </trkpt>
      <trkpt lat="43.68326" lon="6.17972">
        <ele>741.7</ele>
        <time>2012-05-30T14:07:59Z</time>
      </trkpt>
      <trkpt lat="43.68311" lon="6.17964">
        <ele>740.5</ele>
        <time>2012-05-30T14:08:17Z</time>
      </trkpt>
      <trkpt lat="43.68304" lon="6.17961">
        <ele>739.8</ele>
        <time>2012-05-30T14:08:23Z</time>
      </trkpt>
      <trkpt lat="43.68296" lon="6.17956">
        <ele>738.8</ele>
        <time>2012-05-30T14:08:30Z</time>
      </trkpt>
      <trkpt lat="43.68289" lon="6.17953">
        <ele>737.9</ele>
        <time>2012-05-30T14:08:36Z</time>
      </trkpt>
      <trkpt lat="43.68281" lon="6.17948">
        <ele>737.5</ele>
        <time>2012-05-30T14:08:43Z</time>
      </trkpt>
      <trkpt lat="43.68273" lon="6.17943">
        <ele>736</ele>
        <time>2012-05-30T14:08:51Z</time>
      </trkpt>
      <trkpt lat="43.68265" lon="6.17941">
        <ele>736.3</ele>
        <time>2012-05-30T14:08:58Z</time>
      </trkpt>
      <trkpt lat="43.68256" lon="6.17937">
        <ele>735.1</ele>
        <time>2012-05-30T14:09:07Z</time>
      </trkpt>
      <trkpt lat="43.68256" lon="6.17937">
        <ele>735.2</ele>
        <time>2012-05-30T14:09:08Z</time>
      </trkpt>
      <trkpt lat="43.68241" lon="6.17927">
        <ele>732.4</ele>
        <time>2012-05-30T14:09:23Z</time>
      </trkpt>
      <trkpt lat="43.68233" lon="6.17924">
        <ele>732.1</ele>
        <time>2012-05-30T14:09:31Z</time>
      </trkpt>
      <trkpt lat="43.68225" lon="6.17922">
        <ele>731.5</ele>
        <time>2012-05-30T14:09:41Z</time>
      </trkpt>
      <trkpt lat="43.68217" lon="6.1792">
        <ele>730.1</ele>
        <time>2012-05-30T14:09:48Z</time>
      </trkpt>
      <trkpt lat="43.68208" lon="6.17919">
        <ele>730.5</ele>
        <time>2012-05-30T14:09:54Z</time>
      </trkpt>
      <trkpt lat="43.68201" lon="6.17916">
        <ele>729.4</ele>
        <time>2012-05-30T14:10:01Z</time>
      </trkpt>
      <trkpt lat="43.68193" lon="6.17915">
        <ele>728.7</ele>
        <time>2012-05-30T14:10:06Z</time>
      </trkpt>
      <trkpt lat="43.68186" lon="6.17909">
        <ele>728.2</ele>
        <time>2012-05-30T14:10:14Z</time>
      </trkpt>
      <trkpt lat="43.68185" lon="6.17908">
        <ele>727.5</ele>
        <time>2012-05-30T14:10:15Z</time>
      </trkpt>
      <trkpt lat="43.68169" lon="6.17904">
        <ele>727</ele>
        <time>2012-05-30T14:10:31Z</time>
      </trkpt>
      <trkpt lat="43.68161" lon="6.17902">
        <ele>726.6</ele>
        <time>2012-05-30T14:10:37Z</time>
      </trkpt>
      <trkpt lat="43.68152" lon="6.17899">
        <ele>726.6</ele>
        <time>2012-05-30T14:10:46Z</time>
      </trkpt>
      <trkpt lat="43.68144" lon="6.17896">
        <ele>724.8</ele>
        <time>2012-05-30T14:10:53Z</time>
      </trkpt>
      <trkpt lat="43.68138" lon="6.17888">
        <ele>723.9</ele>
        <time>2012-05-30T14:11:02Z</time>
      </trkpt>
      <trkpt lat="43.68136" lon="6.17877">
        <ele>723.3</ele>
        <time>2012-05-30T14:11:09Z</time>
      </trkpt>
      <trkpt lat="43.68133" lon="6.17866">
        <ele>722.5</ele>
        <time>2012-05-30T14:11:16Z</time>
      </trkpt>
      <trkpt lat="43.68133" lon="6.17864">
        <ele>722.3</ele>
        <time>2012-05-30T14:11:17Z</time>
      </trkpt>
      <trkpt lat="43.68127" lon="6.17845">
        <ele>720.8</ele>
        <time>2012-05-30T14:11:32Z</time>
      </trkpt>
      <trkpt lat="43.68123" lon="6.17835">
        <ele>720.1</ele>
        <time>2012-05-30T14:11:39Z</time>
      </trkpt>
      <trkpt lat="43.68118" lon="6.17825">
        <ele>719.5</ele>
        <time>2012-05-30T14:11:46Z</time>
      </trkpt>
      <trkpt lat="43.68112" lon="6.17818">
        <ele>719.2</ele>
        <time>2012-05-30T14:11:53Z</time>
      </trkpt>
      <trkpt lat="43.68107" lon="6.17808">
        <ele>718.3</ele>
        <time>2012-05-30T14:12:01Z</time>
      </trkpt>
      <trkpt lat="43.68103" lon="6.17798">
        <ele>717.8</ele>
        <time>2012-05-30T14:12:10Z</time>
      </trkpt>
      <trkpt lat="43.68096" lon="6.17791">
        <ele>717.2</ele>
        <time>2012-05-30T14:12:24Z</time>
      </trkpt>
      <trkpt lat="43.68096" lon="6.1779">
        <ele>717.2</ele>
        <time>2012-05-30T14:12:25Z</time>
      </trkpt>
      <trkpt lat="43.6808" lon="6.17781">
        <ele>717</ele>
        <time>2012-05-30T14:13:07Z</time>
      </trkpt>
      <trkpt lat="43.68072" lon="6.1778">
        <ele>717.5</ele>
        <time>2012-05-30T14:13:21Z</time>
      </trkpt>
      <trkpt lat="43.68064" lon="6.17775">
        <ele>717.3</ele>
        <time>2012-05-30T14:13:32Z</time>
      </trkpt>
      <trkpt lat="43.68063" lon="6.17774">
        <ele>717.1</ele>
        <time>2012-05-30T14:13:33Z</time>
      </trkpt>
      <trkpt lat="43.68047" lon="6.1777">
        <ele>716</ele>
        <time>2012-05-30T14:13:50Z</time>
      </trkpt>
      <trkpt lat="43.68039" lon="6.17768">
        <ele>716</ele>
        <time>2012-05-30T14:13:57Z</time>
      </trkpt>
      <trkpt lat="43.6803" lon="6.17765">
        <ele>715.3</ele>
        <time>2012-05-30T14:14:04Z</time>
      </trkpt>
      <trkpt lat="43.68022" lon="6.17762">
        <ele>715</ele>
        <time>2012-05-30T14:14:11Z</time>
      </trkpt>
      <trkpt lat="43.68015" lon="6.17757">
        <ele>714.1</ele>
        <time>2012-05-30T14:14:17Z</time>
      </trkpt>
      <trkpt lat="43.68008" lon="6.17752">
        <ele>713.3</ele>
        <time>2012-05-30T14:14:24Z</time>
      </trkpt>
      <trkpt lat="43.68001" lon="6.17745">
        <ele>712.6</ele>
        <time>2012-05-30T14:14:32Z</time>
      </trkpt>
      <trkpt lat="43.67995" lon="6.17737">
        <ele>712</ele>
        <time>2012-05-30T14:14:41Z</time>
      </trkpt>
      <trkpt lat="43.67995" lon="6.17736">
        <ele>711.8</ele>
        <time>2012-05-30T14:14:42Z</time>
      </trkpt>
      <trkpt lat="43.67979" lon="6.17728">
        <ele>711.4</ele>
        <time>2012-05-30T14:14:57Z</time>
      </trkpt>
      <trkpt lat="43.67973" lon="6.17722">
        <ele>710.1</ele>
        <time>2012-05-30T14:15:05Z</time>
      </trkpt>
      <trkpt lat="43.67967" lon="6.17714">
        <ele>709.6</ele>
        <time>2012-05-30T14:15:12Z</time>
      </trkpt>
      <trkpt lat="43.67963" lon="6.17704">
        <ele>708.9</ele>
        <time>2012-05-30T14:15:20Z</time>
      </trkpt>
      <trkpt lat="43.67955" lon="6.17697">
        <ele>708.5</ele>
        <time>2012-05-30T14:15:27Z</time>
      </trkpt>
      <trkpt lat="43.6795" lon="6.17688">
        <ele>707.6</ele>
        <time>2012-05-30T14:15:33Z</time>
      </trkpt>
      <trkpt lat="43.67946" lon="6.17678">
        <ele>707.5</ele>
        <time>2012-05-30T14:15:40Z</time>
      </trkpt>
      <trkpt lat="43.67941" lon="6.17668">
        <ele>707.1</ele>
        <time>2012-05-30T14:15:48Z</time>
      </trkpt>
      <trkpt lat="43.67941" lon="6.17667">
        <ele>706.4</ele>
        <time>2012-05-30T14:15:49Z</time>
      </trkpt>
      <trkpt lat="43.6793" lon="6.17651">
        <ele>704.8</ele>
        <time>2012-05-30T14:16:06Z</time>
      </trkpt>
      <trkpt lat="43.67926" lon="6.1764">
        <ele>704</ele>
        <time>2012-05-30T14:16:15Z</time>
      </trkpt>
      <trkpt lat="43.67923" lon="6.17629">
        <ele>703.7</ele>
        <time>2012-05-30T14:16:24Z</time>
      </trkpt>
      <trkpt lat="43.67919" lon="6.17618">
        <ele>703.3</ele>
        <time>2012-05-30T14:16:33Z</time>
      </trkpt>
      <trkpt lat="43.67918" lon="6.17607">
        <ele>702.5</ele>
        <time>2012-05-30T14:16:39Z</time>
      </trkpt>
      <trkpt lat="43.67915" lon="6.17597">
        <ele>701.7</ele>
        <time>2012-05-30T14:16:46Z</time>
      </trkpt>
      <trkpt lat="43.67913" lon="6.17586">
        <ele>701.4</ele>
        <time>2012-05-30T14:16:52Z</time>
      </trkpt>
      <trkpt lat="43.67912" lon="6.17585">
        <ele>701.3</ele>
        <time>2012-05-30T14:16:53Z</time>
      </trkpt>
      <trkpt lat="43.67909" lon="6.17563">
        <ele>699.5</ele>
        <time>2012-05-30T14:17:09Z</time>
      </trkpt>
      <trkpt lat="43.67907" lon="6.17553">
        <ele>698.6</ele>
        <time>2012-05-30T14:17:15Z</time>
      </trkpt>
      <trkpt lat="43.67904" lon="6.17542">
        <ele>698.8</ele>
        <time>2012-05-30T14:17:24Z</time>
      </trkpt>
      <trkpt lat="43.67903" lon="6.17529">
        <ele>698.4</ele>
        <time>2012-05-30T14:17:40Z</time>
      </trkpt>
      <trkpt lat="43.67898" lon="6.1752">
        <ele>698.6</ele>
        <time>2012-05-30T14:18:17Z</time>
      </trkpt>
      <trkpt lat="43.67897" lon="6.1752">
        <ele>698.4</ele>
        <time>2012-05-30T14:18:18Z</time>
      </trkpt>
      <trkpt lat="43.67883" lon="6.17508">
        <ele>698.7</ele>
        <time>2012-05-30T14:19:36Z</time>
      </trkpt>
      <trkpt lat="43.67882" lon="6.17508">
        <ele>698.8</ele>
        <time>2012-05-30T14:19:37Z</time>
      </trkpt>
      <trkpt lat="43.67872" lon="6.1749">
        <ele>697</ele>
        <time>2012-05-30T14:19:55Z</time>
      </trkpt>
      <trkpt lat="43.67868" lon="6.17481">
        <ele>697.1</ele>
        <time>2012-05-30T14:20:02Z</time>
      </trkpt>
      <trkpt lat="43.67866" lon="6.17469">
        <ele>696.6</ele>
        <time>2012-05-30T14:20:52Z</time>
      </trkpt>
      <trkpt lat="43.67865" lon="6.17469">
        <ele>696.9</ele>
        <time>2012-05-30T14:20:53Z</time>
      </trkpt>
      <trkpt lat="43.67853" lon="6.17452">
        <ele>695.4</ele>
        <time>2012-05-30T14:21:11Z</time>
      </trkpt>
      <trkpt lat="43.67847" lon="6.17443">
        <ele>695</ele>
        <time>2012-05-30T14:21:19Z</time>
      </trkpt>
      <trkpt lat="43.67842" lon="6.17436">
        <ele>694.8</ele>
        <time>2012-05-30T14:21:26Z</time>
      </trkpt>
      <trkpt lat="43.67837" lon="6.17426">
        <ele>695</ele>
        <time>2012-05-30T14:21:33Z</time>
      </trkpt>
      <trkpt lat="43.67832" lon="6.17417">
        <ele>694</ele>
        <time>2012-05-30T14:21:40Z</time>
      </trkpt>
      <trkpt lat="43.67828" lon="6.17408">
        <ele>693</ele>
        <time>2012-05-30T14:21:47Z</time>
      </trkpt>
      <trkpt lat="43.67823" lon="6.17398">
        <ele>692.6</ele>
        <time>2012-05-30T14:21:54Z</time>
      </trkpt>
      <trkpt lat="43.67823" lon="6.17396">
        <ele>692.4</ele>
        <time>2012-05-30T14:21:55Z</time>
      </trkpt>
      <trkpt lat="43.67816" lon="6.17377">
        <ele>691.6</ele>
        <time>2012-05-30T14:22:08Z</time>
      </trkpt>
      <trkpt lat="43.67811" lon="6.17367">
        <ele>690.8</ele>
        <time>2012-05-30T14:22:15Z</time>
      </trkpt>
      <trkpt lat="43.67807" lon="6.17358">
        <ele>690.5</ele>
        <time>2012-05-30T14:22:22Z</time>
      </trkpt>
      <trkpt lat="43.67802" lon="6.17347">
        <ele>689.5</ele>
        <time>2012-05-30T14:22:30Z</time>
      </trkpt>
      <trkpt lat="43.67798" lon="6.17338">
        <ele>688.4</ele>
        <time>2012-05-30T14:22:38Z</time>
      </trkpt>
      <trkpt lat="43.67792" lon="6.1733">
        <ele>688.2</ele>
        <time>2012-05-30T14:22:46Z</time>
      </trkpt>
      <trkpt lat="43.67788" lon="6.17321">
        <ele>687.3</ele>
        <time>2012-05-30T14:22:53Z</time>
      </trkpt>
      <trkpt lat="43.67782" lon="6.17312">
        <ele>687.4</ele>
        <time>2012-05-30T14:23:00Z</time>
      </trkpt>
      <trkpt lat="43.67781" lon="6.17311">
        <ele>687.6</ele>
        <time>2012-05-30T14:23:01Z</time>
      </trkpt>
      <trkpt lat="43.67772" lon="6.17293">
        <ele>686.4</ele>
        <time>2012-05-30T14:23:15Z</time>
      </trkpt>
      <trkpt lat="43.67769" lon="6.17283">
        <ele>685.2</ele>
        <time>2012-05-30T14:23:24Z</time>
      </trkpt>
      <trkpt lat="43.67767" lon="6.17272">
        <ele>684.6</ele>
        <time>2012-05-30T14:23:31Z</time>
      </trkpt>
      <trkpt lat="43.67764" lon="6.1726">
        <ele>684.6</ele>
        <time>2012-05-30T14:23:38Z</time>
      </trkpt>
      <trkpt lat="43.67763" lon="6.17249">
        <ele>684.1</ele>
        <time>2012-05-30T14:23:45Z</time>
      </trkpt>
      <trkpt lat="43.67763" lon="6.17237">
        <ele>683.9</ele>
        <time>2012-05-30T14:23:52Z</time>
      </trkpt>
      <trkpt lat="43.67762" lon="6.17226">
        <ele>683.3</ele>
        <time>2012-05-30T14:24:00Z</time>
      </trkpt>
      <trkpt lat="43.6776" lon="6.17215">
        <ele>682.9</ele>
        <time>2012-05-30T14:24:07Z</time>
      </trkpt>
      <trkpt lat="43.6776" lon="6.17213">
        <ele>683</ele>
        <time>2012-05-30T14:24:08Z</time>
      </trkpt>
      <trkpt lat="43.67759" lon="6.17191">
        <ele>682.3</ele>
        <time>2012-05-30T14:24:20Z</time>
      </trkpt>
      <trkpt lat="43.67756" lon="6.1718">
        <ele>681.9</ele>
        <time>2012-05-30T14:24:29Z</time>
      </trkpt>
      <trkpt lat="43.67755" lon="6.17168">
        <ele>681.2</ele>
        <time>2012-05-30T14:24:36Z</time>
      </trkpt>
      <trkpt lat="43.67754" lon="6.17156">
        <ele>680.4</ele>
        <time>2012-05-30T14:24:43Z</time>
      </trkpt>
      <trkpt lat="43.67754" lon="6.17144">
        <ele>680.1</ele>
        <time>2012-05-30T14:24:49Z</time>
      </trkpt>
      <trkpt lat="43.67754" lon="6.17134">
        <ele>679.4</ele>
        <time>2012-05-30T14:24:54Z</time>
      </trkpt>
      <trkpt lat="43.67752" lon="6.17122">
        <ele>678.9</ele>
        <time>2012-05-30T14:25:01Z</time>
      </trkpt>
      <trkpt lat="43.6775" lon="6.1711">
        <ele>678.2</ele>
        <time>2012-05-30T14:25:09Z</time>
      </trkpt>
      <trkpt lat="43.6775" lon="6.17109">
        <ele>678.2</ele>
        <time>2012-05-30T14:25:10Z</time>
      </trkpt>
      <trkpt lat="43.67744" lon="6.17088">
        <ele>677.3</ele>
        <time>2012-05-30T14:25:27Z</time>
      </trkpt>
      <trkpt lat="43.67738" lon="6.17079">
        <ele>676.5</ele>
        <time>2012-05-30T14:25:39Z</time>
      </trkpt>
      <trkpt lat="43.67731" lon="6.17074">
        <ele>676.3</ele>
        <time>2012-05-30T14:25:51Z</time>
      </trkpt>
      <trkpt lat="43.67723" lon="6.17074">
        <ele>676.7</ele>
        <time>2012-05-30T14:26:00Z</time>
      </trkpt>
      <trkpt lat="43.67716" lon="6.17079">
        <ele>675.9</ele>
        <time>2012-05-30T14:26:09Z</time>
      </trkpt>
      <trkpt lat="43.67709" lon="6.17087">
        <ele>675.5</ele>
        <time>2012-05-30T14:26:17Z</time>
      </trkpt>
      <trkpt lat="43.67708" lon="6.17088">
        <ele>675.3</ele>
        <time>2012-05-30T14:26:18Z</time>
      </trkpt>
      <trkpt lat="43.67696" lon="6.17101">
        <ele>675.6</ele>
        <time>2012-05-30T14:26:38Z</time>
      </trkpt>
      <trkpt lat="43.6769" lon="6.17108">
        <ele>675.4</ele>
        <time>2012-05-30T14:26:45Z</time>
      </trkpt>
      <trkpt lat="43.67682" lon="6.17113">
        <ele>674.9</ele>
        <time>2012-05-30T14:26:53Z</time>
      </trkpt>
      <trkpt lat="43.67676" lon="6.17121">
        <ele>674.8</ele>
        <time>2012-05-30T14:27:01Z</time>
      </trkpt>
      <trkpt lat="43.67674" lon="6.17132">
        <ele>675.2</ele>
        <time>2012-05-30T14:27:08Z</time>
      </trkpt>
      <trkpt lat="43.67671" lon="6.17143">
        <ele>675.5</ele>
        <time>2012-05-30T14:27:16Z</time>
      </trkpt>
      <trkpt lat="43.67667" lon="6.17153">
        <ele>676</ele>
        <time>2012-05-30T14:27:23Z</time>
      </trkpt>
      <trkpt lat="43.67667" lon="6.17155">
        <ele>675.6</ele>
        <time>2012-05-30T14:27:24Z</time>
      </trkpt>
      <trkpt lat="43.67662" lon="6.17176">
        <ele>676</ele>
        <time>2012-05-30T14:27:38Z</time>
      </trkpt>
      <trkpt lat="43.67661" lon="6.17188">
        <ele>675.9</ele>
        <time>2012-05-30T14:27:46Z</time>
      </trkpt>
      <trkpt lat="43.67658" lon="6.17199">
        <ele>676.4</ele>
        <time>2012-05-30T14:27:55Z</time>
      </trkpt>
      <trkpt lat="43.67654" lon="6.17209">
        <ele>676.6</ele>
        <time>2012-05-30T14:28:03Z</time>
      </trkpt>
      <trkpt lat="43.67651" lon="6.1722">
        <ele>676.6</ele>
        <time>2012-05-30T14:28:09Z</time>
      </trkpt>
      <trkpt lat="43.67649" lon="6.17231">
        <ele>677.7</ele>
        <time>2012-05-30T14:28:17Z</time>
      </trkpt>
      <trkpt lat="43.67648" lon="6.17244">
        <ele>678.1</ele>
        <time>2012-05-30T14:28:26Z</time>
      </trkpt>
      <trkpt lat="43.67648" lon="6.17245">
        <ele>678</ele>
        <time>2012-05-30T14:28:27Z</time>
      </trkpt>
      <trkpt lat="43.67639" lon="6.17263">
        <ele>677.6</ele>
        <time>2012-05-30T14:28:46Z</time>
      </trkpt>
      <trkpt lat="43.67634" lon="6.17272">
        <ele>677.8</ele>
        <time>2012-05-30T14:28:57Z</time>
      </trkpt>
      <trkpt lat="43.67632" lon="6.17283">
        <ele>678.3</ele>
        <time>2012-05-30T14:29:04Z</time>
      </trkpt>
      <trkpt lat="43.67631" lon="6.17294">
        <ele>678.6</ele>
        <time>2012-05-30T14:29:12Z</time>
      </trkpt>
      <trkpt lat="43.6763" lon="6.17306">
        <ele>678.5</ele>
        <time>2012-05-30T14:29:21Z</time>
      </trkpt>
      <trkpt lat="43.67624" lon="6.17316">
        <ele>678.6</ele>
        <time>2012-05-30T14:29:33Z</time>
      </trkpt>
      <trkpt lat="43.67624" lon="6.17316">
        <ele>678.3</ele>
        <time>2012-05-30T14:29:34Z</time>
      </trkpt>
      <trkpt lat="43.67608" lon="6.17326">
        <ele>678.3</ele>
        <time>2012-05-30T14:31:33Z</time>
      </trkpt>
      <trkpt lat="43.67608" lon="6.17326">
        <ele>678.5</ele>
        <time>2012-05-30T14:31:34Z</time>
      </trkpt>
      <trkpt lat="43.67599" lon="6.17345">
        <ele>678.8</ele>
        <time>2012-05-30T14:33:08Z</time>
      </trkpt>
      <trkpt lat="43.67599" lon="6.17346">
        <ele>679</ele>
        <time>2012-05-30T14:33:09Z</time>
      </trkpt>
      <trkpt lat="43.67601" lon="6.17369">
        <ele>679.3</ele>
        <time>2012-05-30T14:33:26Z</time>
      </trkpt>
      <trkpt lat="43.67603" lon="6.1738">
        <ele>680.4</ele>
        <time>2012-05-30T14:33:33Z</time>
      </trkpt>
      <trkpt lat="43.67603" lon="6.17392">
        <ele>681</ele>
        <time>2012-05-30T14:33:41Z</time>
      </trkpt>
      <trkpt lat="43.676" lon="6.17403">
        <ele>681.5</ele>
        <time>2012-05-30T14:33:49Z</time>
      </trkpt>
      <trkpt lat="43.67596" lon="6.17414">
        <ele>682.5</ele>
        <time>2012-05-30T14:33:57Z</time>
      </trkpt>
      <trkpt lat="43.67591" lon="6.17422">
        <ele>682.4</ele>
        <time>2012-05-30T14:34:05Z</time>
      </trkpt>
      <trkpt lat="43.67585" lon="6.17429">
        <ele>683.1</ele>
        <time>2012-05-30T14:34:12Z</time>
      </trkpt>
      <trkpt lat="43.67584" lon="6.1743">
        <ele>683.2</ele>
        <time>2012-05-30T14:34:13Z</time>
      </trkpt>
      <trkpt lat="43.67574" lon="6.17445">
        <ele>683.7</ele>
        <time>2012-05-30T14:34:26Z</time>
      </trkpt>
      <trkpt lat="43.67568" lon="6.17454">
        <ele>684.5</ele>
        <time>2012-05-30T14:34:33Z</time>
      </trkpt>
      <trkpt lat="43.67562" lon="6.17463">
        <ele>685.1</ele>
        <time>2012-05-30T14:34:40Z</time>
      </trkpt>
      <trkpt lat="43.67556" lon="6.17471">
        <ele>685.5</ele>
        <time>2012-05-30T14:34:48Z</time>
      </trkpt>
      <trkpt lat="43.6755" lon="6.17479">
        <ele>685.4</ele>
        <time>2012-05-30T14:34:56Z</time>
      </trkpt>
      <trkpt lat="43.67543" lon="6.17487">
        <ele>685.3</ele>
        <time>2012-05-30T14:35:03Z</time>
      </trkpt>
      <trkpt lat="43.67539" lon="6.17498">
        <ele>685.7</ele>
        <time>2012-05-30T14:35:11Z</time>
      </trkpt>
      <trkpt lat="43.67537" lon="6.17509">
        <ele>686.1</ele>
        <time>2012-05-30T14:35:19Z</time>
      </trkpt>
      <trkpt lat="43.67537" lon="6.1751">
        <ele>686.2</ele>
        <time>2012-05-30T14:35:20Z</time>
      </trkpt>
      <trkpt lat="43.67532" lon="6.17531">
        <ele>686.7</ele>
        <time>2012-05-30T14:35:34Z</time>
      </trkpt>
      <trkpt lat="43.67531" lon="6.17544">
        <ele>686.9</ele>
        <time>2012-05-30T14:35:42Z</time>
      </trkpt>
      <trkpt lat="43.67528" lon="6.17555">
        <ele>687.3</ele>
        <time>2012-05-30T14:35:50Z</time>
      </trkpt>
      <trkpt lat="43.67526" lon="6.17567">
        <ele>687.1</ele>
        <time>2012-05-30T14:35:58Z</time>
      </trkpt>
      <trkpt lat="43.67525" lon="6.17579">
        <ele>688</ele>
        <time>2012-05-30T14:36:05Z</time>
      </trkpt>
      <trkpt lat="43.67522" lon="6.1759">
        <ele>687.7</ele>
        <time>2012-05-30T14:36:12Z</time>
      </trkpt>
      <trkpt lat="43.67521" lon="6.17601">
        <ele>688.2</ele>
        <time>2012-05-30T14:36:20Z</time>
      </trkpt>
      <trkpt lat="43.67521" lon="6.17602">
        <ele>687.8</ele>
        <time>2012-05-30T14:36:21Z</time>
      </trkpt>
      <trkpt lat="43.67515" lon="6.17623">
        <ele>687.7</ele>
        <time>2012-05-30T14:36:37Z</time>
      </trkpt>
      <trkpt lat="43.67509" lon="6.17633">
        <ele>688</ele>
        <time>2012-05-30T14:36:44Z</time>
      </trkpt>
      <trkpt lat="43.67502" lon="6.17639">
        <ele>687.9</ele>
        <time>2012-05-30T14:36:52Z</time>
      </trkpt>
      <trkpt lat="43.67495" lon="6.17647">
        <ele>688.1</ele>
        <time>2012-05-30T14:37:02Z</time>
      </trkpt>
      <trkpt lat="43.67489" lon="6.17656">
        <ele>687.7</ele>
        <time>2012-05-30T14:37:09Z</time>
      </trkpt>
      <trkpt lat="43.67482" lon="6.17662">
        <ele>687.9</ele>
        <time>2012-05-30T14:37:18Z</time>
      </trkpt>
      <trkpt lat="43.67475" lon="6.17668">
        <ele>688</ele>
        <time>2012-05-30T14:37:27Z</time>
      </trkpt>
      <trkpt lat="43.67474" lon="6.17669">
        <ele>688</ele>
        <time>2012-05-30T14:37:28Z</time>
      </trkpt>
      <trkpt lat="43.67459" lon="6.17675">
        <ele>688.3</ele>
        <time>2012-05-30T14:37:41Z</time>
      </trkpt>
      <trkpt lat="43.67451" lon="6.17679">
        <ele>687.9</ele>
        <time>2012-05-30T14:37:48Z</time>
      </trkpt>
      <trkpt lat="43.67443" lon="6.17681">
        <ele>688.2</ele>
        <time>2012-05-30T14:37:56Z</time>
      </trkpt>
      <trkpt lat="43.67435" lon="6.17679">
        <ele>688.8</ele>
        <time>2012-05-30T14:38:05Z</time>
      </trkpt>
      <trkpt lat="43.67427" lon="6.17676">
        <ele>688.5</ele>
        <time>2012-05-30T14:38:15Z</time>
      </trkpt>
      <trkpt lat="43.67418" lon="6.17674">
        <ele>688.2</ele>
        <time>2012-05-30T14:38:25Z</time>
      </trkpt>
      <trkpt lat="43.67409" lon="6.17673">
        <ele>688</ele>
        <time>2012-05-30T14:38:33Z</time>
      </trkpt>
      <trkpt lat="43.67408" lon="6.17673">
        <ele>688.3</ele>
        <time>2012-05-30T14:38:34Z</time>
      </trkpt>
      <trkpt lat="43.67394" lon="6.17682">
        <ele>688.5</ele>
        <time>2012-05-30T14:38:47Z</time>
      </trkpt>
      <trkpt lat="43.67387" lon="6.17688">
        <ele>688.3</ele>
        <time>2012-05-30T14:38:53Z</time>
      </trkpt>
      <trkpt lat="43.67379" lon="6.17689">
        <ele>688.9</ele>
        <time>2012-05-30T14:39:01Z</time>
      </trkpt>
      <trkpt lat="43.6737" lon="6.1769">
        <ele>689</ele>
        <time>2012-05-30T14:39:08Z</time>
      </trkpt>
      <trkpt lat="43.67361" lon="6.17692">
        <ele>689.3</ele>
        <time>2012-05-30T14:39:15Z</time>
      </trkpt>
      <trkpt lat="43.67353" lon="6.17693">
        <ele>689.3</ele>
        <time>2012-05-30T14:39:22Z</time>
      </trkpt>
      <trkpt lat="43.67344" lon="6.17688">
        <ele>689.7</ele>
        <time>2012-05-30T14:39:30Z</time>
      </trkpt>
      <trkpt lat="43.67336" lon="6.17686">
        <ele>689.6</ele>
        <time>2012-05-30T14:39:39Z</time>
      </trkpt>
      <trkpt lat="43.67335" lon="6.17685">
        <ele>689.3</ele>
        <time>2012-05-30T14:39:40Z</time>
      </trkpt>
      <trkpt lat="43.6732" lon="6.17689">
        <ele>687.7</ele>
        <time>2012-05-30T14:39:54Z</time>
      </trkpt>
      <trkpt lat="43.67312" lon="6.17692">
        <ele>687.5</ele>
        <time>2012-05-30T14:40:02Z</time>
      </trkpt>
      <trkpt lat="43.67304" lon="6.17697">
        <ele>687.4</ele>
        <time>2012-05-30T14:40:28Z</time>
      </trkpt>
      <trkpt lat="43.67298" lon="6.17704">
        <ele>686.6</ele>
        <time>2012-05-30T14:43:36Z</time>
      </trkpt>
      <trkpt lat="43.67297" lon="6.17705">
        <ele>686.7</ele>
        <time>2012-05-30T14:43:37Z</time>
      </trkpt>
      <trkpt lat="43.67292" lon="6.17725">
        <ele>686.9</ele>
        <time>2012-05-30T14:43:52Z</time>
      </trkpt>
      <trkpt lat="43.67288" lon="6.17736">
        <ele>687.4</ele>
        <time>2012-05-30T14:43:58Z</time>
      </trkpt>
      <trkpt lat="43.67283" lon="6.17745">
        <ele>686.8</ele>
        <time>2012-05-30T14:44:05Z</time>
      </trkpt>
      <trkpt lat="43.6728" lon="6.17756">
        <ele>687.6</ele>
        <time>2012-05-30T14:44:14Z</time>
      </trkpt>
      <trkpt lat="43.67275" lon="6.17766">
        <ele>687.3</ele>
        <time>2012-05-30T14:44:23Z</time>
      </trkpt>
      <trkpt lat="43.67271" lon="6.17776">
        <ele>687.4</ele>
        <time>2012-05-30T14:44:31Z</time>
      </trkpt>
      <trkpt lat="43.67269" lon="6.17788">
        <ele>688.4</ele>
        <time>2012-05-30T14:44:40Z</time>
      </trkpt>
      <trkpt lat="43.67268" lon="6.17789">
        <ele>688.8</ele>
        <time>2012-05-30T14:44:41Z</time>
      </trkpt>
      <trkpt lat="43.67261" lon="6.17808">
        <ele>689.3</ele>
        <time>2012-05-30T14:44:55Z</time>
      </trkpt>
      <trkpt lat="43.67257" lon="6.17818">
        <ele>689.1</ele>
        <time>2012-05-30T14:45:01Z</time>
      </trkpt>
      <trkpt lat="43.67253" lon="6.17828">
        <ele>689.6</ele>
        <time>2012-05-30T14:45:08Z</time>
      </trkpt>
      <trkpt lat="43.67253" lon="6.1784">
        <ele>690.1</ele>
        <time>2012-05-30T14:45:18Z</time>
      </trkpt>
      <trkpt lat="43.67249" lon="6.17849">
        <ele>690.3</ele>
        <time>2012-05-30T14:45:27Z</time>
      </trkpt>
      <trkpt lat="43.67246" lon="6.1786">
        <ele>690.1</ele>
        <time>2012-05-30T14:45:35Z</time>
      </trkpt>
      <trkpt lat="43.67244" lon="6.17872">
        <ele>690.6</ele>
        <time>2012-05-30T14:45:43Z</time>
      </trkpt>
      <trkpt lat="43.67244" lon="6.17874">
        <ele>690.6</ele>
        <time>2012-05-30T14:45:44Z</time>
      </trkpt>
      <trkpt lat="43.67241" lon="6.17894">
        <ele>691.1</ele>
        <time>2012-05-30T14:45:55Z</time>
      </trkpt>
      <trkpt lat="43.67238" lon="6.17906">
        <ele>691.3</ele>
        <time>2012-05-30T14:46:02Z</time>
      </trkpt>
      <trkpt lat="43.67233" lon="6.17914">
        <ele>691.7</ele>
        <time>2012-05-30T14:46:10Z</time>
      </trkpt>
      <trkpt lat="43.67231" lon="6.17925">
        <ele>692.2</ele>
        <time>2012-05-30T14:46:18Z</time>
      </trkpt>
      <trkpt lat="43.67229" lon="6.17937">
        <ele>692.2</ele>
        <time>2012-05-30T14:46:27Z</time>
      </trkpt>
      <trkpt lat="43.67227" lon="6.17949">
        <ele>692.3</ele>
        <time>2012-05-30T14:46:37Z</time>
      </trkpt>
      <trkpt lat="43.67225" lon="6.17959">
        <ele>692.8</ele>
        <time>2012-05-30T14:46:43Z</time>
      </trkpt>
      <trkpt lat="43.67223" lon="6.1797">
        <ele>693.1</ele>
        <time>2012-05-30T14:46:49Z</time>
      </trkpt>
      <trkpt lat="43.67223" lon="6.17972">
        <ele>693.2</ele>
        <time>2012-05-30T14:46:50Z</time>
      </trkpt>
      <trkpt lat="43.67222" lon="6.17993">
        <ele>693.5</ele>
        <time>2012-05-30T14:47:04Z</time>
      </trkpt>
      <trkpt lat="43.67222" lon="6.18005">
        <ele>693.7</ele>
        <time>2012-05-30T14:47:13Z</time>
      </trkpt>
      <trkpt lat="43.67222" lon="6.18017">
        <ele>694.7</ele>
        <time>2012-05-30T14:47:21Z</time>
      </trkpt>
      <trkpt lat="43.67223" lon="6.18028">
        <ele>694.4</ele>
        <time>2012-05-30T14:47:28Z</time>
      </trkpt>
      <trkpt lat="43.67224" lon="6.18039">
        <ele>694.9</ele>
        <time>2012-05-30T14:47:35Z</time>
      </trkpt>
      <trkpt lat="43.67225" lon="6.1805">
        <ele>694.2</ele>
        <time>2012-05-30T14:47:42Z</time>
      </trkpt>
      <trkpt lat="43.67227" lon="6.18062">
        <ele>695.4</ele>
        <time>2012-05-30T14:47:49Z</time>
      </trkpt>
      <trkpt lat="43.6723" lon="6.18073">
        <ele>695.9</ele>
        <time>2012-05-30T14:47:58Z</time>
      </trkpt>
      <trkpt lat="43.6723" lon="6.18074">
        <ele>695.9</ele>
        <time>2012-05-30T14:47:59Z</time>
      </trkpt>
      <trkpt lat="43.67235" lon="6.18094">
        <ele>696.9</ele>
        <time>2012-05-30T14:48:12Z</time>
      </trkpt>
      <trkpt lat="43.67233" lon="6.18104">
        <ele>696.1</ele>
        <time>2012-05-30T14:48:19Z</time>
      </trkpt>
      <trkpt lat="43.67236" lon="6.18115">
        <ele>696.3</ele>
        <time>2012-05-30T14:48:25Z</time>
      </trkpt>
      <trkpt lat="43.67238" lon="6.18126">
        <ele>697.1</ele>
        <time>2012-05-30T14:48:31Z</time>
      </trkpt>
      <trkpt lat="43.67242" lon="6.18137">
        <ele>696.2</ele>
        <time>2012-05-30T14:48:38Z</time>
      </trkpt>
      <trkpt lat="43.67244" lon="6.18149">
        <ele>697.8</ele>
        <time>2012-05-30T14:48:48Z</time>
      </trkpt>
      <trkpt lat="43.67247" lon="6.18159">
        <ele>696.6</ele>
        <time>2012-05-30T14:48:54Z</time>
      </trkpt>
      <trkpt lat="43.67252" lon="6.18168">
        <ele>697.5</ele>
        <time>2012-05-30T14:49:00Z</time>
      </trkpt>
      <trkpt lat="43.67252" lon="6.1817">
        <ele>697.7</ele>
        <time>2012-05-30T14:49:01Z</time>
      </trkpt>
      <trkpt lat="43.67261" lon="6.18187">
        <ele>699.2</ele>
        <time>2012-05-30T14:49:16Z</time>
      </trkpt>
      <trkpt lat="43.67265" lon="6.18198">
        <ele>700</ele>
        <time>2012-05-30T14:49:24Z</time>
      </trkpt>
      <trkpt lat="43.67269" lon="6.18209">
        <ele>701</ele>
        <time>2012-05-30T14:49:33Z</time>
      </trkpt>
      <trkpt lat="43.67273" lon="6.18219">
        <ele>702.7</ele>
        <time>2012-05-30T14:49:42Z</time>
      </trkpt>
      <trkpt lat="43.67276" lon="6.18231">
        <ele>701.9</ele>
        <time>2012-05-30T14:49:50Z</time>
      </trkpt>
      <trkpt lat="43.67282" lon="6.18238">
        <ele>702.4</ele>
        <time>2012-05-30T14:49:55Z</time>
      </trkpt>
      <trkpt lat="43.67285" lon="6.18248">
        <ele>703.3</ele>
        <time>2012-05-30T14:50:01Z</time>
      </trkpt>
      <trkpt lat="43.67285" lon="6.18249">
        <ele>703.2</ele>
        <time>2012-05-30T14:50:02Z</time>
      </trkpt>
      <trkpt lat="43.6729" lon="6.18271">
        <ele>704.3</ele>
        <time>2012-05-30T14:50:16Z</time>
      </trkpt>
      <trkpt lat="43.67293" lon="6.18281">
        <ele>704.8</ele>
        <time>2012-05-30T14:50:22Z</time>
      </trkpt>
      <trkpt lat="43.67297" lon="6.18292">
        <ele>705</ele>
        <time>2012-05-30T14:50:28Z</time>
      </trkpt>
      <trkpt lat="43.67301" lon="6.18303">
        <ele>705.1</ele>
        <time>2012-05-30T14:50:34Z</time>
      </trkpt>
      <trkpt lat="43.67306" lon="6.18312">
        <ele>704.9</ele>
        <time>2012-05-30T14:50:42Z</time>
      </trkpt>
      <trkpt lat="43.67311" lon="6.1832">
        <ele>705.1</ele>
        <time>2012-05-30T14:50:49Z</time>
      </trkpt>
      <trkpt lat="43.67316" lon="6.18329">
        <ele>706.5</ele>
        <time>2012-05-30T14:50:56Z</time>
      </trkpt>
      <trkpt lat="43.67318" lon="6.1834">
        <ele>705.9</ele>
        <time>2012-05-30T14:51:04Z</time>
      </trkpt>
      <trkpt lat="43.67318" lon="6.18342">
        <ele>705.9</ele>
        <time>2012-05-30T14:51:05Z</time>
      </trkpt>
      <trkpt lat="43.67321" lon="6.18363">
        <ele>706.8</ele>
        <time>2012-05-30T14:51:23Z</time>
      </trkpt>
      <trkpt lat="43.67322" lon="6.18375">
        <ele>708.8</ele>
        <time>2012-05-30T14:51:33Z</time>
      </trkpt>
      <trkpt lat="43.67325" lon="6.18386">
        <ele>709.9</ele>
        <time>2012-05-30T14:51:42Z</time>
      </trkpt>
      <trkpt lat="43.67327" lon="6.18397">
        <ele>710.9</ele>
        <time>2012-05-30T14:51:51Z</time>
      </trkpt>
      <trkpt lat="43.67325" lon="6.18409">
        <ele>712.1</ele>
        <time>2012-05-30T14:52:01Z</time>
      </trkpt>
      <trkpt lat="43.6732" lon="6.18419">
        <ele>713.1</ele>
        <time>2012-05-30T14:52:11Z</time>
      </trkpt>
      <trkpt lat="43.6732" lon="6.1842">
        <ele>713</ele>
        <time>2012-05-30T14:52:12Z</time>
      </trkpt>
      <trkpt lat="43.67314" lon="6.18441">
        <ele>714.5</ele>
        <time>2012-05-30T14:52:31Z</time>
      </trkpt>
      <trkpt lat="43.67312" lon="6.18451">
        <ele>715.8</ele>
        <time>2012-05-30T14:52:39Z</time>
      </trkpt>
      <trkpt lat="43.6731" lon="6.18462">
        <ele>716.7</ele>
        <time>2012-05-30T14:52:48Z</time>
      </trkpt>
      <trkpt lat="43.67307" lon="6.18474">
        <ele>717.4</ele>
        <time>2012-05-30T14:52:56Z</time>
      </trkpt>
      <trkpt lat="43.67304" lon="6.18484">
        <ele>718.1</ele>
        <time>2012-05-30T14:53:04Z</time>
      </trkpt>
      <trkpt lat="43.67301" lon="6.18495">
        <ele>718.6</ele>
        <time>2012-05-30T14:53:12Z</time>
      </trkpt>
      <trkpt lat="43.67301" lon="6.18497">
        <ele>718.7</ele>
        <time>2012-05-30T14:53:13Z</time>
      </trkpt>
      <trkpt lat="43.67295" lon="6.18517">
        <ele>719.8</ele>
        <time>2012-05-30T14:53:29Z</time>
      </trkpt>
      <trkpt lat="43.6729" lon="6.18527">
        <ele>721.3</ele>
        <time>2012-05-30T14:53:37Z</time>
      </trkpt>
      <trkpt lat="43.67284" lon="6.18535">
        <ele>722.1</ele>
        <time>2012-05-30T14:53:47Z</time>
      </trkpt>
      <trkpt lat="43.6728" lon="6.18545">
        <ele>723.4</ele>
        <time>2012-05-30T14:53:56Z</time>
      </trkpt>
      <trkpt lat="43.67275" lon="6.18553">
        <ele>723.9</ele>
        <time>2012-05-30T14:54:02Z</time>
      </trkpt>
      <trkpt lat="43.67269" lon="6.18561">
        <ele>723.8</ele>
        <time>2012-05-30T14:54:08Z</time>
      </trkpt>
      <trkpt lat="43.67263" lon="6.18571">
        <ele>724.5</ele>
        <time>2012-05-30T14:54:15Z</time>
      </trkpt>
      <trkpt lat="43.67263" lon="6.18572">
        <ele>724.7</ele>
        <time>2012-05-30T14:54:16Z</time>
      </trkpt>
      <trkpt lat="43.67257" lon="6.18592">
        <ele>724.4</ele>
        <time>2012-05-30T14:54:31Z</time>
      </trkpt>
      <trkpt lat="43.67253" lon="6.18604">
        <ele>725.9</ele>
        <time>2012-05-30T14:54:39Z</time>
      </trkpt>
      <trkpt lat="43.67252" lon="6.18614">
        <ele>726.2</ele>
        <time>2012-05-30T14:54:47Z</time>
      </trkpt>
      <trkpt lat="43.67251" lon="6.18625">
        <ele>726.5</ele>
        <time>2012-05-30T14:54:54Z</time>
      </trkpt>
      <trkpt lat="43.6725" lon="6.18637">
        <ele>727.6</ele>
        <time>2012-05-30T14:55:01Z</time>
      </trkpt>
      <trkpt lat="43.6725" lon="6.18648">
        <ele>728.1</ele>
        <time>2012-05-30T14:55:10Z</time>
      </trkpt>
      <trkpt lat="43.67247" lon="6.1866">
        <ele>727.9</ele>
        <time>2012-05-30T14:55:18Z</time>
      </trkpt>
      <trkpt lat="43.67248" lon="6.18661">
        <ele>727.8</ele>
        <time>2012-05-30T14:55:19Z</time>
      </trkpt>
      <trkpt lat="43.67244" lon="6.18682">
        <ele>729.8</ele>
        <time>2012-05-30T14:55:35Z</time>
      </trkpt>
      <trkpt lat="43.67237" lon="6.18689">
        <ele>731.3</ele>
        <time>2012-05-30T14:55:43Z</time>
      </trkpt>
      <trkpt lat="43.6723" lon="6.18696">
        <ele>731.3</ele>
        <time>2012-05-30T14:55:52Z</time>
      </trkpt>
      <trkpt lat="43.67224" lon="6.18704">
        <ele>732.7</ele>
        <time>2012-05-30T14:56:02Z</time>
      </trkpt>
      <trkpt lat="43.67217" lon="6.18711">
        <ele>733.9</ele>
        <time>2012-05-30T14:56:11Z</time>
      </trkpt>
      <trkpt lat="43.67211" lon="6.1872">
        <ele>734.9</ele>
        <time>2012-05-30T14:56:21Z</time>
      </trkpt>
      <trkpt lat="43.67209" lon="6.18721">
        <ele>735.5</ele>
        <time>2012-05-30T14:56:22Z</time>
      </trkpt>
      <trkpt lat="43.67198" lon="6.18735">
        <ele>736.8</ele>
        <time>2012-05-30T14:56:35Z</time>
      </trkpt>
      <trkpt lat="43.67191" lon="6.18741">
        <ele>737.5</ele>
        <time>2012-05-30T14:56:42Z</time>
      </trkpt>
      <trkpt lat="43.67184" lon="6.18747">
        <ele>738.4</ele>
        <time>2012-05-30T14:56:51Z</time>
      </trkpt>
      <trkpt lat="43.67177" lon="6.18754">
        <ele>738.9</ele>
        <time>2012-05-30T14:56:59Z</time>
      </trkpt>
      <trkpt lat="43.67171" lon="6.18761">
        <ele>739.8</ele>
        <time>2012-05-30T14:57:06Z</time>
      </trkpt>
      <trkpt lat="43.67164" lon="6.18767">
        <ele>740.2</ele>
        <time>2012-05-30T14:57:13Z</time>
      </trkpt>
      <trkpt lat="43.6716" lon="6.18776">
        <ele>742.5</ele>
        <time>2012-05-30T14:57:21Z</time>
      </trkpt>
      <trkpt lat="43.67154" lon="6.18785">
        <ele>743.2</ele>
        <time>2012-05-30T14:57:29Z</time>
      </trkpt>
      <trkpt lat="43.67154" lon="6.18787">
        <ele>743.4</ele>
        <time>2012-05-30T14:57:30Z</time>
      </trkpt>
      <trkpt lat="43.67143" lon="6.18803">
        <ele>744.1</ele>
        <time>2012-05-30T14:57:45Z</time>
      </trkpt>
      <trkpt lat="43.67138" lon="6.18812">
        <ele>744.8</ele>
        <time>2012-05-30T14:57:52Z</time>
      </trkpt>
      <trkpt lat="43.67132" lon="6.1882">
        <ele>746</ele>
        <time>2012-05-30T14:58:00Z</time>
      </trkpt>
      <trkpt lat="43.67125" lon="6.18828">
        <ele>747.2</ele>
        <time>2012-05-30T14:58:09Z</time>
      </trkpt>
      <trkpt lat="43.67119" lon="6.18836">
        <ele>748.5</ele>
        <time>2012-05-30T14:58:18Z</time>
      </trkpt>
      <trkpt lat="43.67112" lon="6.18842">
        <ele>748.7</ele>
        <time>2012-05-30T14:58:27Z</time>
      </trkpt>
      <trkpt lat="43.67105" lon="6.18849">
        <ele>749.9</ele>
        <time>2012-05-30T14:58:37Z</time>
      </trkpt>
      <trkpt lat="43.67105" lon="6.18849">
        <ele>749.7</ele>
        <time>2012-05-30T14:58:38Z</time>
      </trkpt>
      <trkpt lat="43.67091" lon="6.18861">
        <ele>751.7</ele>
        <time>2012-05-30T14:58:58Z</time>
      </trkpt>
      <trkpt lat="43.67083" lon="6.18867">
        <ele>753.4</ele>
        <time>2012-05-30T14:59:08Z</time>
      </trkpt>
      <trkpt lat="43.67076" lon="6.18872">
        <ele>754.5</ele>
        <time>2012-05-30T14:59:16Z</time>
      </trkpt>
      <trkpt lat="43.67068" lon="6.18877">
        <ele>755</ele>
        <time>2012-05-30T14:59:24Z</time>
      </trkpt>
      <trkpt lat="43.67061" lon="6.18884">
        <ele>755.8</ele>
        <time>2012-05-30T14:59:33Z</time>
      </trkpt>
      <trkpt lat="43.67056" lon="6.18893">
        <ele>756.1</ele>
        <time>2012-05-30T14:59:43Z</time>
      </trkpt>
      <trkpt lat="43.67055" lon="6.18894">
        <ele>756.3</ele>
        <time>2012-05-30T14:59:44Z</time>
      </trkpt>
      <trkpt lat="43.67043" lon="6.18909">
        <ele>758</ele>
        <time>2012-05-30T14:59:59Z</time>
      </trkpt>
      <trkpt lat="43.67035" lon="6.18914">
        <ele>758.1</ele>
        <time>2012-05-30T15:00:05Z</time>
      </trkpt>
      <trkpt lat="43.67028" lon="6.18919">
        <ele>758.2</ele>
        <time>2012-05-30T15:00:12Z</time>
      </trkpt>
      <trkpt lat="43.67019" lon="6.18923">
        <ele>758.3</ele>
        <time>2012-05-30T15:00:18Z</time>
      </trkpt>
      <trkpt lat="43.67012" lon="6.18928">
        <ele>758.9</ele>
        <time>2012-05-30T15:00:24Z</time>
      </trkpt>
      <trkpt lat="43.67005" lon="6.18934">
        <ele>758.8</ele>
        <time>2012-05-30T15:00:31Z</time>
      </trkpt>
      <trkpt lat="43.66998" lon="6.1894">
        <ele>758.7</ele>
        <time>2012-05-30T15:00:38Z</time>
      </trkpt>
      <trkpt lat="43.66992" lon="6.18949">
        <ele>758.9</ele>
        <time>2012-05-30T15:00:46Z</time>
      </trkpt>
      <trkpt lat="43.66991" lon="6.1895">
        <ele>758.9</ele>
        <time>2012-05-30T15:00:47Z</time>
      </trkpt>
      <trkpt lat="43.66982" lon="6.18965">
        <ele>759.9</ele>
        <time>2012-05-30T15:00:59Z</time>
      </trkpt>
      <trkpt lat="43.66975" lon="6.18973">
        <ele>760.1</ele>
        <time>2012-05-30T15:01:06Z</time>
      </trkpt>
      <trkpt lat="43.66969" lon="6.18981">
        <ele>761.1</ele>
        <time>2012-05-30T15:01:12Z</time>
      </trkpt>
      <trkpt lat="43.66964" lon="6.18989">
        <ele>760.9</ele>
        <time>2012-05-30T15:01:18Z</time>
      </trkpt>
      <trkpt lat="43.66957" lon="6.18997">
        <ele>760.8</ele>
        <time>2012-05-30T15:01:24Z</time>
      </trkpt>
      <trkpt lat="43.66953" lon="6.19006">
        <ele>761.5</ele>
        <time>2012-05-30T15:01:31Z</time>
      </trkpt>
      <trkpt lat="43.66948" lon="6.19016">
        <ele>761.9</ele>
        <time>2012-05-30T15:01:39Z</time>
      </trkpt>
      <trkpt lat="43.66944" lon="6.19026">
        <ele>761.5</ele>
        <time>2012-05-30T15:01:46Z</time>
      </trkpt>
      <trkpt lat="43.6694" lon="6.19036">
        <ele>762.6</ele>
        <time>2012-05-30T15:01:53Z</time>
      </trkpt>
      <trkpt lat="43.6694" lon="6.19038">
        <ele>762.6</ele>
        <time>2012-05-30T15:01:54Z</time>
      </trkpt>
      <trkpt lat="43.66934" lon="6.19057">
        <ele>763.3</ele>
        <time>2012-05-30T15:02:07Z</time>
      </trkpt>
      <trkpt lat="43.6693" lon="6.19067">
        <ele>763.1</ele>
        <time>2012-05-30T15:02:14Z</time>
      </trkpt>
      <trkpt lat="43.66926" lon="6.19077">
        <ele>763.7</ele>
        <time>2012-05-30T15:02:21Z</time>
      </trkpt>
      <trkpt lat="43.66922" lon="6.19088">
        <ele>764.5</ele>
        <time>2012-05-30T15:02:29Z</time>
      </trkpt>
      <trkpt lat="43.66917" lon="6.19098">
        <ele>764.9</ele>
        <time>2012-05-30T15:02:36Z</time>
      </trkpt>
      <trkpt lat="43.66912" lon="6.19107">
        <ele>765.1</ele>
        <time>2012-05-30T15:02:43Z</time>
      </trkpt>
      <trkpt lat="43.66908" lon="6.19117">
        <ele>765.1</ele>
        <time>2012-05-30T15:02:51Z</time>
      </trkpt>
      <trkpt lat="43.66902" lon="6.19126">
        <ele>765.6</ele>
        <time>2012-05-30T15:02:58Z</time>
      </trkpt>
      <trkpt lat="43.66902" lon="6.19127">
        <ele>765.5</ele>
        <time>2012-05-30T15:02:59Z</time>
      </trkpt>
      <trkpt lat="43.66891" lon="6.19144">
        <ele>766</ele>
        <time>2012-05-30T15:03:13Z</time>
      </trkpt>
      <trkpt lat="43.66885" lon="6.19152">
        <ele>766.8</ele>
        <time>2012-05-30T15:03:20Z</time>
      </trkpt>
      <trkpt lat="43.66882" lon="6.19162">
        <ele>767.4</ele>
        <time>2012-05-30T15:03:28Z</time>
      </trkpt>
      <trkpt lat="43.66877" lon="6.19171">
        <ele>768.3</ele>
        <time>2012-05-30T15:03:35Z</time>
      </trkpt>
      <trkpt lat="43.66876" lon="6.19183">
        <ele>767.9</ele>
        <time>2012-05-30T15:03:43Z</time>
      </trkpt>
      <trkpt lat="43.66873" lon="6.19194">
        <ele>768</ele>
        <time>2012-05-30T15:03:51Z</time>
      </trkpt>
      <trkpt lat="43.66869" lon="6.19203">
        <ele>768</ele>
        <time>2012-05-30T15:03:57Z</time>
      </trkpt>
      <trkpt lat="43.66864" lon="6.19213">
        <ele>768</ele>
        <time>2012-05-30T15:04:04Z</time>
      </trkpt>
      <trkpt lat="43.66863" lon="6.19215">
        <ele>768.4</ele>
        <time>2012-05-30T15:04:05Z</time>
      </trkpt>
      <trkpt lat="43.66855" lon="6.19232">
        <ele>769.7</ele>
        <time>2012-05-30T15:04:18Z</time>
      </trkpt>
      <trkpt lat="43.66849" lon="6.19239">
        <ele>770.1</ele>
        <time>2012-05-30T15:04:25Z</time>
      </trkpt>
      <trkpt lat="43.66845" lon="6.1925">
        <ele>770.8</ele>
        <time>2012-05-30T15:04:34Z</time>
      </trkpt>
      <trkpt lat="43.66841" lon="6.19261">
        <ele>771.5</ele>
        <time>2012-05-30T15:04:42Z</time>
      </trkpt>
      <trkpt lat="43.66837" lon="6.1927">
        <ele>772.1</ele>
        <time>2012-05-30T15:04:49Z</time>
      </trkpt>
      <trkpt lat="43.66832" lon="6.1928">
        <ele>772.4</ele>
        <time>2012-05-30T15:04:57Z</time>
      </trkpt>
      <trkpt lat="43.66829" lon="6.19291">
        <ele>772.1</ele>
        <time>2012-05-30T15:05:05Z</time>
      </trkpt>
      <trkpt lat="43.66829" lon="6.19293">
        <ele>772.4</ele>
        <time>2012-05-30T15:05:06Z</time>
      </trkpt>
      <trkpt lat="43.66819" lon="6.19308">
        <ele>772.2</ele>
        <time>2012-05-30T15:05:18Z</time>
      </trkpt>
      <trkpt lat="43.66813" lon="6.19317">
        <ele>772.4</ele>
        <time>2012-05-30T15:05:25Z</time>
      </trkpt>
      <trkpt lat="43.66807" lon="6.19325">
        <ele>772.3</ele>
        <time>2012-05-30T15:05:32Z</time>
      </trkpt>
      <trkpt lat="43.66803" lon="6.19334">
        <ele>771.2</ele>
        <time>2012-05-30T15:05:39Z</time>
      </trkpt>
      <trkpt lat="43.66799" lon="6.19345">
        <ele>770.9</ele>
        <time>2012-05-30T15:05:47Z</time>
      </trkpt>
      <trkpt lat="43.66795" lon="6.19355">
        <ele>769.7</ele>
        <time>2012-05-30T15:05:54Z</time>
      </trkpt>
      <trkpt lat="43.6679" lon="6.19364">
        <ele>769.6</ele>
        <time>2012-05-30T15:06:01Z</time>
      </trkpt>
      <trkpt lat="43.66787" lon="6.19374">
        <ele>768</ele>
        <time>2012-05-30T15:06:08Z</time>
      </trkpt>
      <trkpt lat="43.66786" lon="6.19375">
        <ele>767.6</ele>
        <time>2012-05-30T15:06:09Z</time>
      </trkpt>
      <trkpt lat="43.66775" lon="6.19392">
        <ele>767.6</ele>
        <time>2012-05-30T15:06:24Z</time>
      </trkpt>
      <trkpt lat="43.66769" lon="6.19399">
        <ele>767.3</ele>
        <time>2012-05-30T15:06:30Z</time>
      </trkpt>
      <trkpt lat="43.66763" lon="6.19408">
        <ele>766.3</ele>
        <time>2012-05-30T15:06:36Z</time>
      </trkpt>
      <trkpt lat="43.66757" lon="6.19417">
        <ele>766.4</ele>
        <time>2012-05-30T15:06:46Z</time>
      </trkpt>
      <trkpt lat="43.66756" lon="6.19429">
        <ele>765.1</ele>
        <time>2012-05-30T15:09:22Z</time>
      </trkpt>
      <trkpt lat="43.66756" lon="6.1943">
        <ele>764.7</ele>
        <time>2012-05-30T15:09:23Z</time>
      </trkpt>
      <trkpt lat="43.66755" lon="6.19452">
        <ele>765.5</ele>
        <time>2012-05-30T15:09:45Z</time>
      </trkpt>
      <trkpt lat="43.66755" lon="6.19464">
        <ele>766.3</ele>
        <time>2012-05-30T15:09:54Z</time>
      </trkpt>
      <trkpt lat="43.66752" lon="6.19476">
        <ele>765.8</ele>
        <time>2012-05-30T15:10:04Z</time>
      </trkpt>
      <trkpt lat="43.66754" lon="6.19487">
        <ele>767.2</ele>
        <time>2012-05-30T15:10:13Z</time>
      </trkpt>
      <trkpt lat="43.66758" lon="6.19498">
        <ele>767.7</ele>
        <time>2012-05-30T15:10:22Z</time>
      </trkpt>
      <trkpt lat="43.66763" lon="6.19507">
        <ele>768</ele>
        <time>2012-05-30T15:10:30Z</time>
      </trkpt>
      <trkpt lat="43.66763" lon="6.19508">
        <ele>767.7</ele>
        <time>2012-05-30T15:10:31Z</time>
      </trkpt>
      <trkpt lat="43.66772" lon="6.19525">
        <ele>769.8</ele>
        <time>2012-05-30T15:10:45Z</time>
      </trkpt>
      <trkpt lat="43.66778" lon="6.19534">
        <ele>770.8</ele>
        <time>2012-05-30T15:10:53Z</time>
      </trkpt>
      <trkpt lat="43.66783" lon="6.19544">
        <ele>771.6</ele>
        <time>2012-05-30T15:11:02Z</time>
      </trkpt>
      <trkpt lat="43.66786" lon="6.19555">
        <ele>772.7</ele>
        <time>2012-05-30T15:11:11Z</time>
      </trkpt>
      <trkpt lat="43.6679" lon="6.19565">
        <ele>773.8</ele>
        <time>2012-05-30T15:11:19Z</time>
      </trkpt>
      <trkpt lat="43.66792" lon="6.19576">
        <ele>774.6</ele>
        <time>2012-05-30T15:11:28Z</time>
      </trkpt>
      <trkpt lat="43.66792" lon="6.19588">
        <ele>775.6</ele>
        <time>2012-05-30T15:11:37Z</time>
      </trkpt>
      <trkpt lat="43.66792" lon="6.19589">
        <ele>775.6</ele>
        <time>2012-05-30T15:11:38Z</time>
      </trkpt>
      <trkpt lat="43.66794" lon="6.19611">
        <ele>777.6</ele>
        <time>2012-05-30T15:11:55Z</time>
      </trkpt>
      <trkpt lat="43.66797" lon="6.19622">
        <ele>778.8</ele>
        <time>2012-05-30T15:12:03Z</time>
      </trkpt>
      <trkpt lat="43.66799" lon="6.19633">
        <ele>779.7</ele>
        <time>2012-05-30T15:12:13Z</time>
      </trkpt>
      <trkpt lat="43.668" lon="6.19645">
        <ele>781.4</ele>
        <time>2012-05-30T15:12:24Z</time>
      </trkpt>
      <trkpt lat="43.66802" lon="6.19657">
        <ele>782.8</ele>
        <time>2012-05-30T15:12:34Z</time>
      </trkpt>
      <trkpt lat="43.66804" lon="6.19669">
        <ele>783.4</ele>
        <time>2012-05-30T15:12:43Z</time>
      </trkpt>
      <trkpt lat="43.66805" lon="6.1967">
        <ele>783.6</ele>
        <time>2012-05-30T15:12:44Z</time>
      </trkpt>
      <trkpt lat="43.66811" lon="6.19691">
        <ele>786.1</ele>
        <time>2012-05-30T15:13:00Z</time>
      </trkpt>
      <trkpt lat="43.66814" lon="6.19702">
        <ele>786.5</ele>
        <time>2012-05-30T15:13:09Z</time>
      </trkpt>
      <trkpt lat="43.66817" lon="6.19714">
        <ele>786.9</ele>
        <time>2012-05-30T15:13:17Z</time>
      </trkpt>
      <trkpt lat="43.66821" lon="6.19724">
        <ele>786.8</ele>
        <time>2012-05-30T15:13:25Z</time>
      </trkpt>
      <trkpt lat="43.66825" lon="6.19735">
        <ele>787.9</ele>
        <time>2012-05-30T15:13:33Z</time>
      </trkpt>
      <trkpt lat="43.66826" lon="6.19747">
        <ele>789.3</ele>
        <time>2012-05-30T15:13:42Z</time>
      </trkpt>
      <trkpt lat="43.66828" lon="6.19757">
        <ele>790.6</ele>
        <time>2012-05-30T15:13:50Z</time>
      </trkpt>
      <trkpt lat="43.66829" lon="6.19759">
        <ele>790.9</ele>
        <time>2012-05-30T15:13:51Z</time>
      </trkpt>
      <trkpt lat="43.66836" lon="6.19779">
        <ele>791</ele>
        <time>2012-05-30T15:14:05Z</time>
      </trkpt>
      <trkpt lat="43.66838" lon="6.1979">
        <ele>792.7</ele>
        <time>2012-05-30T15:14:13Z</time>
      </trkpt>
      <trkpt lat="43.6684" lon="6.19801">
        <ele>792.7</ele>
        <time>2012-05-30T15:14:22Z</time>
      </trkpt>
      <trkpt lat="43.66843" lon="6.19812">
        <ele>794.1</ele>
        <time>2012-05-30T15:14:30Z</time>
      </trkpt>
      <trkpt lat="43.66848" lon="6.19822">
        <ele>794.2</ele>
        <time>2012-05-30T15:14:37Z</time>
      </trkpt>
      <trkpt lat="43.66849" lon="6.19833">
        <ele>795.2</ele>
        <time>2012-05-30T15:14:46Z</time>
      </trkpt>
      <trkpt lat="43.66851" lon="6.19845">
        <ele>795.9</ele>
        <time>2012-05-30T15:14:54Z</time>
      </trkpt>
      <trkpt lat="43.66851" lon="6.19846">
        <ele>796.3</ele>
        <time>2012-05-30T15:14:55Z</time>
      </trkpt>
      <trkpt lat="43.66852" lon="6.19868">
        <ele>798.9</ele>
        <time>2012-05-30T15:15:14Z</time>
      </trkpt>
      <trkpt lat="43.66851" lon="6.1988">
        <ele>800.5</ele>
        <time>2012-05-30T15:15:23Z</time>
      </trkpt>
      <trkpt lat="43.66852" lon="6.19892">
        <ele>803.4</ele>
        <time>2012-05-30T15:15:32Z</time>
      </trkpt>
      <trkpt lat="43.66852" lon="6.19904">
        <ele>803.6</ele>
        <time>2012-05-30T15:15:47Z</time>
      </trkpt>
      <trkpt lat="43.66853" lon="6.19916">
        <ele>803.6</ele>
        <time>2012-05-30T15:16:13Z</time>
      </trkpt>
      <trkpt lat="43.66852" lon="6.19917">
        <ele>803.3</ele>
        <time>2012-05-30T15:16:14Z</time>
      </trkpt>
      <trkpt lat="43.66856" lon="6.19928">
        <ele>803.2</ele>
        <time>2012-05-30T15:17:52Z</time>
      </trkpt>
      <trkpt lat="43.66864" lon="6.19947">
        <ele>802.3</ele>
        <time>2012-05-30T15:18:11Z</time>
      </trkpt>
      <trkpt lat="43.66867" lon="6.19958">
        <ele>801.1</ele>
        <time>2012-05-30T15:18:21Z</time>
      </trkpt>
      <trkpt lat="43.6687" lon="6.1997">
        <ele>800.3</ele>
        <time>2012-05-30T15:18:30Z</time>
      </trkpt>
      <trkpt lat="43.66872" lon="6.19981">
        <ele>800.8</ele>
        <time>2012-05-30T15:18:38Z</time>
      </trkpt>
      <trkpt lat="43.66875" lon="6.19993">
        <ele>799.1</ele>
        <time>2012-05-30T15:18:47Z</time>
      </trkpt>
      <trkpt lat="43.66878" lon="6.20004">
        <ele>798.8</ele>
        <time>2012-05-30T15:18:55Z</time>
      </trkpt>
      <trkpt lat="43.66879" lon="6.20005">
        <ele>799.1</ele>
        <time>2012-05-30T15:18:56Z</time>
      </trkpt>
      <trkpt lat="43.66887" lon="6.20024">
        <ele>798.7</ele>
        <time>2012-05-30T15:19:08Z</time>
      </trkpt>
      <trkpt lat="43.66891" lon="6.20034">
        <ele>798.5</ele>
        <time>2012-05-30T15:19:14Z</time>
      </trkpt>
      <trkpt lat="43.66895" lon="6.20044">
        <ele>798</ele>
        <time>2012-05-30T15:19:22Z</time>
      </trkpt>
      <trkpt lat="43.669" lon="6.20055">
        <ele>798.5</ele>
        <time>2012-05-30T15:19:32Z</time>
      </trkpt>
      <trkpt lat="43.66904" lon="6.20065">
        <ele>798.3</ele>
        <time>2012-05-30T15:19:40Z</time>
      </trkpt>
      <trkpt lat="43.6691" lon="6.20074">
        <ele>797.9</ele>
        <time>2012-05-30T15:19:48Z</time>
      </trkpt>
      <trkpt lat="43.66916" lon="6.20083">
        <ele>798.5</ele>
        <time>2012-05-30T15:19:56Z</time>
      </trkpt>
      <trkpt lat="43.66917" lon="6.20084">
        <ele>798.6</ele>
        <time>2012-05-30T15:19:57Z</time>
      </trkpt>
      <trkpt lat="43.66931" lon="6.20094">
        <ele>799</ele>
        <time>2012-05-30T15:20:13Z</time>
      </trkpt>
      <trkpt lat="43.66937" lon="6.201">
        <ele>799.7</ele>
        <time>2012-05-30T15:20:20Z</time>
      </trkpt>
      <trkpt lat="43.66944" lon="6.20108">
        <ele>800.1</ele>
        <time>2012-05-30T15:20:27Z</time>
      </trkpt>
      <trkpt lat="43.6695" lon="6.20116">
        <ele>799.7</ele>
        <time>2012-05-30T15:20:35Z</time>
      </trkpt>
      <trkpt lat="43.66956" lon="6.20125">
        <ele>799.8</ele>
        <time>2012-05-30T15:20:42Z</time>
      </trkpt>
      <trkpt lat="43.66962" lon="6.20133">
        <ele>800.8</ele>
        <time>2012-05-30T15:20:49Z</time>
      </trkpt>
      <trkpt lat="43.66968" lon="6.20141">
        <ele>801.1</ele>
        <time>2012-05-30T15:20:56Z</time>
      </trkpt>
      <trkpt lat="43.66973" lon="6.20149">
        <ele>801.6</ele>
        <time>2012-05-30T15:21:04Z</time>
      </trkpt>
      <trkpt lat="43.66974" lon="6.20151">
        <ele>801</ele>
        <time>2012-05-30T15:21:05Z</time>
      </trkpt>
      <trkpt lat="43.66982" lon="6.20169">
        <ele>802.4</ele>
        <time>2012-05-30T15:21:18Z</time>
      </trkpt>
      <trkpt lat="43.66984" lon="6.2018">
        <ele>802.4</ele>
        <time>2012-05-30T15:21:26Z</time>
      </trkpt>
      <trkpt lat="43.66987" lon="6.20192">
        <ele>803.3</ele>
        <time>2012-05-30T15:21:34Z</time>
      </trkpt>
      <trkpt lat="43.66992" lon="6.20202">
        <ele>804.7</ele>
        <time>2012-05-30T15:21:45Z</time>
      </trkpt>
      <trkpt lat="43.66997" lon="6.2021">
        <ele>805.9</ele>
        <time>2012-05-30T15:21:53Z</time>
      </trkpt>
      <trkpt lat="43.67001" lon="6.2022">
        <ele>806.5</ele>
        <time>2012-05-30T15:22:01Z</time>
      </trkpt>
      <trkpt lat="43.67007" lon="6.20229">
        <ele>807.4</ele>
        <time>2012-05-30T15:22:10Z</time>
      </trkpt>
      <trkpt lat="43.67008" lon="6.20229">
        <ele>807.6</ele>
        <time>2012-05-30T15:22:11Z</time>
      </trkpt>
      <trkpt lat="43.67016" lon="6.20249">
        <ele>809.7</ele>
        <time>2012-05-30T15:22:33Z</time>
      </trkpt>
      <trkpt lat="43.6702" lon="6.2026">
        <ele>812.1</ele>
        <time>2012-05-30T15:22:45Z</time>
      </trkpt>
      <trkpt lat="43.67027" lon="6.20268">
        <ele>813.6</ele>
        <time>2012-05-30T15:22:56Z</time>
      </trkpt>
      <trkpt lat="43.67033" lon="6.20276">
        <ele>814.4</ele>
        <time>2012-05-30T15:23:04Z</time>
      </trkpt>
      <trkpt lat="43.6704" lon="6.20282">
        <ele>814.8</ele>
        <time>2012-05-30T15:23:10Z</time>
      </trkpt>
      <trkpt lat="43.67048" lon="6.20288">
        <ele>815.6</ele>
        <time>2012-05-30T15:23:21Z</time>
      </trkpt>
      <trkpt lat="43.67049" lon="6.20288">
        <ele>815.4</ele>
        <time>2012-05-30T15:23:22Z</time>
      </trkpt>
      <trkpt lat="43.67064" lon="6.20296">
        <ele>816</ele>
        <time>2012-05-30T15:23:37Z</time>
      </trkpt>
      <trkpt lat="43.67072" lon="6.20301">
        <ele>814.7</ele>
        <time>2012-05-30T15:23:43Z</time>
      </trkpt>
      <trkpt lat="43.67078" lon="6.20307">
        <ele>815.4</ele>
        <time>2012-05-30T15:23:50Z</time>
      </trkpt>
      <trkpt lat="43.67085" lon="6.20315">
        <ele>814.9</ele>
        <time>2012-05-30T15:23:56Z</time>
      </trkpt>
      <trkpt lat="43.67092" lon="6.20322">
        <ele>816.2</ele>
        <time>2012-05-30T15:24:06Z</time>
      </trkpt>
      <trkpt lat="43.67098" lon="6.20329">
        <ele>816.1</ele>
        <time>2012-05-30T15:24:13Z</time>
      </trkpt>
      <trkpt lat="43.67105" lon="6.20336">
        <ele>817.1</ele>
        <time>2012-05-30T15:24:20Z</time>
      </trkpt>
      <trkpt lat="43.67108" lon="6.20346">
        <ele>818.4</ele>
        <time>2012-05-30T15:24:27Z</time>
      </trkpt>
      <trkpt lat="43.67109" lon="6.20347">
        <ele>818.7</ele>
        <time>2012-05-30T15:24:28Z</time>
      </trkpt>
      <trkpt lat="43.671" lon="6.20367">
        <ele>819.9</ele>
        <time>2012-05-30T15:24:45Z</time>
      </trkpt>
      <trkpt lat="43.67094" lon="6.20375">
        <ele>820.8</ele>
        <time>2012-05-30T15:24:54Z</time>
      </trkpt>
      <trkpt lat="43.67087" lon="6.20378">
        <ele>820.9</ele>
        <time>2012-05-30T15:25:01Z</time>
      </trkpt>
      <trkpt lat="43.67078" lon="6.20378">
        <ele>822.1</ele>
        <time>2012-05-30T15:25:10Z</time>
      </trkpt>
      <trkpt lat="43.6707" lon="6.20385">
        <ele>823.9</ele>
        <time>2012-05-30T15:25:20Z</time>
      </trkpt>
      <trkpt lat="43.67062" lon="6.20388">
        <ele>823.6</ele>
        <time>2012-05-30T15:25:28Z</time>
      </trkpt>
      <trkpt lat="43.67061" lon="6.20389">
        <ele>823.6</ele>
        <time>2012-05-30T15:25:29Z</time>
      </trkpt>
      <trkpt lat="43.67048" lon="6.20402">
        <ele>825.6</ele>
        <time>2012-05-30T15:25:44Z</time>
      </trkpt>
      <trkpt lat="43.67041" lon="6.20407">
        <ele>826.8</ele>
        <time>2012-05-30T15:25:52Z</time>
      </trkpt>
      <trkpt lat="43.67033" lon="6.20411">
        <ele>827.9</ele>
        <time>2012-05-30T15:25:59Z</time>
      </trkpt>
      <trkpt lat="43.67028" lon="6.20421">
        <ele>828</ele>
        <time>2012-05-30T15:26:08Z</time>
      </trkpt>
      <trkpt lat="43.67027" lon="6.20432">
        <ele>829.8</ele>
        <time>2012-05-30T15:26:17Z</time>
      </trkpt>
      <trkpt lat="43.67025" lon="6.20444">
        <ele>829.6</ele>
        <time>2012-05-30T15:26:26Z</time>
      </trkpt>
      <trkpt lat="43.67025" lon="6.20456">
        <ele>829.3</ele>
        <time>2012-05-30T15:26:35Z</time>
      </trkpt>
      <trkpt lat="43.67024" lon="6.20457">
        <ele>829.5</ele>
        <time>2012-05-30T15:26:36Z</time>
      </trkpt>
      <trkpt lat="43.67019" lon="6.20478">
        <ele>830</ele>
        <time>2012-05-30T15:26:49Z</time>
      </trkpt>
      <trkpt lat="43.67015" lon="6.20488">
        <ele>830.4</ele>
        <time>2012-05-30T15:26:56Z</time>
      </trkpt>
      <trkpt lat="43.67009" lon="6.20496">
        <ele>829.6</ele>
        <time>2012-05-30T15:27:04Z</time>
      </trkpt>
      <trkpt lat="43.67001" lon="6.20498">
        <ele>829</ele>
        <time>2012-05-30T15:27:10Z</time>
      </trkpt>
      <trkpt lat="43.66993" lon="6.20504">
        <ele>829.8</ele>
        <time>2012-05-30T15:27:17Z</time>
      </trkpt>
      <trkpt lat="43.66988" lon="6.20513">
        <ele>830.9</ele>
        <time>2012-05-30T15:27:25Z</time>
      </trkpt>
      <trkpt lat="43.66987" lon="6.20525">
        <ele>833.2</ele>
        <time>2012-05-30T15:27:35Z</time>
      </trkpt>
      <trkpt lat="43.66986" lon="6.20537">
        <ele>834</ele>
        <time>2012-05-30T15:27:44Z</time>
      </trkpt>
      <trkpt lat="43.66986" lon="6.20538">
        <ele>834.1</ele>
        <time>2012-05-30T15:27:45Z</time>
      </trkpt>
      <trkpt lat="43.66988" lon="6.20561">
        <ele>835.8</ele>
        <time>2012-05-30T15:28:03Z</time>
      </trkpt>
      <trkpt lat="43.66989" lon="6.20573">
        <ele>836.7</ele>
        <time>2012-05-30T15:28:12Z</time>
      </trkpt>
      <trkpt lat="43.66989" lon="6.20584">
        <ele>837.4</ele>
        <time>2012-05-30T15:28:19Z</time>
      </trkpt>
      <trkpt lat="43.66985" lon="6.20593">
        <ele>837.7</ele>
        <time>2012-05-30T15:28:27Z</time>
      </trkpt>
      <trkpt lat="43.66979" lon="6.20602">
        <ele>838.3</ele>
        <time>2012-05-30T15:28:35Z</time>
      </trkpt>
      <trkpt lat="43.66972" lon="6.20609">
        <ele>839.1</ele>
        <time>2012-05-30T15:28:43Z</time>
      </trkpt>
      <trkpt lat="43.66966" lon="6.20617">
        <ele>839.4</ele>
        <time>2012-05-30T15:28:51Z</time>
      </trkpt>
      <trkpt lat="43.66965" lon="6.20617">
        <ele>839.3</ele>
        <time>2012-05-30T15:28:52Z</time>
      </trkpt>
      <trkpt lat="43.6695" lon="6.20627">
        <ele>842.5</ele>
        <time>2012-05-30T15:29:10Z</time>
      </trkpt>
      <trkpt lat="43.66942" lon="6.20631">
        <ele>843.1</ele>
        <time>2012-05-30T15:29:18Z</time>
      </trkpt>
      <trkpt lat="43.66935" lon="6.20638">
        <ele>845</ele>
        <time>2012-05-30T15:29:27Z</time>
      </trkpt>
      <trkpt lat="43.66928" lon="6.20644">
        <ele>845.8</ele>
        <time>2012-05-30T15:29:35Z</time>
      </trkpt>
      <trkpt lat="43.6692" lon="6.20649">
        <ele>847.2</ele>
        <time>2012-05-30T15:29:46Z</time>
      </trkpt>
      <trkpt lat="43.66915" lon="6.20659">
        <ele>847.6</ele>
        <time>2012-05-30T15:29:54Z</time>
      </trkpt>
      <trkpt lat="43.66914" lon="6.2066">
        <ele>847.2</ele>
        <time>2012-05-30T15:29:55Z</time>
      </trkpt>
      <trkpt lat="43.66902" lon="6.20674">
        <ele>850.8</ele>
        <time>2012-05-30T15:30:10Z</time>
      </trkpt>
      <trkpt lat="43.66896" lon="6.20681">
        <ele>851</ele>
        <time>2012-05-30T15:30:17Z</time>
      </trkpt>
      <trkpt lat="43.6689" lon="6.20686">
        <ele>852.4</ele>
        <time>2012-05-30T15:30:24Z</time>
      </trkpt>
      <trkpt lat="43.66886" lon="6.20698">
        <ele>851.9</ele>
        <time>2012-05-30T15:30:39Z</time>
      </trkpt>
      <trkpt lat="43.66878" lon="6.20694">
        <ele>851.6</ele>
        <time>2012-05-30T15:31:35Z</time>
      </trkpt>
      <trkpt lat="43.66877" lon="6.20694">
        <ele>851.6</ele>
        <time>2012-05-30T15:31:36Z</time>
      </trkpt>
      <trkpt lat="43.66878" lon="6.20706">
        <ele>850.8</ele>
        <time>2012-05-30T15:34:43Z</time>
      </trkpt>
      <trkpt lat="43.66875" lon="6.20728">
        <ele>850.3</ele>
        <time>2012-05-30T15:34:58Z</time>
      </trkpt>
      <trkpt lat="43.66873" lon="6.2074">
        <ele>850.1</ele>
        <time>2012-05-30T15:35:06Z</time>
      </trkpt>
      <trkpt lat="43.66872" lon="6.20751">
        <ele>850.3</ele>
        <time>2012-05-30T15:35:13Z</time>
      </trkpt>
      <trkpt lat="43.66873" lon="6.20762">
        <ele>848.9</ele>
        <time>2012-05-30T15:35:21Z</time>
      </trkpt>
      <trkpt lat="43.66873" lon="6.20775">
        <ele>848.7</ele>
        <time>2012-05-30T15:35:31Z</time>
      </trkpt>
      <trkpt lat="43.66872" lon="6.20786">
        <ele>849.2</ele>
        <time>2012-05-30T15:35:38Z</time>
      </trkpt>
      <trkpt lat="43.66871" lon="6.20797">
        <ele>847.9</ele>
        <time>2012-05-30T15:35:45Z</time>
      </trkpt>
      <trkpt lat="43.66871" lon="6.20799">
        <ele>847.8</ele>
        <time>2012-05-30T15:35:46Z</time>
      </trkpt>
      <trkpt lat="43.66866" lon="6.20818">
        <ele>848.7</ele>
        <time>2012-05-30T15:35:58Z</time>
      </trkpt>
      <trkpt lat="43.66863" lon="6.20829">
        <ele>849.3</ele>
        <time>2012-05-30T15:36:05Z</time>
      </trkpt>
      <trkpt lat="43.66862" lon="6.20841">
        <ele>849.5</ele>
        <time>2012-05-30T15:36:13Z</time>
      </trkpt>
      <trkpt lat="43.66859" lon="6.20852">
        <ele>848.9</ele>
        <time>2012-05-30T15:36:21Z</time>
      </trkpt>
      <trkpt lat="43.66857" lon="6.20863">
        <ele>848.7</ele>
        <time>2012-05-30T15:36:27Z</time>
      </trkpt>
      <trkpt lat="43.66856" lon="6.20875">
        <ele>849</ele>
        <time>2012-05-30T15:36:34Z</time>
      </trkpt>
      <trkpt lat="43.66853" lon="6.20885">
        <ele>849.4</ele>
        <time>2012-05-30T15:36:41Z</time>
      </trkpt>
      <trkpt lat="43.66852" lon="6.20897">
        <ele>848.8</ele>
        <time>2012-05-30T15:36:48Z</time>
      </trkpt>
      <trkpt lat="43.66851" lon="6.20899">
        <ele>849.1</ele>
        <time>2012-05-30T15:36:49Z</time>
      </trkpt>
      <trkpt lat="43.66846" lon="6.20919">
        <ele>850.9</ele>
        <time>2012-05-30T15:37:03Z</time>
      </trkpt>
      <trkpt lat="43.66844" lon="6.20929">
        <ele>851</ele>
        <time>2012-05-30T15:37:10Z</time>
      </trkpt>
      <trkpt lat="43.66841" lon="6.20941">
        <ele>851.6</ele>
        <time>2012-05-30T15:37:18Z</time>
      </trkpt>
      <trkpt lat="43.66839" lon="6.20952">
        <ele>851.7</ele>
        <time>2012-05-30T15:37:25Z</time>
      </trkpt>
      <trkpt lat="43.66839" lon="6.20964">
        <ele>852.7</ele>
        <time>2012-05-30T15:37:33Z</time>
      </trkpt>
      <trkpt lat="43.66836" lon="6.20974">
        <ele>852.6</ele>
        <time>2012-05-30T15:37:40Z</time>
      </trkpt>
      <trkpt lat="43.66833" lon="6.20985">
        <ele>852.7</ele>
        <time>2012-05-30T15:37:48Z</time>
      </trkpt>
      <trkpt lat="43.66829" lon="6.20996">
        <ele>853.6</ele>
        <time>2012-05-30T15:37:55Z</time>
      </trkpt>
      <trkpt lat="43.66829" lon="6.20997">
        <ele>853.6</ele>
        <time>2012-05-30T15:37:56Z</time>
      </trkpt>
      <trkpt lat="43.66821" lon="6.21016">
        <ele>854.7</ele>
        <time>2012-05-30T15:38:10Z</time>
      </trkpt>
      <trkpt lat="43.66817" lon="6.21025">
        <ele>855.5</ele>
        <time>2012-05-30T15:38:17Z</time>
      </trkpt>
      <trkpt lat="43.66813" lon="6.21035">
        <ele>855.8</ele>
        <time>2012-05-30T15:38:24Z</time>
      </trkpt>
      <trkpt lat="43.6681" lon="6.21047">
        <ele>856.6</ele>
        <time>2012-05-30T15:38:32Z</time>
      </trkpt>
      <trkpt lat="43.66804" lon="6.21056">
        <ele>857.2</ele>
        <time>2012-05-30T15:38:39Z</time>
      </trkpt>
      <trkpt lat="43.66798" lon="6.21064">
        <ele>857.5</ele>
        <time>2012-05-30T15:38:48Z</time>
      </trkpt>
      <trkpt lat="43.66792" lon="6.21072">
        <ele>857.4</ele>
        <time>2012-05-30T15:38:55Z</time>
      </trkpt>
      <trkpt lat="43.66785" lon="6.21077">
        <ele>858.8</ele>
        <time>2012-05-30T15:39:02Z</time>
      </trkpt>
      <trkpt lat="43.66783" lon="6.21078">
        <ele>859.1</ele>
        <time>2012-05-30T15:39:03Z</time>
      </trkpt>
      <trkpt lat="43.66771" lon="6.21092">
        <ele>859.1</ele>
        <time>2012-05-30T15:39:17Z</time>
      </trkpt>
      <trkpt lat="43.66766" lon="6.21102">
        <ele>858.2</ele>
        <time>2012-05-30T15:39:27Z</time>
      </trkpt>
      <trkpt lat="43.66759" lon="6.21109">
        <ele>857.1</ele>
        <time>2012-05-30T15:39:34Z</time>
      </trkpt>
      <trkpt lat="43.66754" lon="6.21117">
        <ele>855.6</ele>
        <time>2012-05-30T15:39:42Z</time>
      </trkpt>
      <trkpt lat="43.66747" lon="6.21124">
        <ele>854.2</ele>
        <time>2012-05-30T15:39:49Z</time>
      </trkpt>
      <trkpt lat="43.66742" lon="6.21134">
        <ele>853.1</ele>
        <time>2012-05-30T15:39:57Z</time>
      </trkpt>
      <trkpt lat="43.66737" lon="6.21142">
        <ele>853.2</ele>
        <time>2012-05-30T15:40:04Z</time>
      </trkpt>
      <trkpt lat="43.66736" lon="6.21144">
        <ele>853.3</ele>
        <time>2012-05-30T15:40:05Z</time>
      </trkpt>
      <trkpt lat="43.66724" lon="6.21156">
        <ele>851.6</ele>
        <time>2012-05-30T15:40:18Z</time>
      </trkpt>
      <trkpt lat="43.66718" lon="6.21165">
        <ele>849.6</ele>
        <time>2012-05-30T15:40:26Z</time>
      </trkpt>
      <trkpt lat="43.66715" lon="6.21176">
        <ele>848.3</ele>
        <time>2012-05-30T15:40:34Z</time>
      </trkpt>
      <trkpt lat="43.6671" lon="6.21185">
        <ele>847.3</ele>
        <time>2012-05-30T15:40:41Z</time>
      </trkpt>
      <trkpt lat="43.66704" lon="6.21193">
        <ele>846.4</ele>
        <time>2012-05-30T15:40:49Z</time>
      </trkpt>
      <trkpt lat="43.66703" lon="6.21205">
        <ele>845.7</ele>
        <time>2012-05-30T15:40:56Z</time>
      </trkpt>
      <trkpt lat="43.66695" lon="6.2121">
        <ele>844.7</ele>
        <time>2012-05-30T15:41:03Z</time>
      </trkpt>
      <trkpt lat="43.6669" lon="6.21217">
        <ele>844</ele>
        <time>2012-05-30T15:41:10Z</time>
      </trkpt>
      <trkpt lat="43.66688" lon="6.21217">
        <ele>843.6</ele>
        <time>2012-05-30T15:41:11Z</time>
      </trkpt>
      <trkpt lat="43.66676" lon="6.21231">
        <ele>842.7</ele>
        <time>2012-05-30T15:41:25Z</time>
      </trkpt>
      <trkpt lat="43.6667" lon="6.21238">
        <ele>841.3</ele>
        <time>2012-05-30T15:41:32Z</time>
      </trkpt>
      <trkpt lat="43.66665" lon="6.21247">
        <ele>841.5</ele>
        <time>2012-05-30T15:41:40Z</time>
      </trkpt>
      <trkpt lat="43.66658" lon="6.21254">
        <ele>839.9</ele>
        <time>2012-05-30T15:41:47Z</time>
      </trkpt>
      <trkpt lat="43.66654" lon="6.21264">
        <ele>839.9</ele>
        <time>2012-05-30T15:41:53Z</time>
      </trkpt>
      <trkpt lat="43.66647" lon="6.21267">
        <ele>839.5</ele>
        <time>2012-05-30T15:41:57Z</time>
      </trkpt>
      <trkpt lat="43.66641" lon="6.21276">
        <ele>838.9</ele>
        <time>2012-05-30T15:42:06Z</time>
      </trkpt>
      <trkpt lat="43.66635" lon="6.21285">
        <ele>838.9</ele>
        <time>2012-05-30T15:42:17Z</time>
      </trkpt>
      <trkpt lat="43.66634" lon="6.21286">
        <ele>839.3</ele>
        <time>2012-05-30T15:42:18Z</time>
      </trkpt>
      <trkpt lat="43.66622" lon="6.21297">
        <ele>839.4</ele>
        <time>2012-05-30T15:42:30Z</time>
      </trkpt>
      <trkpt lat="43.66619" lon="6.21308">
        <ele>840.2</ele>
        <time>2012-05-30T15:42:38Z</time>
      </trkpt>
      <trkpt lat="43.66613" lon="6.21317">
        <ele>840</ele>
        <time>2012-05-30T15:43:01Z</time>
      </trkpt>
      <trkpt lat="43.66609" lon="6.21327">
        <ele>839.2</ele>
        <time>2012-05-30T15:43:30Z</time>
      </trkpt>
      <trkpt lat="43.66608" lon="6.21328">
        <ele>839.1</ele>
        <time>2012-05-30T15:43:31Z</time>
      </trkpt>
      <trkpt lat="43.66598" lon="6.21343">
        <ele>839</ele>
        <time>2012-05-30T15:43:45Z</time>
      </trkpt>
      <trkpt lat="43.66592" lon="6.21352">
        <ele>838.8</ele>
        <time>2012-05-30T15:43:52Z</time>
      </trkpt>
      <trkpt lat="43.66586" lon="6.21359">
        <ele>838.9</ele>
        <time>2012-05-30T15:43:59Z</time>
      </trkpt>
      <trkpt lat="43.66583" lon="6.21369">
        <ele>838.6</ele>
        <time>2012-05-30T15:44:07Z</time>
      </trkpt>
      <trkpt lat="43.6658" lon="6.2138">
        <ele>839.1</ele>
        <time>2012-05-30T15:44:14Z</time>
      </trkpt>
      <trkpt lat="43.66575" lon="6.21389">
        <ele>838.9</ele>
        <time>2012-05-30T15:44:22Z</time>
      </trkpt>
      <trkpt lat="43.66568" lon="6.21395">
        <ele>838.7</ele>
        <time>2012-05-30T15:44:28Z</time>
      </trkpt>
      <trkpt lat="43.66563" lon="6.21405">
        <ele>838.3</ele>
        <time>2012-05-30T15:44:35Z</time>
      </trkpt>
      <trkpt lat="43.66562" lon="6.21406">
        <ele>838.3</ele>
        <time>2012-05-30T15:44:36Z</time>
      </trkpt>
      <trkpt lat="43.66551" lon="6.2142">
        <ele>837.9</ele>
        <time>2012-05-30T15:44:49Z</time>
      </trkpt>
      <trkpt lat="43.66543" lon="6.21423">
        <ele>838</ele>
        <time>2012-05-30T15:44:55Z</time>
      </trkpt>
      <trkpt lat="43.66535" lon="6.21425">
        <ele>838.4</ele>
        <time>2012-05-30T15:45:02Z</time>
      </trkpt>
      <trkpt lat="43.66526" lon="6.21427">
        <ele>836.8</ele>
        <time>2012-05-30T15:45:11Z</time>
      </trkpt>
      <trkpt lat="43.66519" lon="6.2143">
        <ele>836</ele>
        <time>2012-05-30T15:45:19Z</time>
      </trkpt>
      <trkpt lat="43.66511" lon="6.21435">
        <ele>834.4</ele>
        <time>2012-05-30T15:45:26Z</time>
      </trkpt>
      <trkpt lat="43.66506" lon="6.21445">
        <ele>832.7</ele>
        <time>2012-05-30T15:45:36Z</time>
      </trkpt>
      <trkpt lat="43.66506" lon="6.21446">
        <ele>832.6</ele>
        <time>2012-05-30T15:45:37Z</time>
      </trkpt>
      <trkpt lat="43.66493" lon="6.2146">
        <ele>830.6</ele>
        <time>2012-05-30T15:45:52Z</time>
      </trkpt>
      <trkpt lat="43.66491" lon="6.21471">
        <ele>828.5</ele>
        <time>2012-05-30T15:46:00Z</time>
      </trkpt>
      <trkpt lat="43.66488" lon="6.21482">
        <ele>827.2</ele>
        <time>2012-05-30T15:46:09Z</time>
      </trkpt>
      <trkpt lat="43.66485" lon="6.21493">
        <ele>827.6</ele>
        <time>2012-05-30T15:46:17Z</time>
      </trkpt>
      <trkpt lat="43.66482" lon="6.21504">
        <ele>824.9</ele>
        <time>2012-05-30T15:46:25Z</time>
      </trkpt>
      <trkpt lat="43.66479" lon="6.21514">
        <ele>823.7</ele>
        <time>2012-05-30T15:46:32Z</time>
      </trkpt>
      <trkpt lat="43.66476" lon="6.21526">
        <ele>821.9</ele>
        <time>2012-05-30T15:46:39Z</time>
      </trkpt>
      <trkpt lat="43.66476" lon="6.21528">
        <ele>821.9</ele>
        <time>2012-05-30T15:46:40Z</time>
      </trkpt>
      <trkpt lat="43.66475" lon="6.21548">
        <ele>821.7</ele>
        <time>2012-05-30T15:46:53Z</time>
      </trkpt>
      <trkpt lat="43.66474" lon="6.21559">
        <ele>820.2</ele>
        <time>2012-05-30T15:47:00Z</time>
      </trkpt>
      <trkpt lat="43.66472" lon="6.2157">
        <ele>818.4</ele>
        <time>2012-05-30T15:47:07Z</time>
      </trkpt>
      <trkpt lat="43.6647" lon="6.21581">
        <ele>818.5</ele>
        <time>2012-05-30T15:47:14Z</time>
      </trkpt>
      <trkpt lat="43.66465" lon="6.21591">
        <ele>819.9</ele>
        <time>2012-05-30T15:47:20Z</time>
      </trkpt>
      <trkpt lat="43.66461" lon="6.21602">
        <ele>818.5</ele>
        <time>2012-05-30T15:47:26Z</time>
      </trkpt>
      <trkpt lat="43.66456" lon="6.21611">
        <ele>818.3</ele>
        <time>2012-05-30T15:47:33Z</time>
      </trkpt>
      <trkpt lat="43.66452" lon="6.21622">
        <ele>818.7</ele>
        <time>2012-05-30T15:47:41Z</time>
      </trkpt>
      <trkpt lat="43.66452" lon="6.21623">
        <ele>818.8</ele>
        <time>2012-05-30T15:47:42Z</time>
      </trkpt>
      <trkpt lat="43.66451" lon="6.21643">
        <ele>818</ele>
        <time>2012-05-30T15:47:55Z</time>
      </trkpt>
      <trkpt lat="43.66449" lon="6.21655">
        <ele>819.2</ele>
        <time>2012-05-30T15:48:02Z</time>
      </trkpt>
      <trkpt lat="43.66446" lon="6.21666">
        <ele>820.3</ele>
        <time>2012-05-30T15:48:09Z</time>
      </trkpt>
      <trkpt lat="43.66443" lon="6.21677">
        <ele>821.1</ele>
        <time>2012-05-30T15:48:16Z</time>
      </trkpt>
      <trkpt lat="43.66438" lon="6.21687">
        <ele>820.9</ele>
        <time>2012-05-30T15:48:24Z</time>
      </trkpt>
      <trkpt lat="43.66432" lon="6.21694">
        <ele>821.7</ele>
        <time>2012-05-30T15:48:32Z</time>
      </trkpt>
      <trkpt lat="43.66428" lon="6.21704">
        <ele>822.3</ele>
        <time>2012-05-30T15:48:40Z</time>
      </trkpt>
      <trkpt lat="43.66422" lon="6.21712">
        <ele>822.4</ele>
        <time>2012-05-30T15:48:47Z</time>
      </trkpt>
      <trkpt lat="43.66421" lon="6.21714">
        <ele>822.5</ele>
        <time>2012-05-30T15:48:48Z</time>
      </trkpt>
      <trkpt lat="43.66412" lon="6.2173">
        <ele>823.8</ele>
        <time>2012-05-30T15:49:01Z</time>
      </trkpt>
      <trkpt lat="43.66407" lon="6.21741">
        <ele>824.5</ele>
        <time>2012-05-30T15:49:08Z</time>
      </trkpt>
      <trkpt lat="43.66402" lon="6.2175">
        <ele>825.2</ele>
        <time>2012-05-30T15:49:14Z</time>
      </trkpt>
      <trkpt lat="43.66397" lon="6.21759">
        <ele>825.1</ele>
        <time>2012-05-30T15:49:21Z</time>
      </trkpt>
      <trkpt lat="43.66393" lon="6.2177">
        <ele>825.9</ele>
        <time>2012-05-30T15:49:29Z</time>
      </trkpt>
      <trkpt lat="43.66388" lon="6.2178">
        <ele>825.8</ele>
        <time>2012-05-30T15:49:36Z</time>
      </trkpt>
      <trkpt lat="43.66385" lon="6.21791">
        <ele>826.8</ele>
        <time>2012-05-30T15:49:43Z</time>
      </trkpt>
      <trkpt lat="43.6638" lon="6.21801">
        <ele>827.6</ele>
        <time>2012-05-30T15:49:50Z</time>
      </trkpt>
      <trkpt lat="43.66379" lon="6.21803">
        <ele>827.4</ele>
        <time>2012-05-30T15:49:51Z</time>
      </trkpt>
      <trkpt lat="43.66372" lon="6.21823">
        <ele>828.4</ele>
        <time>2012-05-30T15:50:06Z</time>
      </trkpt>
      <trkpt lat="43.66368" lon="6.21834">
        <ele>828.2</ele>
        <time>2012-05-30T15:50:14Z</time>
      </trkpt>
      <trkpt lat="43.66362" lon="6.21842">
        <ele>828.8</ele>
        <time>2012-05-30T15:50:21Z</time>
      </trkpt>
      <trkpt lat="43.66356" lon="6.2185">
        <ele>829.8</ele>
        <time>2012-05-30T15:50:28Z</time>
      </trkpt>
      <trkpt lat="43.6635" lon="6.21856">
        <ele>829.9</ele>
        <time>2012-05-30T15:50:33Z</time>
      </trkpt>
      <trkpt lat="43.66344" lon="6.21864">
        <ele>830.1</ele>
        <time>2012-05-30T15:50:40Z</time>
      </trkpt>
      <trkpt lat="43.66339" lon="6.21872">
        <ele>830.5</ele>
        <time>2012-05-30T15:50:47Z</time>
      </trkpt>
      <trkpt lat="43.66333" lon="6.21881">
        <ele>831.3</ele>
        <time>2012-05-30T15:50:53Z</time>
      </trkpt>
      <trkpt lat="43.66333" lon="6.21883">
        <ele>831.3</ele>
        <time>2012-05-30T15:50:54Z</time>
      </trkpt>
      <trkpt lat="43.66325" lon="6.21901">
        <ele>831.3</ele>
        <time>2012-05-30T15:51:07Z</time>
      </trkpt>
      <trkpt lat="43.66321" lon="6.2191">
        <ele>830.5</ele>
        <time>2012-05-30T15:51:13Z</time>
      </trkpt>
      <trkpt lat="43.66315" lon="6.21918">
        <ele>831.3</ele>
        <time>2012-05-30T15:51:19Z</time>
      </trkpt>
      <trkpt lat="43.66311" lon="6.21928">
        <ele>831.5</ele>
        <time>2012-05-30T15:51:25Z</time>
      </trkpt>
      <trkpt lat="43.66309" lon="6.2194">
        <ele>831.8</ele>
        <time>2012-05-30T15:51:33Z</time>
      </trkpt>
      <trkpt lat="43.66307" lon="6.21951">
        <ele>831.8</ele>
        <time>2012-05-30T15:51:40Z</time>
      </trkpt>
      <trkpt lat="43.66305" lon="6.21963">
        <ele>831.1</ele>
        <time>2012-05-30T15:51:46Z</time>
      </trkpt>
      <trkpt lat="43.66303" lon="6.21974">
        <ele>831.2</ele>
        <time>2012-05-30T15:51:52Z</time>
      </trkpt>
      <trkpt lat="43.66299" lon="6.21985">
        <ele>830.6</ele>
        <time>2012-05-30T15:51:59Z</time>
      </trkpt>
      <trkpt lat="43.66299" lon="6.21986">
        <ele>830.7</ele>
        <time>2012-05-30T15:52:00Z</time>
      </trkpt>
      <trkpt lat="43.66295" lon="6.22007">
        <ele>829.7</ele>
        <time>2012-05-30T15:52:13Z</time>
      </trkpt>
      <trkpt lat="43.66292" lon="6.22018">
        <ele>829.7</ele>
        <time>2012-05-30T15:52:19Z</time>
      </trkpt>
      <trkpt lat="43.66288" lon="6.22028">
        <ele>829.7</ele>
        <time>2012-05-30T15:52:26Z</time>
      </trkpt>
      <trkpt lat="43.66283" lon="6.22038">
        <ele>828.3</ele>
        <time>2012-05-30T15:52:34Z</time>
      </trkpt>
      <trkpt lat="43.66275" lon="6.22043">
        <ele>827</ele>
        <time>2012-05-30T15:52:42Z</time>
      </trkpt>
      <trkpt lat="43.6627" lon="6.22052">
        <ele>827</ele>
        <time>2012-05-30T15:52:49Z</time>
      </trkpt>
      <trkpt lat="43.66262" lon="6.22057">
        <ele>826</ele>
        <time>2012-05-30T15:52:57Z</time>
      </trkpt>
      <trkpt lat="43.66255" lon="6.22064">
        <ele>825.4</ele>
        <time>2012-05-30T15:53:04Z</time>
      </trkpt>
      <trkpt lat="43.66255" lon="6.22066">
        <ele>825.4</ele>
        <time>2012-05-30T15:53:05Z</time>
      </trkpt>
      <trkpt lat="43.66247" lon="6.22082">
        <ele>823.5</ele>
        <time>2012-05-30T15:53:20Z</time>
      </trkpt>
      <trkpt lat="43.66242" lon="6.22092">
        <ele>822.9</ele>
        <time>2012-05-30T15:53:26Z</time>
      </trkpt>
      <trkpt lat="43.66239" lon="6.22102">
        <ele>822.2</ele>
        <time>2012-05-30T15:53:33Z</time>
      </trkpt>
      <trkpt lat="43.66234" lon="6.22113">
        <ele>822.4</ele>
        <time>2012-05-30T15:53:41Z</time>
      </trkpt>
      <trkpt lat="43.66231" lon="6.22124">
        <ele>822.1</ele>
        <time>2012-05-30T15:53:48Z</time>
      </trkpt>
      <trkpt lat="43.66226" lon="6.22134">
        <ele>822.8</ele>
        <time>2012-05-30T15:53:54Z</time>
      </trkpt>
      <trkpt lat="43.66223" lon="6.22143">
        <ele>822.5</ele>
        <time>2012-05-30T15:54:00Z</time>
      </trkpt>
      <trkpt lat="43.66222" lon="6.22155">
        <ele>822.4</ele>
        <time>2012-05-30T15:54:07Z</time>
      </trkpt>
      <trkpt lat="43.66221" lon="6.22157">
        <ele>822.4</ele>
        <time>2012-05-30T15:54:08Z</time>
      </trkpt>
      <trkpt lat="43.66214" lon="6.22175">
        <ele>822.5</ele>
        <time>2012-05-30T15:54:20Z</time>
      </trkpt>
      <trkpt lat="43.66213" lon="6.22185">
        <ele>822.1</ele>
        <time>2012-05-30T15:54:26Z</time>
      </trkpt>
      <trkpt lat="43.6621" lon="6.22197">
        <ele>821.2</ele>
        <time>2012-05-30T15:54:33Z</time>
      </trkpt>
      <trkpt lat="43.66207" lon="6.22208">
        <ele>821.9</ele>
        <time>2012-05-30T15:54:40Z</time>
      </trkpt>
      <trkpt lat="43.66204" lon="6.2222">
        <ele>820.8</ele>
        <time>2012-05-30T15:54:47Z</time>
      </trkpt>
      <trkpt lat="43.66202" lon="6.2223">
        <ele>821</ele>
        <time>2012-05-30T15:54:53Z</time>
      </trkpt>
      <trkpt lat="43.662" lon="6.22241">
        <ele>821</ele>
        <time>2012-05-30T15:54:59Z</time>
      </trkpt>
      <trkpt lat="43.66199" lon="6.22253">
        <ele>819.4</ele>
        <time>2012-05-30T15:55:06Z</time>
      </trkpt>
      <trkpt lat="43.66195" lon="6.22264">
        <ele>818.7</ele>
        <time>2012-05-30T15:55:13Z</time>
      </trkpt>
      <trkpt lat="43.66195" lon="6.22266">
        <ele>818.7</ele>
        <time>2012-05-30T15:55:14Z</time>
      </trkpt>
      <trkpt lat="43.66191" lon="6.22288">
        <ele>818</ele>
        <time>2012-05-30T15:55:27Z</time>
      </trkpt>
      <trkpt lat="43.6619" lon="6.22299">
        <ele>817.8</ele>
        <time>2012-05-30T15:55:35Z</time>
      </trkpt>
      <trkpt lat="43.66191" lon="6.22311">
        <ele>816.6</ele>
        <time>2012-05-30T15:55:42Z</time>
      </trkpt>
      <trkpt lat="43.6619" lon="6.22323">
        <ele>816.4</ele>
        <time>2012-05-30T15:55:49Z</time>
      </trkpt>
      <trkpt lat="43.66189" lon="6.22335">
        <ele>815.7</ele>
        <time>2012-05-30T15:55:56Z</time>
      </trkpt>
      <trkpt lat="43.66187" lon="6.22346">
        <ele>815.9</ele>
        <time>2012-05-30T15:56:04Z</time>
      </trkpt>
      <trkpt lat="43.66184" lon="6.22358">
        <ele>815.1</ele>
        <time>2012-05-30T15:56:11Z</time>
      </trkpt>
      <trkpt lat="43.66183" lon="6.22369">
        <ele>815.3</ele>
        <time>2012-05-30T15:56:18Z</time>
      </trkpt>
      <trkpt lat="43.66183" lon="6.2237">
        <ele>815.4</ele>
        <time>2012-05-30T15:56:19Z</time>
      </trkpt>
      <trkpt lat="43.66185" lon="6.22393">
        <ele>814.1</ele>
        <time>2012-05-30T15:56:32Z</time>
      </trkpt>
      <trkpt lat="43.66184" lon="6.22404">
        <ele>814</ele>
        <time>2012-05-30T15:56:38Z</time>
      </trkpt>
      <trkpt lat="43.66185" lon="6.22416">
        <ele>812.8</ele>
        <time>2012-05-30T15:56:46Z</time>
      </trkpt>
      <trkpt lat="43.66186" lon="6.22428">
        <ele>813.3</ele>
        <time>2012-05-30T15:56:54Z</time>
      </trkpt>
      <trkpt lat="43.66188" lon="6.22439">
        <ele>812.3</ele>
        <time>2012-05-30T15:57:01Z</time>
      </trkpt>
      <trkpt lat="43.66192" lon="6.22449">
        <ele>811.5</ele>
        <time>2012-05-30T15:57:08Z</time>
      </trkpt>
      <trkpt lat="43.66195" lon="6.22459">
        <ele>811.1</ele>
        <time>2012-05-30T15:57:16Z</time>
      </trkpt>
      <trkpt lat="43.66198" lon="6.22471">
        <ele>809.8</ele>
        <time>2012-05-30T15:57:24Z</time>
      </trkpt>
      <trkpt lat="43.66198" lon="6.22473">
        <ele>809.5</ele>
        <time>2012-05-30T15:57:25Z</time>
      </trkpt>
      <trkpt lat="43.66207" lon="6.22491">
        <ele>807.1</ele>
        <time>2012-05-30T15:57:39Z</time>
      </trkpt>
      <trkpt lat="43.66213" lon="6.22499">
        <ele>806.3</ele>
        <time>2012-05-30T15:57:47Z</time>
      </trkpt>
      <trkpt lat="43.6622" lon="6.22506">
        <ele>805.8</ele>
        <time>2012-05-30T15:57:54Z</time>
      </trkpt>
      <trkpt lat="43.66225" lon="6.22515">
        <ele>805.7</ele>
        <time>2012-05-30T15:58:04Z</time>
      </trkpt>
      <trkpt lat="43.66228" lon="6.22524">
        <ele>803.6</ele>
        <time>2012-05-30T15:58:11Z</time>
      </trkpt>
      <trkpt lat="43.6623" lon="6.22535">
        <ele>802.6</ele>
        <time>2012-05-30T15:58:16Z</time>
      </trkpt>
      <trkpt lat="43.66228" lon="6.22546">
        <ele>802.4</ele>
        <time>2012-05-30T15:58:25Z</time>
      </trkpt>
      <trkpt lat="43.66228" lon="6.22547">
        <ele>802.3</ele>
        <time>2012-05-30T15:58:26Z</time>
      </trkpt>
      <trkpt lat="43.66223" lon="6.22569">
        <ele>800.7</ele>
        <time>2012-05-30T15:58:41Z</time>
      </trkpt>
      <trkpt lat="43.66226" lon="6.2258">
        <ele>799.7</ele>
        <time>2012-05-30T15:58:49Z</time>
      </trkpt>
      <trkpt lat="43.66222" lon="6.22591">
        <ele>798.1</ele>
        <time>2012-05-30T15:58:56Z</time>
      </trkpt>
      <trkpt lat="43.66217" lon="6.22601">
        <ele>797.9</ele>
        <time>2012-05-30T15:59:04Z</time>
      </trkpt>
      <trkpt lat="43.66215" lon="6.22613">
        <ele>796.1</ele>
        <time>2012-05-30T15:59:14Z</time>
      </trkpt>
      <trkpt lat="43.66215" lon="6.22625">
        <ele>795.2</ele>
        <time>2012-05-30T15:59:26Z</time>
      </trkpt>
      <trkpt lat="43.66215" lon="6.22625">
        <ele>795.3</ele>
        <time>2012-05-30T15:59:27Z</time>
      </trkpt>
    </trkseg>
  </trk>
</gpx>